<?xml version="1.0" encoding="UTF-8" standalone="no" ?>
<gpx xmlns="http://www.topografix.com/GPX/1/1" xmlns:xsi="http://www.w3.org/2001/XMLSchema-instance" xsi:schemaLocation="http://www.topografix.com/GPX/1/1 http://www.topografix.com/GPX/1/1/gpx.xsd" version="1.1" creator="VisuGPX - https://www.visugpx.com">
  <metadata>
    <name>Pic Bédéra en boucle depuis Tournaboup</name>
    <desc><![CDATA[Pic Bédéra en boucle depuis Tournaboup. Montée par le Col d'Aoube et descente par le ravin de La Mousquère.]]></desc>
  </metadata>
  <trk>
    <name><![CDATA[tour du bedera]]></name>
    <trkseg>
      <trkpt lat="42.90416" lon="0.10345">
        <ele>1464.2</ele>
        <time>2018-01-24T08:05:50Z</time>
      </trkpt>
      <trkpt lat="42.90416" lon="0.10345">
        <ele>1464.22</ele>
        <time>2018-01-24T08:05:51Z</time>
      </trkpt>
      <trkpt lat="42.90417" lon="0.10345">
        <ele>1464.19</ele>
        <time>2018-01-24T08:05:58Z</time>
      </trkpt>
      <trkpt lat="42.90417" lon="0.10345">
        <ele>1464.19</ele>
        <time>2018-01-24T08:06:01Z</time>
      </trkpt>
      <trkpt lat="42.90417" lon="0.10345">
        <ele>1462.32</ele>
        <time>2018-01-24T08:06:16Z</time>
      </trkpt>
      <trkpt lat="42.90417" lon="0.10346">
        <ele>1463.41</ele>
        <time>2018-01-24T08:06:21Z</time>
      </trkpt>
      <trkpt lat="42.90421" lon="0.10348">
        <ele>1463.52</ele>
        <time>2018-01-24T08:06:48Z</time>
      </trkpt>
      <trkpt lat="42.90417" lon="0.10348">
        <ele>1463.74</ele>
        <time>2018-01-24T08:07:15Z</time>
      </trkpt>
      <trkpt lat="42.90417" lon="0.10346">
        <ele>1463.74</ele>
        <time>2018-01-24T08:07:34Z</time>
      </trkpt>
      <trkpt lat="42.90418" lon="0.10347">
        <ele>1463.74</ele>
        <time>2018-01-24T08:07:52Z</time>
      </trkpt>
      <trkpt lat="42.90418" lon="0.10346">
        <ele>1463.74</ele>
        <time>2018-01-24T08:07:53Z</time>
      </trkpt>
      <trkpt lat="42.90405" lon="0.10343">
        <ele>1464.34</ele>
        <time>2018-01-24T08:08:03Z</time>
      </trkpt>
      <trkpt lat="42.90401" lon="0.10349">
        <ele>1464.36</ele>
        <time>2018-01-24T08:08:08Z</time>
      </trkpt>
      <trkpt lat="42.90392" lon="0.10371">
        <ele>1466.46</ele>
        <time>2018-01-24T08:08:22Z</time>
      </trkpt>
      <trkpt lat="42.90388" lon="0.10371">
        <ele>1466.96</ele>
        <time>2018-01-24T08:08:25Z</time>
      </trkpt>
      <trkpt lat="42.90377" lon="0.10383">
        <ele>1468.33</ele>
        <time>2018-01-24T08:08:41Z</time>
      </trkpt>
      <trkpt lat="42.90381" lon="0.10395">
        <ele>1469.63</ele>
        <time>2018-01-24T08:08:50Z</time>
      </trkpt>
      <trkpt lat="42.90392" lon="0.104">
        <ele>1470.53</ele>
        <time>2018-01-24T08:08:59Z</time>
      </trkpt>
      <trkpt lat="42.90398" lon="0.10411">
        <ele>1473.31</ele>
        <time>2018-01-24T08:09:11Z</time>
      </trkpt>
      <trkpt lat="42.90407" lon="0.10425">
        <ele>1476.43</ele>
        <time>2018-01-24T08:09:26Z</time>
      </trkpt>
      <trkpt lat="42.90407" lon="0.10429">
        <ele>1477.22</ele>
        <time>2018-01-24T08:09:29Z</time>
      </trkpt>
      <trkpt lat="42.90407" lon="0.10433">
        <ele>1477.98</ele>
        <time>2018-01-24T08:09:32Z</time>
      </trkpt>
      <trkpt lat="42.90421" lon="0.10449">
        <ele>1481.11</ele>
        <time>2018-01-24T08:09:51Z</time>
      </trkpt>
      <trkpt lat="42.90431" lon="0.10462">
        <ele>1484.02</ele>
        <time>2018-01-24T08:10:07Z</time>
      </trkpt>
      <trkpt lat="42.90437" lon="0.10472">
        <ele>1486.6</ele>
        <time>2018-01-24T08:10:20Z</time>
      </trkpt>
      <trkpt lat="42.90438" lon="0.10483">
        <ele>1489.53</ele>
        <time>2018-01-24T08:10:35Z</time>
      </trkpt>
      <trkpt lat="42.9044" lon="0.10486">
        <ele>1490.2</ele>
        <time>2018-01-24T08:10:39Z</time>
      </trkpt>
      <trkpt lat="42.90448" lon="0.10494">
        <ele>1491.15</ele>
        <time>2018-01-24T08:10:51Z</time>
      </trkpt>
      <trkpt lat="42.90454" lon="0.10505">
        <ele>1493.63</ele>
        <time>2018-01-24T08:11:04Z</time>
      </trkpt>
      <trkpt lat="42.90456" lon="0.10519">
        <ele>1496.73</ele>
        <time>2018-01-24T08:11:18Z</time>
      </trkpt>
      <trkpt lat="42.90462" lon="0.10528">
        <ele>1498.43</ele>
        <time>2018-01-24T08:11:29Z</time>
      </trkpt>
      <trkpt lat="42.90463" lon="0.10536">
        <ele>1501.46</ele>
        <time>2018-01-24T08:11:39Z</time>
      </trkpt>
      <trkpt lat="42.9047" lon="0.10542">
        <ele>1503.07</ele>
        <time>2018-01-24T08:11:51Z</time>
      </trkpt>
      <trkpt lat="42.90469" lon="0.10552">
        <ele>1506.21</ele>
        <time>2018-01-24T08:12:02Z</time>
      </trkpt>
      <trkpt lat="42.90469" lon="0.10556">
        <ele>1506.59</ele>
        <time>2018-01-24T08:12:19Z</time>
      </trkpt>
      <trkpt lat="42.9047" lon="0.10555">
        <ele>1506.04</ele>
        <time>2018-01-24T08:12:41Z</time>
      </trkpt>
      <trkpt lat="42.90471" lon="0.10555">
        <ele>1506.72</ele>
        <time>2018-01-24T08:12:58Z</time>
      </trkpt>
      <trkpt lat="42.90472" lon="0.10555">
        <ele>1506.93</ele>
        <time>2018-01-24T08:13:21Z</time>
      </trkpt>
      <trkpt lat="42.90473" lon="0.10554">
        <ele>1507.26</ele>
        <time>2018-01-24T08:13:43Z</time>
      </trkpt>
      <trkpt lat="42.90478" lon="0.10558">
        <ele>1507.12</ele>
        <time>2018-01-24T08:14:00Z</time>
      </trkpt>
      <trkpt lat="42.90482" lon="0.10571">
        <ele>1509.54</ele>
        <time>2018-01-24T08:14:15Z</time>
      </trkpt>
      <trkpt lat="42.90488" lon="0.10584">
        <ele>1512.63</ele>
        <time>2018-01-24T08:14:30Z</time>
      </trkpt>
      <trkpt lat="42.90494" lon="0.10593">
        <ele>1515.15</ele>
        <time>2018-01-24T08:14:42Z</time>
      </trkpt>
      <trkpt lat="42.905" lon="0.10606">
        <ele>1518.4</ele>
        <time>2018-01-24T08:14:57Z</time>
      </trkpt>
      <trkpt lat="42.90499" lon="0.10618">
        <ele>1521.52</ele>
        <time>2018-01-24T08:15:10Z</time>
      </trkpt>
      <trkpt lat="42.905" lon="0.10629">
        <ele>1523.45</ele>
        <time>2018-01-24T08:15:25Z</time>
      </trkpt>
      <trkpt lat="42.9051" lon="0.1064">
        <ele>1526.51</ele>
        <time>2018-01-24T08:15:42Z</time>
      </trkpt>
      <trkpt lat="42.90518" lon="0.10648">
        <ele>1529.17</ele>
        <time>2018-01-24T08:15:56Z</time>
      </trkpt>
      <trkpt lat="42.90525" lon="0.1066">
        <ele>1530.42</ele>
        <time>2018-01-24T08:16:11Z</time>
      </trkpt>
      <trkpt lat="42.90533" lon="0.10674">
        <ele>1533.5</ele>
        <time>2018-01-24T08:16:27Z</time>
      </trkpt>
      <trkpt lat="42.90536" lon="0.10689">
        <ele>1535.97</ele>
        <time>2018-01-24T08:16:44Z</time>
      </trkpt>
      <trkpt lat="42.90538" lon="0.10701">
        <ele>1537.29</ele>
        <time>2018-01-24T08:16:55Z</time>
      </trkpt>
      <trkpt lat="42.90544" lon="0.10723">
        <ele>1540.26</ele>
        <time>2018-01-24T08:17:15Z</time>
      </trkpt>
      <trkpt lat="42.90548" lon="0.10738">
        <ele>1543.13</ele>
        <time>2018-01-24T08:17:30Z</time>
      </trkpt>
      <trkpt lat="42.9055" lon="0.10755">
        <ele>1545.72</ele>
        <time>2018-01-24T08:17:45Z</time>
      </trkpt>
      <trkpt lat="42.90555" lon="0.10771">
        <ele>1547.92</ele>
        <time>2018-01-24T08:17:59Z</time>
      </trkpt>
      <trkpt lat="42.90562" lon="0.1079">
        <ele>1549.93</ele>
        <time>2018-01-24T08:18:16Z</time>
      </trkpt>
      <trkpt lat="42.90567" lon="0.10806">
        <ele>1550.94</ele>
        <time>2018-01-24T08:18:30Z</time>
      </trkpt>
      <trkpt lat="42.90572" lon="0.10822">
        <ele>1551.49</ele>
        <time>2018-01-24T08:18:45Z</time>
      </trkpt>
      <trkpt lat="42.90575" lon="0.10836">
        <ele>1552.31</ele>
        <time>2018-01-24T08:18:57Z</time>
      </trkpt>
      <trkpt lat="42.90579" lon="0.10854">
        <ele>1552.59</ele>
        <time>2018-01-24T08:19:11Z</time>
      </trkpt>
      <trkpt lat="42.90581" lon="0.10862">
        <ele>1553.14</ele>
        <time>2018-01-24T08:19:18Z</time>
      </trkpt>
      <trkpt lat="42.90586" lon="0.10887">
        <ele>1553.62</ele>
        <time>2018-01-24T08:19:37Z</time>
      </trkpt>
      <trkpt lat="42.9059" lon="0.1091">
        <ele>1553.17</ele>
        <time>2018-01-24T08:19:52Z</time>
      </trkpt>
      <trkpt lat="42.90593" lon="0.10921">
        <ele>1553.03</ele>
        <time>2018-01-24T08:20:00Z</time>
      </trkpt>
      <trkpt lat="42.906" lon="0.10936">
        <ele>1553.67</ele>
        <time>2018-01-24T08:20:13Z</time>
      </trkpt>
      <trkpt lat="42.90608" lon="0.10947">
        <ele>1555.17</ele>
        <time>2018-01-24T08:20:26Z</time>
      </trkpt>
      <trkpt lat="42.90609" lon="0.10948">
        <ele>1555.27</ele>
        <time>2018-01-24T08:20:27Z</time>
      </trkpt>
      <trkpt lat="42.90615" lon="0.10963">
        <ele>1557.61</ele>
        <time>2018-01-24T08:20:41Z</time>
      </trkpt>
      <trkpt lat="42.90617" lon="0.10978">
        <ele>1560.13</ele>
        <time>2018-01-24T08:20:54Z</time>
      </trkpt>
      <trkpt lat="42.90619" lon="0.10986">
        <ele>1561.21</ele>
        <time>2018-01-24T08:21:01Z</time>
      </trkpt>
      <trkpt lat="42.9062" lon="0.10988">
        <ele>1561.57</ele>
        <time>2018-01-24T08:21:03Z</time>
      </trkpt>
      <trkpt lat="42.90626" lon="0.11003">
        <ele>1562.78</ele>
        <time>2018-01-24T08:21:18Z</time>
      </trkpt>
      <trkpt lat="42.90635" lon="0.11019">
        <ele>1565.16</ele>
        <time>2018-01-24T08:21:33Z</time>
      </trkpt>
      <trkpt lat="42.90644" lon="0.11029">
        <ele>1567.38</ele>
        <time>2018-01-24T08:21:47Z</time>
      </trkpt>
      <trkpt lat="42.90651" lon="0.11039">
        <ele>1568.31</ele>
        <time>2018-01-24T08:22:00Z</time>
      </trkpt>
      <trkpt lat="42.90655" lon="0.11048">
        <ele>1568.97</ele>
        <time>2018-01-24T08:22:08Z</time>
      </trkpt>
      <trkpt lat="42.90661" lon="0.11061">
        <ele>1570.24</ele>
        <time>2018-01-24T08:22:20Z</time>
      </trkpt>
      <trkpt lat="42.90664" lon="0.11076">
        <ele>1571.46</ele>
        <time>2018-01-24T08:22:33Z</time>
      </trkpt>
      <trkpt lat="42.90665" lon="0.11085">
        <ele>1571.68</ele>
        <time>2018-01-24T08:22:40Z</time>
      </trkpt>
      <trkpt lat="42.90668" lon="0.11096">
        <ele>1572.11</ele>
        <time>2018-01-24T08:22:49Z</time>
      </trkpt>
      <trkpt lat="42.90669" lon="0.111">
        <ele>1572.12</ele>
        <time>2018-01-24T08:22:52Z</time>
      </trkpt>
      <trkpt lat="42.90671" lon="0.11122">
        <ele>1572.94</ele>
        <time>2018-01-24T08:23:09Z</time>
      </trkpt>
      <trkpt lat="42.90671" lon="0.11128">
        <ele>1573.16</ele>
        <time>2018-01-24T08:23:13Z</time>
      </trkpt>
      <trkpt lat="42.9067" lon="0.11149">
        <ele>1574.15</ele>
        <time>2018-01-24T08:23:30Z</time>
      </trkpt>
      <trkpt lat="42.90666" lon="0.11167">
        <ele>1575.7</ele>
        <time>2018-01-24T08:23:44Z</time>
      </trkpt>
      <trkpt lat="42.90666" lon="0.11178">
        <ele>1576.4</ele>
        <time>2018-01-24T08:23:52Z</time>
      </trkpt>
      <trkpt lat="42.90667" lon="0.11183">
        <ele>1576.74</ele>
        <time>2018-01-24T08:23:56Z</time>
      </trkpt>
      <trkpt lat="42.90668" lon="0.11187">
        <ele>1576.97</ele>
        <time>2018-01-24T08:23:59Z</time>
      </trkpt>
      <trkpt lat="42.90669" lon="0.11195">
        <ele>1577.81</ele>
        <time>2018-01-24T08:24:05Z</time>
      </trkpt>
      <trkpt lat="42.90674" lon="0.11215">
        <ele>1579.03</ele>
        <time>2018-01-24T08:24:21Z</time>
      </trkpt>
      <trkpt lat="42.90677" lon="0.11231">
        <ele>1580.28</ele>
        <time>2018-01-24T08:24:34Z</time>
      </trkpt>
      <trkpt lat="42.90679" lon="0.11253">
        <ele>1582</ele>
        <time>2018-01-24T08:24:52Z</time>
      </trkpt>
      <trkpt lat="42.90678" lon="0.11273">
        <ele>1583.13</ele>
        <time>2018-01-24T08:25:06Z</time>
      </trkpt>
      <trkpt lat="42.9068" lon="0.11295">
        <ele>1584.31</ele>
        <time>2018-01-24T08:25:23Z</time>
      </trkpt>
      <trkpt lat="42.90681" lon="0.11301">
        <ele>1584.48</ele>
        <time>2018-01-24T08:25:27Z</time>
      </trkpt>
      <trkpt lat="42.90682" lon="0.1131">
        <ele>1585.35</ele>
        <time>2018-01-24T08:25:34Z</time>
      </trkpt>
      <trkpt lat="42.90688" lon="0.11326">
        <ele>1587.31</ele>
        <time>2018-01-24T08:25:48Z</time>
      </trkpt>
      <trkpt lat="42.90693" lon="0.11342">
        <ele>1588.38</ele>
        <time>2018-01-24T08:26:02Z</time>
      </trkpt>
      <trkpt lat="42.90697" lon="0.11356">
        <ele>1589.91</ele>
        <time>2018-01-24T08:26:14Z</time>
      </trkpt>
      <trkpt lat="42.90705" lon="0.11372">
        <ele>1592.96</ele>
        <time>2018-01-24T08:26:29Z</time>
      </trkpt>
      <trkpt lat="42.9071" lon="0.11386">
        <ele>1595.18</ele>
        <time>2018-01-24T08:26:42Z</time>
      </trkpt>
      <trkpt lat="42.90713" lon="0.11398">
        <ele>1596.96</ele>
        <time>2018-01-24T08:26:51Z</time>
      </trkpt>
      <trkpt lat="42.90719" lon="0.11418">
        <ele>1598.95</ele>
        <time>2018-01-24T08:27:08Z</time>
      </trkpt>
      <trkpt lat="42.90723" lon="0.1143">
        <ele>1600.04</ele>
        <time>2018-01-24T08:27:22Z</time>
      </trkpt>
      <trkpt lat="42.90727" lon="0.11449">
        <ele>1602.57</ele>
        <time>2018-01-24T08:27:38Z</time>
      </trkpt>
      <trkpt lat="42.90728" lon="0.11458">
        <ele>1603.88</ele>
        <time>2018-01-24T08:27:45Z</time>
      </trkpt>
      <trkpt lat="42.90731" lon="0.11476">
        <ele>1605.93</ele>
        <time>2018-01-24T08:28:00Z</time>
      </trkpt>
      <trkpt lat="42.90738" lon="0.11492">
        <ele>1608.96</ele>
        <time>2018-01-24T08:28:15Z</time>
      </trkpt>
      <trkpt lat="42.90737" lon="0.11508">
        <ele>1610.85</ele>
        <time>2018-01-24T08:28:29Z</time>
      </trkpt>
      <trkpt lat="42.90737" lon="0.11511">
        <ele>1610.92</ele>
        <time>2018-01-24T08:28:31Z</time>
      </trkpt>
      <trkpt lat="42.90737" lon="0.11531">
        <ele>1611.83</ele>
        <time>2018-01-24T08:28:47Z</time>
      </trkpt>
      <trkpt lat="42.90733" lon="0.11552">
        <ele>1613.2</ele>
        <time>2018-01-24T08:29:04Z</time>
      </trkpt>
      <trkpt lat="42.90728" lon="0.11574">
        <ele>1614.67</ele>
        <time>2018-01-24T08:29:22Z</time>
      </trkpt>
      <trkpt lat="42.90722" lon="0.11594">
        <ele>1616.23</ele>
        <time>2018-01-24T08:29:37Z</time>
      </trkpt>
      <trkpt lat="42.90719" lon="0.11615">
        <ele>1617.27</ele>
        <time>2018-01-24T08:29:54Z</time>
      </trkpt>
      <trkpt lat="42.90722" lon="0.11621">
        <ele>1617.6</ele>
        <time>2018-01-24T08:30:00Z</time>
      </trkpt>
      <trkpt lat="42.90728" lon="0.11626">
        <ele>1619.13</ele>
        <time>2018-01-24T08:30:07Z</time>
      </trkpt>
      <trkpt lat="42.90733" lon="0.11623">
        <ele>1620.76</ele>
        <time>2018-01-24T08:30:12Z</time>
      </trkpt>
      <trkpt lat="42.90747" lon="0.11609">
        <ele>1622.63</ele>
        <time>2018-01-24T08:30:30Z</time>
      </trkpt>
      <trkpt lat="42.90761" lon="0.11591">
        <ele>1623.74</ele>
        <time>2018-01-24T08:30:49Z</time>
      </trkpt>
      <trkpt lat="42.90777" lon="0.11576">
        <ele>1625.03</ele>
        <time>2018-01-24T08:31:08Z</time>
      </trkpt>
      <trkpt lat="42.90791" lon="0.1156">
        <ele>1626.26</ele>
        <time>2018-01-24T08:31:27Z</time>
      </trkpt>
      <trkpt lat="42.90795" lon="0.11557">
        <ele>1626.62</ele>
        <time>2018-01-24T08:31:33Z</time>
      </trkpt>
      <trkpt lat="42.90809" lon="0.11561">
        <ele>1627.26</ele>
        <time>2018-01-24T08:31:48Z</time>
      </trkpt>
      <trkpt lat="42.90812" lon="0.11567">
        <ele>1627.55</ele>
        <time>2018-01-24T08:31:54Z</time>
      </trkpt>
      <trkpt lat="42.90814" lon="0.11584">
        <ele>1628.98</ele>
        <time>2018-01-24T08:32:06Z</time>
      </trkpt>
      <trkpt lat="42.90817" lon="0.11596">
        <ele>1629.84</ele>
        <time>2018-01-24T08:32:20Z</time>
      </trkpt>
      <trkpt lat="42.90821" lon="0.11594">
        <ele>1631.02</ele>
        <time>2018-01-24T08:32:27Z</time>
      </trkpt>
      <trkpt lat="42.90832" lon="0.11584">
        <ele>1632.86</ele>
        <time>2018-01-24T08:32:43Z</time>
      </trkpt>
      <trkpt lat="42.90838" lon="0.11575">
        <ele>1634.42</ele>
        <time>2018-01-24T08:33:00Z</time>
      </trkpt>
      <trkpt lat="42.90837" lon="0.11576">
        <ele>1634.5</ele>
        <time>2018-01-24T08:33:23Z</time>
      </trkpt>
      <trkpt lat="42.90838" lon="0.11577">
        <ele>1633.25</ele>
        <time>2018-01-24T08:33:44Z</time>
      </trkpt>
      <trkpt lat="42.90838" lon="0.11575">
        <ele>1634.14</ele>
        <time>2018-01-24T08:34:07Z</time>
      </trkpt>
      <trkpt lat="42.90838" lon="0.11575">
        <ele>1634.52</ele>
        <time>2018-01-24T08:34:29Z</time>
      </trkpt>
      <trkpt lat="42.90842" lon="0.11576">
        <ele>1634.58</ele>
        <time>2018-01-24T08:34:49Z</time>
      </trkpt>
      <trkpt lat="42.90842" lon="0.11577">
        <ele>1634.73</ele>
        <time>2018-01-24T08:35:13Z</time>
      </trkpt>
      <trkpt lat="42.90842" lon="0.11578">
        <ele>1634.55</ele>
        <time>2018-01-24T08:35:40Z</time>
      </trkpt>
      <trkpt lat="42.9084" lon="0.11576">
        <ele>1634.53</ele>
        <time>2018-01-24T08:36:05Z</time>
      </trkpt>
      <trkpt lat="42.90839" lon="0.11577">
        <ele>1634.53</ele>
        <time>2018-01-24T08:36:30Z</time>
      </trkpt>
      <trkpt lat="42.90842" lon="0.11575">
        <ele>1634.53</ele>
        <time>2018-01-24T08:36:55Z</time>
      </trkpt>
      <trkpt lat="42.90839" lon="0.11572">
        <ele>1634.53</ele>
        <time>2018-01-24T08:37:16Z</time>
      </trkpt>
      <trkpt lat="42.90839" lon="0.11575">
        <ele>1634.53</ele>
        <time>2018-01-24T08:37:35Z</time>
      </trkpt>
      <trkpt lat="42.90838" lon="0.11574">
        <ele>1634.53</ele>
        <time>2018-01-24T08:38:04Z</time>
      </trkpt>
      <trkpt lat="42.90839" lon="0.11576">
        <ele>1634.53</ele>
        <time>2018-01-24T08:38:38Z</time>
      </trkpt>
      <trkpt lat="42.9084" lon="0.11577">
        <ele>1634.53</ele>
        <time>2018-01-24T08:39:04Z</time>
      </trkpt>
      <trkpt lat="42.90842" lon="0.1158">
        <ele>1634.53</ele>
        <time>2018-01-24T08:39:33Z</time>
      </trkpt>
      <trkpt lat="42.90847" lon="0.11589">
        <ele>1634.53</ele>
        <time>2018-01-24T08:39:48Z</time>
      </trkpt>
      <trkpt lat="42.90856" lon="0.11596">
        <ele>1638.95</ele>
        <time>2018-01-24T08:40:04Z</time>
      </trkpt>
      <trkpt lat="42.90857" lon="0.11597">
        <ele>1638.87</ele>
        <time>2018-01-24T08:40:05Z</time>
      </trkpt>
      <trkpt lat="42.90867" lon="0.11602">
        <ele>1641.81</ele>
        <time>2018-01-24T08:40:25Z</time>
      </trkpt>
      <trkpt lat="42.90874" lon="0.11608">
        <ele>1644.92</ele>
        <time>2018-01-24T08:40:40Z</time>
      </trkpt>
      <trkpt lat="42.90882" lon="0.11613">
        <ele>1648.01</ele>
        <time>2018-01-24T08:40:56Z</time>
      </trkpt>
      <trkpt lat="42.90889" lon="0.11614">
        <ele>1651.04</ele>
        <time>2018-01-24T08:41:10Z</time>
      </trkpt>
      <trkpt lat="42.90903" lon="0.11622">
        <ele>1654.1</ele>
        <time>2018-01-24T08:41:29Z</time>
      </trkpt>
      <trkpt lat="42.90907" lon="0.11629">
        <ele>1657.41</ele>
        <time>2018-01-24T08:41:45Z</time>
      </trkpt>
      <trkpt lat="42.90914" lon="0.11639">
        <ele>1660.57</ele>
        <time>2018-01-24T08:42:03Z</time>
      </trkpt>
      <trkpt lat="42.90917" lon="0.11646">
        <ele>1663.73</ele>
        <time>2018-01-24T08:42:20Z</time>
      </trkpt>
      <trkpt lat="42.90906" lon="0.1165">
        <ele>1666.63</ele>
        <time>2018-01-24T08:42:37Z</time>
      </trkpt>
      <trkpt lat="42.90899" lon="0.11656">
        <ele>1669.44</ele>
        <time>2018-01-24T08:42:54Z</time>
      </trkpt>
      <trkpt lat="42.909" lon="0.11661">
        <ele>1671.04</ele>
        <time>2018-01-24T08:43:11Z</time>
      </trkpt>
      <trkpt lat="42.90906" lon="0.11672">
        <ele>1673.45</ele>
        <time>2018-01-24T08:43:29Z</time>
      </trkpt>
      <trkpt lat="42.90912" lon="0.11682">
        <ele>1676.29</ele>
        <time>2018-01-24T08:43:46Z</time>
      </trkpt>
      <trkpt lat="42.90918" lon="0.11693">
        <ele>1679.34</ele>
        <time>2018-01-24T08:44:03Z</time>
      </trkpt>
      <trkpt lat="42.90924" lon="0.11703">
        <ele>1682.39</ele>
        <time>2018-01-24T08:44:19Z</time>
      </trkpt>
      <trkpt lat="42.90934" lon="0.1171">
        <ele>1685.04</ele>
        <time>2018-01-24T08:44:36Z</time>
      </trkpt>
      <trkpt lat="42.90946" lon="0.11716">
        <ele>1686.95</ele>
        <time>2018-01-24T08:44:53Z</time>
      </trkpt>
      <trkpt lat="42.90958" lon="0.11722">
        <ele>1689.52</ele>
        <time>2018-01-24T08:45:09Z</time>
      </trkpt>
      <trkpt lat="42.9096" lon="0.11725">
        <ele>1691.02</ele>
        <time>2018-01-24T08:45:31Z</time>
      </trkpt>
      <trkpt lat="42.90966" lon="0.11732">
        <ele>1691.61</ele>
        <time>2018-01-24T08:45:49Z</time>
      </trkpt>
      <trkpt lat="42.9097" lon="0.11736">
        <ele>1692.49</ele>
        <time>2018-01-24T08:46:06Z</time>
      </trkpt>
      <trkpt lat="42.90975" lon="0.11741">
        <ele>1693.45</ele>
        <time>2018-01-24T08:46:23Z</time>
      </trkpt>
      <trkpt lat="42.90976" lon="0.11743">
        <ele>1693.32</ele>
        <time>2018-01-24T08:46:40Z</time>
      </trkpt>
      <trkpt lat="42.90977" lon="0.11745">
        <ele>1693.48</ele>
        <time>2018-01-24T08:46:58Z</time>
      </trkpt>
      <trkpt lat="42.90981" lon="0.11748">
        <ele>1693.8</ele>
        <time>2018-01-24T08:47:20Z</time>
      </trkpt>
      <trkpt lat="42.90987" lon="0.11754">
        <ele>1693.8</ele>
        <time>2018-01-24T08:47:47Z</time>
      </trkpt>
      <trkpt lat="42.90993" lon="0.11747">
        <ele>1693.8</ele>
        <time>2018-01-24T08:48:07Z</time>
      </trkpt>
      <trkpt lat="42.90994" lon="0.11745">
        <ele>1693.8</ele>
        <time>2018-01-24T08:48:23Z</time>
      </trkpt>
      <trkpt lat="42.90993" lon="0.11744">
        <ele>1693.8</ele>
        <time>2018-01-24T08:48:38Z</time>
      </trkpt>
      <trkpt lat="42.90995" lon="0.11743">
        <ele>1693.8</ele>
        <time>2018-01-24T08:48:54Z</time>
      </trkpt>
      <trkpt lat="42.91003" lon="0.1175">
        <ele>1693.8</ele>
        <time>2018-01-24T08:49:10Z</time>
      </trkpt>
      <trkpt lat="42.91003" lon="0.11751">
        <ele>1693.8</ele>
        <time>2018-01-24T08:49:24Z</time>
      </trkpt>
      <trkpt lat="42.91003" lon="0.11752">
        <ele>1693.8</ele>
        <time>2018-01-24T08:49:43Z</time>
      </trkpt>
      <trkpt lat="42.91004" lon="0.11762">
        <ele>1693.8</ele>
        <time>2018-01-24T08:49:59Z</time>
      </trkpt>
      <trkpt lat="42.91006" lon="0.11768">
        <ele>1693.8</ele>
        <time>2018-01-24T08:50:12Z</time>
      </trkpt>
      <trkpt lat="42.91006" lon="0.11767">
        <ele>1695.96</ele>
        <time>2018-01-24T08:50:23Z</time>
      </trkpt>
      <trkpt lat="42.91013" lon="0.1177">
        <ele>1696.43</ele>
        <time>2018-01-24T08:50:37Z</time>
      </trkpt>
      <trkpt lat="42.91023" lon="0.11772">
        <ele>1699.49</ele>
        <time>2018-01-24T08:50:52Z</time>
      </trkpt>
      <trkpt lat="42.91028" lon="0.11783">
        <ele>1702.35</ele>
        <time>2018-01-24T08:51:10Z</time>
      </trkpt>
      <trkpt lat="42.91035" lon="0.11795">
        <ele>1705.3</ele>
        <time>2018-01-24T08:51:29Z</time>
      </trkpt>
      <trkpt lat="42.91041" lon="0.11811">
        <ele>1708.2</ele>
        <time>2018-01-24T08:51:50Z</time>
      </trkpt>
      <trkpt lat="42.91045" lon="0.11825">
        <ele>1710.06</ele>
        <time>2018-01-24T08:52:07Z</time>
      </trkpt>
      <trkpt lat="42.91056" lon="0.11831">
        <ele>1712.89</ele>
        <time>2018-01-24T08:52:25Z</time>
      </trkpt>
      <trkpt lat="42.91057" lon="0.11824">
        <ele>1715.13</ele>
        <time>2018-01-24T08:52:38Z</time>
      </trkpt>
      <trkpt lat="42.91058" lon="0.11812">
        <ele>1717.35</ele>
        <time>2018-01-24T08:52:55Z</time>
      </trkpt>
      <trkpt lat="42.91061" lon="0.11796">
        <ele>1719.69</ele>
        <time>2018-01-24T08:53:13Z</time>
      </trkpt>
      <trkpt lat="42.91063" lon="0.11781">
        <ele>1722.18</ele>
        <time>2018-01-24T08:53:31Z</time>
      </trkpt>
      <trkpt lat="42.91064" lon="0.1177">
        <ele>1724.22</ele>
        <time>2018-01-24T08:53:45Z</time>
      </trkpt>
      <trkpt lat="42.91065" lon="0.11762">
        <ele>1726.15</ele>
        <time>2018-01-24T08:54:02Z</time>
      </trkpt>
      <trkpt lat="42.91074" lon="0.11772">
        <ele>1728.68</ele>
        <time>2018-01-24T08:54:20Z</time>
      </trkpt>
      <trkpt lat="42.91082" lon="0.11781">
        <ele>1731.44</ele>
        <time>2018-01-24T08:54:37Z</time>
      </trkpt>
      <trkpt lat="42.91089" lon="0.1179">
        <ele>1734.46</ele>
        <time>2018-01-24T08:54:55Z</time>
      </trkpt>
      <trkpt lat="42.91098" lon="0.11798">
        <ele>1737.62</ele>
        <time>2018-01-24T08:55:14Z</time>
      </trkpt>
      <trkpt lat="42.91105" lon="0.11805">
        <ele>1740.23</ele>
        <time>2018-01-24T08:55:31Z</time>
      </trkpt>
      <trkpt lat="42.91111" lon="0.1181">
        <ele>1742.44</ele>
        <time>2018-01-24T08:55:46Z</time>
      </trkpt>
      <trkpt lat="42.91119" lon="0.11821">
        <ele>1745.44</ele>
        <time>2018-01-24T08:56:04Z</time>
      </trkpt>
      <trkpt lat="42.91127" lon="0.11825">
        <ele>1748.54</ele>
        <time>2018-01-24T08:56:22Z</time>
      </trkpt>
      <trkpt lat="42.91137" lon="0.11834">
        <ele>1751.62</ele>
        <time>2018-01-24T08:56:41Z</time>
      </trkpt>
      <trkpt lat="42.91147" lon="0.11843">
        <ele>1754.34</ele>
        <time>2018-01-24T08:56:59Z</time>
      </trkpt>
      <trkpt lat="42.91153" lon="0.11846">
        <ele>1756.26</ele>
        <time>2018-01-24T08:57:15Z</time>
      </trkpt>
      <trkpt lat="42.91151" lon="0.11836">
        <ele>1757.78</ele>
        <time>2018-01-24T08:57:30Z</time>
      </trkpt>
      <trkpt lat="42.91152" lon="0.11822">
        <ele>1760.92</ele>
        <time>2018-01-24T08:57:47Z</time>
      </trkpt>
      <trkpt lat="42.91153" lon="0.11808">
        <ele>1763.67</ele>
        <time>2018-01-24T08:58:04Z</time>
      </trkpt>
      <trkpt lat="42.91153" lon="0.11794">
        <ele>1766.36</ele>
        <time>2018-01-24T08:58:21Z</time>
      </trkpt>
      <trkpt lat="42.91154" lon="0.11783">
        <ele>1768.63</ele>
        <time>2018-01-24T08:58:38Z</time>
      </trkpt>
      <trkpt lat="42.91154" lon="0.11776">
        <ele>1770.51</ele>
        <time>2018-01-24T08:58:55Z</time>
      </trkpt>
      <trkpt lat="42.91158" lon="0.11774">
        <ele>1772.71</ele>
        <time>2018-01-24T08:59:14Z</time>
      </trkpt>
      <trkpt lat="42.91166" lon="0.11779">
        <ele>1774.66</ele>
        <time>2018-01-24T08:59:26Z</time>
      </trkpt>
      <trkpt lat="42.91173" lon="0.11786">
        <ele>1777.68</ele>
        <time>2018-01-24T08:59:43Z</time>
      </trkpt>
      <trkpt lat="42.91182" lon="0.11794">
        <ele>1780.66</ele>
        <time>2018-01-24T09:00:02Z</time>
      </trkpt>
      <trkpt lat="42.91188" lon="0.11799">
        <ele>1782.74</ele>
        <time>2018-01-24T09:00:16Z</time>
      </trkpt>
      <trkpt lat="42.91188" lon="0.11798">
        <ele>1783.05</ele>
        <time>2018-01-24T09:00:45Z</time>
      </trkpt>
      <trkpt lat="42.91191" lon="0.11797">
        <ele>1784.53</ele>
        <time>2018-01-24T09:01:03Z</time>
      </trkpt>
      <trkpt lat="42.91192" lon="0.11785">
        <ele>1787.61</ele>
        <time>2018-01-24T09:01:16Z</time>
      </trkpt>
      <trkpt lat="42.91192" lon="0.11772">
        <ele>1790.74</ele>
        <time>2018-01-24T09:01:31Z</time>
      </trkpt>
      <trkpt lat="42.91193" lon="0.11763">
        <ele>1793.81</ele>
        <time>2018-01-24T09:01:46Z</time>
      </trkpt>
      <trkpt lat="42.91198" lon="0.11761">
        <ele>1795.31</ele>
        <time>2018-01-24T09:02:01Z</time>
      </trkpt>
      <trkpt lat="42.9121" lon="0.11769">
        <ele>1798.02</ele>
        <time>2018-01-24T09:02:18Z</time>
      </trkpt>
      <trkpt lat="42.91215" lon="0.11775">
        <ele>1801.03</ele>
        <time>2018-01-24T09:02:36Z</time>
      </trkpt>
      <trkpt lat="42.91223" lon="0.1178">
        <ele>1803.58</ele>
        <time>2018-01-24T09:02:53Z</time>
      </trkpt>
      <trkpt lat="42.91232" lon="0.11788">
        <ele>1806.69</ele>
        <time>2018-01-24T09:03:11Z</time>
      </trkpt>
      <trkpt lat="42.9124" lon="0.11794">
        <ele>1809.16</ele>
        <time>2018-01-24T09:03:28Z</time>
      </trkpt>
      <trkpt lat="42.9125" lon="0.11798">
        <ele>1812.03</ele>
        <time>2018-01-24T09:03:45Z</time>
      </trkpt>
      <trkpt lat="42.91259" lon="0.11801">
        <ele>1814.48</ele>
        <time>2018-01-24T09:04:01Z</time>
      </trkpt>
      <trkpt lat="42.91267" lon="0.11804">
        <ele>1816.45</ele>
        <time>2018-01-24T09:04:15Z</time>
      </trkpt>
      <trkpt lat="42.91267" lon="0.11794">
        <ele>1819.61</ele>
        <time>2018-01-24T09:04:30Z</time>
      </trkpt>
      <trkpt lat="42.9127" lon="0.11786">
        <ele>1822.29</ele>
        <time>2018-01-24T09:04:49Z</time>
      </trkpt>
      <trkpt lat="42.91279" lon="0.11791">
        <ele>1825.11</ele>
        <time>2018-01-24T09:05:05Z</time>
      </trkpt>
      <trkpt lat="42.91289" lon="0.11797">
        <ele>1828.13</ele>
        <time>2018-01-24T09:05:22Z</time>
      </trkpt>
      <trkpt lat="42.91297" lon="0.11801">
        <ele>1830.76</ele>
        <time>2018-01-24T09:05:39Z</time>
      </trkpt>
      <trkpt lat="42.9131" lon="0.11802">
        <ele>1833.77</ele>
        <time>2018-01-24T09:05:57Z</time>
      </trkpt>
      <trkpt lat="42.9132" lon="0.11796">
        <ele>1836.81</ele>
        <time>2018-01-24T09:06:13Z</time>
      </trkpt>
      <trkpt lat="42.91328" lon="0.11785">
        <ele>1839.9</ele>
        <time>2018-01-24T09:06:31Z</time>
      </trkpt>
      <trkpt lat="42.9134" lon="0.11772">
        <ele>1842.49</ele>
        <time>2018-01-24T09:06:51Z</time>
      </trkpt>
      <trkpt lat="42.91349" lon="0.11764">
        <ele>1844.62</ele>
        <time>2018-01-24T09:07:04Z</time>
      </trkpt>
      <trkpt lat="42.91355" lon="0.11761">
        <ele>1846</ele>
        <time>2018-01-24T09:07:22Z</time>
      </trkpt>
      <trkpt lat="42.91353" lon="0.1176">
        <ele>1845.83</ele>
        <time>2018-01-24T09:07:47Z</time>
      </trkpt>
      <trkpt lat="42.91353" lon="0.1176">
        <ele>1845.27</ele>
        <time>2018-01-24T09:08:31Z</time>
      </trkpt>
      <trkpt lat="42.91353" lon="0.11758">
        <ele>1845.26</ele>
        <time>2018-01-24T09:10:12Z</time>
      </trkpt>
      <trkpt lat="42.91353" lon="0.1176">
        <ele>1845.26</ele>
        <time>2018-01-24T09:11:13Z</time>
      </trkpt>
      <trkpt lat="42.91352" lon="0.11759">
        <ele>1845.26</ele>
        <time>2018-01-24T09:11:59Z</time>
      </trkpt>
      <trkpt lat="42.91352" lon="0.1176">
        <ele>1845.26</ele>
        <time>2018-01-24T09:12:25Z</time>
      </trkpt>
      <trkpt lat="42.91352" lon="0.11764">
        <ele>1845.26</ele>
        <time>2018-01-24T09:12:44Z</time>
      </trkpt>
      <trkpt lat="42.91354" lon="0.11763">
        <ele>1845.26</ele>
        <time>2018-01-24T09:12:46Z</time>
      </trkpt>
      <trkpt lat="42.91376" lon="0.11764">
        <ele>1846.03</ele>
        <time>2018-01-24T09:13:03Z</time>
      </trkpt>
      <trkpt lat="42.9139" lon="0.11769">
        <ele>1847.48</ele>
        <time>2018-01-24T09:13:18Z</time>
      </trkpt>
      <trkpt lat="42.91404" lon="0.11778">
        <ele>1850.45</ele>
        <time>2018-01-24T09:13:34Z</time>
      </trkpt>
      <trkpt lat="42.91411" lon="0.11786">
        <ele>1853.56</ele>
        <time>2018-01-24T09:13:48Z</time>
      </trkpt>
      <trkpt lat="42.91416" lon="0.11793">
        <ele>1856.24</ele>
        <time>2018-01-24T09:14:04Z</time>
      </trkpt>
      <trkpt lat="42.91422" lon="0.11806">
        <ele>1858.13</ele>
        <time>2018-01-24T09:14:20Z</time>
      </trkpt>
      <trkpt lat="42.91427" lon="0.11815">
        <ele>1861.13</ele>
        <time>2018-01-24T09:14:32Z</time>
      </trkpt>
      <trkpt lat="42.91435" lon="0.11821">
        <ele>1864.03</ele>
        <time>2018-01-24T09:14:48Z</time>
      </trkpt>
      <trkpt lat="42.91446" lon="0.11807">
        <ele>1867.05</ele>
        <time>2018-01-24T09:15:04Z</time>
      </trkpt>
      <trkpt lat="42.91458" lon="0.11803">
        <ele>1870.12</ele>
        <time>2018-01-24T09:15:21Z</time>
      </trkpt>
      <trkpt lat="42.91465" lon="0.11812">
        <ele>1873.2</ele>
        <time>2018-01-24T09:15:36Z</time>
      </trkpt>
      <trkpt lat="42.91471" lon="0.11823">
        <ele>1876.34</ele>
        <time>2018-01-24T09:15:53Z</time>
      </trkpt>
      <trkpt lat="42.91476" lon="0.1183">
        <ele>1879.48</ele>
        <time>2018-01-24T09:16:09Z</time>
      </trkpt>
      <trkpt lat="42.91481" lon="0.11838">
        <ele>1882.55</ele>
        <time>2018-01-24T09:16:24Z</time>
      </trkpt>
      <trkpt lat="42.91487" lon="0.11846">
        <ele>1885.85</ele>
        <time>2018-01-24T09:16:39Z</time>
      </trkpt>
      <trkpt lat="42.91496" lon="0.11852">
        <ele>1888.75</ele>
        <time>2018-01-24T09:16:58Z</time>
      </trkpt>
      <trkpt lat="42.91506" lon="0.11844">
        <ele>1890.91</ele>
        <time>2018-01-24T09:17:14Z</time>
      </trkpt>
      <trkpt lat="42.91514" lon="0.1185">
        <ele>1893.95</ele>
        <time>2018-01-24T09:17:28Z</time>
      </trkpt>
      <trkpt lat="42.91521" lon="0.11861">
        <ele>1896.62</ele>
        <time>2018-01-24T09:17:43Z</time>
      </trkpt>
      <trkpt lat="42.91529" lon="0.11873">
        <ele>1899.22</ele>
        <time>2018-01-24T09:18:03Z</time>
      </trkpt>
      <trkpt lat="42.91542" lon="0.11878">
        <ele>1901.75</ele>
        <time>2018-01-24T09:18:20Z</time>
      </trkpt>
      <trkpt lat="42.91553" lon="0.11882">
        <ele>1903.74</ele>
        <time>2018-01-24T09:18:36Z</time>
      </trkpt>
      <trkpt lat="42.91566" lon="0.11887">
        <ele>1906.63</ele>
        <time>2018-01-24T09:18:56Z</time>
      </trkpt>
      <trkpt lat="42.91579" lon="0.11888">
        <ele>1909.29</ele>
        <time>2018-01-24T09:19:15Z</time>
      </trkpt>
      <trkpt lat="42.91587" lon="0.11892">
        <ele>1912.55</ele>
        <time>2018-01-24T09:19:31Z</time>
      </trkpt>
      <trkpt lat="42.91592" lon="0.11904">
        <ele>1915.35</ele>
        <time>2018-01-24T09:19:48Z</time>
      </trkpt>
      <trkpt lat="42.91599" lon="0.11911">
        <ele>1918.25</ele>
        <time>2018-01-24T09:20:07Z</time>
      </trkpt>
      <trkpt lat="42.91605" lon="0.11904">
        <ele>1920.17</ele>
        <time>2018-01-24T09:20:17Z</time>
      </trkpt>
      <trkpt lat="42.91608" lon="0.11892">
        <ele>1923.15</ele>
        <time>2018-01-24T09:20:35Z</time>
      </trkpt>
      <trkpt lat="42.91613" lon="0.11878">
        <ele>1925.75</ele>
        <time>2018-01-24T09:20:53Z</time>
      </trkpt>
      <trkpt lat="42.91622" lon="0.11882">
        <ele>1927.69</ele>
        <time>2018-01-24T09:21:09Z</time>
      </trkpt>
      <trkpt lat="42.91629" lon="0.11891">
        <ele>1930.75</ele>
        <time>2018-01-24T09:21:26Z</time>
      </trkpt>
      <trkpt lat="42.91638" lon="0.11899">
        <ele>1933.81</ele>
        <time>2018-01-24T09:21:45Z</time>
      </trkpt>
      <trkpt lat="42.91645" lon="0.11896">
        <ele>1936.9</ele>
        <time>2018-01-24T09:22:00Z</time>
      </trkpt>
      <trkpt lat="42.91653" lon="0.11888">
        <ele>1939.79</ele>
        <time>2018-01-24T09:22:20Z</time>
      </trkpt>
      <trkpt lat="42.91664" lon="0.11882">
        <ele>1942.78</ele>
        <time>2018-01-24T09:22:39Z</time>
      </trkpt>
      <trkpt lat="42.91673" lon="0.11875">
        <ele>1945.12</ele>
        <time>2018-01-24T09:22:55Z</time>
      </trkpt>
      <trkpt lat="42.91676" lon="0.11885">
        <ele>1948.22</ele>
        <time>2018-01-24T09:23:10Z</time>
      </trkpt>
      <trkpt lat="42.91681" lon="0.11899">
        <ele>1951.06</ele>
        <time>2018-01-24T09:23:28Z</time>
      </trkpt>
      <trkpt lat="42.91688" lon="0.11906">
        <ele>1953.93</ele>
        <time>2018-01-24T09:23:46Z</time>
      </trkpt>
      <trkpt lat="42.91696" lon="0.119">
        <ele>1957.07</ele>
        <time>2018-01-24T09:23:59Z</time>
      </trkpt>
      <trkpt lat="42.91705" lon="0.11893">
        <ele>1959.32</ele>
        <time>2018-01-24T09:24:14Z</time>
      </trkpt>
      <trkpt lat="42.91715" lon="0.11889">
        <ele>1962.17</ele>
        <time>2018-01-24T09:24:34Z</time>
      </trkpt>
      <trkpt lat="42.91719" lon="0.11902">
        <ele>1965.24</ele>
        <time>2018-01-24T09:24:54Z</time>
      </trkpt>
      <trkpt lat="42.91724" lon="0.11912">
        <ele>1968.47</ele>
        <time>2018-01-24T09:25:15Z</time>
      </trkpt>
      <trkpt lat="42.91732" lon="0.11905">
        <ele>1971.11</ele>
        <time>2018-01-24T09:25:29Z</time>
      </trkpt>
      <trkpt lat="42.91745" lon="0.11897">
        <ele>1973.8</ele>
        <time>2018-01-24T09:25:48Z</time>
      </trkpt>
      <trkpt lat="42.91754" lon="0.11891">
        <ele>1976.94</ele>
        <time>2018-01-24T09:26:04Z</time>
      </trkpt>
      <trkpt lat="42.9176" lon="0.11893">
        <ele>1978.61</ele>
        <time>2018-01-24T09:26:20Z</time>
      </trkpt>
      <trkpt lat="42.91766" lon="0.11901">
        <ele>1981.68</ele>
        <time>2018-01-24T09:26:38Z</time>
      </trkpt>
      <trkpt lat="42.91777" lon="0.11894">
        <ele>1984.61</ele>
        <time>2018-01-24T09:26:58Z</time>
      </trkpt>
      <trkpt lat="42.91788" lon="0.11891">
        <ele>1987.64</ele>
        <time>2018-01-24T09:27:16Z</time>
      </trkpt>
      <trkpt lat="42.91802" lon="0.11885">
        <ele>1990.65</ele>
        <time>2018-01-24T09:27:37Z</time>
      </trkpt>
      <trkpt lat="42.91811" lon="0.11878">
        <ele>1992.99</ele>
        <time>2018-01-24T09:27:56Z</time>
      </trkpt>
      <trkpt lat="42.9182" lon="0.1187">
        <ele>1995.35</ele>
        <time>2018-01-24T09:28:12Z</time>
      </trkpt>
      <trkpt lat="42.91831" lon="0.11862">
        <ele>1997.4</ele>
        <time>2018-01-24T09:28:30Z</time>
      </trkpt>
      <trkpt lat="42.91841" lon="0.11855">
        <ele>1998.94</ele>
        <time>2018-01-24T09:28:46Z</time>
      </trkpt>
      <trkpt lat="42.91843" lon="0.1185">
        <ele>2000.09</ele>
        <time>2018-01-24T09:29:03Z</time>
      </trkpt>
      <trkpt lat="42.91844" lon="0.11847">
        <ele>1999.84</ele>
        <time>2018-01-24T09:29:26Z</time>
      </trkpt>
      <trkpt lat="42.91845" lon="0.11846">
        <ele>1999.96</ele>
        <time>2018-01-24T09:29:53Z</time>
      </trkpt>
      <trkpt lat="42.91845" lon="0.11846">
        <ele>1999.93</ele>
        <time>2018-01-24T09:30:27Z</time>
      </trkpt>
      <trkpt lat="42.91844" lon="0.11845">
        <ele>1999.93</ele>
        <time>2018-01-24T09:31:05Z</time>
      </trkpt>
      <trkpt lat="42.91843" lon="0.1183">
        <ele>2000.85</ele>
        <time>2018-01-24T09:31:23Z</time>
      </trkpt>
      <trkpt lat="42.91846" lon="0.11819">
        <ele>2003.92</ele>
        <time>2018-01-24T09:31:36Z</time>
      </trkpt>
      <trkpt lat="42.91849" lon="0.11807">
        <ele>2007</ele>
        <time>2018-01-24T09:31:53Z</time>
      </trkpt>
      <trkpt lat="42.91856" lon="0.11796">
        <ele>2009.78</ele>
        <time>2018-01-24T09:32:12Z</time>
      </trkpt>
      <trkpt lat="42.91865" lon="0.11788">
        <ele>2012.75</ele>
        <time>2018-01-24T09:32:31Z</time>
      </trkpt>
      <trkpt lat="42.91873" lon="0.11779">
        <ele>2015.86</ele>
        <time>2018-01-24T09:32:50Z</time>
      </trkpt>
      <trkpt lat="42.91882" lon="0.11767">
        <ele>2018.85</ele>
        <time>2018-01-24T09:33:08Z</time>
      </trkpt>
      <trkpt lat="42.91889" lon="0.11763">
        <ele>2021.96</ele>
        <time>2018-01-24T09:33:25Z</time>
      </trkpt>
      <trkpt lat="42.91897" lon="0.1176">
        <ele>2024.97</ele>
        <time>2018-01-24T09:33:41Z</time>
      </trkpt>
      <trkpt lat="42.91906" lon="0.11757">
        <ele>2027.95</ele>
        <time>2018-01-24T09:33:59Z</time>
      </trkpt>
      <trkpt lat="42.91916" lon="0.11752">
        <ele>2030.91</ele>
        <time>2018-01-24T09:34:16Z</time>
      </trkpt>
      <trkpt lat="42.91921" lon="0.1175">
        <ele>2031.93</ele>
        <time>2018-01-24T09:34:37Z</time>
      </trkpt>
      <trkpt lat="42.91932" lon="0.11741">
        <ele>2033.65</ele>
        <time>2018-01-24T09:34:52Z</time>
      </trkpt>
      <trkpt lat="42.91946" lon="0.11736">
        <ele>2035.82</ele>
        <time>2018-01-24T09:35:10Z</time>
      </trkpt>
      <trkpt lat="42.91953" lon="0.11734">
        <ele>2036.47</ele>
        <time>2018-01-24T09:35:27Z</time>
      </trkpt>
      <trkpt lat="42.91956" lon="0.11731">
        <ele>2036.54</ele>
        <time>2018-01-24T09:35:55Z</time>
      </trkpt>
      <trkpt lat="42.91954" lon="0.1173">
        <ele>2036.89</ele>
        <time>2018-01-24T09:36:17Z</time>
      </trkpt>
      <trkpt lat="42.91953" lon="0.11732">
        <ele>2037.08</ele>
        <time>2018-01-24T09:36:34Z</time>
      </trkpt>
      <trkpt lat="42.91953" lon="0.11732">
        <ele>2036.89</ele>
        <time>2018-01-24T09:36:54Z</time>
      </trkpt>
      <trkpt lat="42.91953" lon="0.11732">
        <ele>2037.16</ele>
        <time>2018-01-24T09:37:22Z</time>
      </trkpt>
      <trkpt lat="42.91952" lon="0.11732">
        <ele>2036.93</ele>
        <time>2018-01-24T09:37:41Z</time>
      </trkpt>
      <trkpt lat="42.91953" lon="0.11729">
        <ele>2036.91</ele>
        <time>2018-01-24T09:38:12Z</time>
      </trkpt>
      <trkpt lat="42.91954" lon="0.11728">
        <ele>2036.91</ele>
        <time>2018-01-24T09:38:13Z</time>
      </trkpt>
      <trkpt lat="42.91958" lon="0.11725">
        <ele>2036.97</ele>
        <time>2018-01-24T09:38:18Z</time>
      </trkpt>
      <trkpt lat="42.91974" lon="0.11721">
        <ele>2039.43</ele>
        <time>2018-01-24T09:38:36Z</time>
      </trkpt>
      <trkpt lat="42.91987" lon="0.11717">
        <ele>2041.41</ele>
        <time>2018-01-24T09:38:53Z</time>
      </trkpt>
      <trkpt lat="42.92003" lon="0.11716">
        <ele>2042.42</ele>
        <time>2018-01-24T09:39:11Z</time>
      </trkpt>
      <trkpt lat="42.92013" lon="0.11715">
        <ele>2044.16</ele>
        <time>2018-01-24T09:39:28Z</time>
      </trkpt>
      <trkpt lat="42.92022" lon="0.11713">
        <ele>2045.46</ele>
        <time>2018-01-24T09:39:51Z</time>
      </trkpt>
      <trkpt lat="42.92029" lon="0.11712">
        <ele>2046.65</ele>
        <time>2018-01-24T09:40:03Z</time>
      </trkpt>
      <trkpt lat="42.92034" lon="0.11711">
        <ele>2046.9</ele>
        <time>2018-01-24T09:40:08Z</time>
      </trkpt>
      <trkpt lat="42.92047" lon="0.1171">
        <ele>2048.7</ele>
        <time>2018-01-24T09:40:23Z</time>
      </trkpt>
      <trkpt lat="42.92061" lon="0.11704">
        <ele>2050</ele>
        <time>2018-01-24T09:40:39Z</time>
      </trkpt>
      <trkpt lat="42.92079" lon="0.117">
        <ele>2050.94</ele>
        <time>2018-01-24T09:40:58Z</time>
      </trkpt>
      <trkpt lat="42.92086" lon="0.11701">
        <ele>2051.05</ele>
        <time>2018-01-24T09:41:07Z</time>
      </trkpt>
      <trkpt lat="42.92093" lon="0.11702">
        <ele>2051.22</ele>
        <time>2018-01-24T09:41:14Z</time>
      </trkpt>
      <trkpt lat="42.92111" lon="0.117">
        <ele>2051.68</ele>
        <time>2018-01-24T09:41:31Z</time>
      </trkpt>
      <trkpt lat="42.92123" lon="0.11698">
        <ele>2052.87</ele>
        <time>2018-01-24T09:41:47Z</time>
      </trkpt>
      <trkpt lat="42.92136" lon="0.11701">
        <ele>2054.59</ele>
        <time>2018-01-24T09:42:04Z</time>
      </trkpt>
      <trkpt lat="42.92153" lon="0.11707">
        <ele>2057.15</ele>
        <time>2018-01-24T09:42:26Z</time>
      </trkpt>
      <trkpt lat="42.92161" lon="0.11702">
        <ele>2059.46</ele>
        <time>2018-01-24T09:42:39Z</time>
      </trkpt>
      <trkpt lat="42.92172" lon="0.11699">
        <ele>2062.06</ele>
        <time>2018-01-24T09:42:53Z</time>
      </trkpt>
      <trkpt lat="42.9218" lon="0.11694">
        <ele>2065.07</ele>
        <time>2018-01-24T09:43:07Z</time>
      </trkpt>
      <trkpt lat="42.92187" lon="0.11691">
        <ele>2066.26</ele>
        <time>2018-01-24T09:43:24Z</time>
      </trkpt>
      <trkpt lat="42.92187" lon="0.11691">
        <ele>2066.39</ele>
        <time>2018-01-24T09:43:25Z</time>
      </trkpt>
      <trkpt lat="42.92198" lon="0.1168">
        <ele>2068.85</ele>
        <time>2018-01-24T09:43:43Z</time>
      </trkpt>
      <trkpt lat="42.92208" lon="0.11682">
        <ele>2070.53</ele>
        <time>2018-01-24T09:43:58Z</time>
      </trkpt>
      <trkpt lat="42.92209" lon="0.11682">
        <ele>2070.63</ele>
        <time>2018-01-24T09:43:59Z</time>
      </trkpt>
      <trkpt lat="42.9222" lon="0.11684">
        <ele>2072.83</ele>
        <time>2018-01-24T09:44:15Z</time>
      </trkpt>
      <trkpt lat="42.92231" lon="0.11685">
        <ele>2074.33</ele>
        <time>2018-01-24T09:44:33Z</time>
      </trkpt>
      <trkpt lat="42.92233" lon="0.11687">
        <ele>2075.14</ele>
        <time>2018-01-24T09:44:47Z</time>
      </trkpt>
      <trkpt lat="42.92237" lon="0.11687">
        <ele>2075.38</ele>
        <time>2018-01-24T09:45:03Z</time>
      </trkpt>
      <trkpt lat="42.92237" lon="0.11688">
        <ele>2075.15</ele>
        <time>2018-01-24T09:45:14Z</time>
      </trkpt>
      <trkpt lat="42.92235" lon="0.1169">
        <ele>2075.13</ele>
        <time>2018-01-24T09:45:33Z</time>
      </trkpt>
      <trkpt lat="42.92235" lon="0.1169">
        <ele>2075.05</ele>
        <time>2018-01-24T09:45:37Z</time>
      </trkpt>
      <trkpt lat="42.92234" lon="0.11692">
        <ele>2075.11</ele>
        <time>2018-01-24T09:45:51Z</time>
      </trkpt>
      <trkpt lat="42.92234" lon="0.1169">
        <ele>2075.38</ele>
        <time>2018-01-24T09:45:59Z</time>
      </trkpt>
      <trkpt lat="42.92236" lon="0.11687">
        <ele>2075.37</ele>
        <time>2018-01-24T09:46:15Z</time>
      </trkpt>
      <trkpt lat="42.92235" lon="0.11689">
        <ele>2075.39</ele>
        <time>2018-01-24T09:46:33Z</time>
      </trkpt>
      <trkpt lat="42.92235" lon="0.11689">
        <ele>2074.78</ele>
        <time>2018-01-24T09:46:55Z</time>
      </trkpt>
      <trkpt lat="42.92236" lon="0.11688">
        <ele>2074.78</ele>
        <time>2018-01-24T09:47:18Z</time>
      </trkpt>
      <trkpt lat="42.92242" lon="0.11686">
        <ele>2074.78</ele>
        <time>2018-01-24T09:47:37Z</time>
      </trkpt>
      <trkpt lat="42.92248" lon="0.11689">
        <ele>2077.5</ele>
        <time>2018-01-24T09:47:44Z</time>
      </trkpt>
      <trkpt lat="42.92252" lon="0.11694">
        <ele>2079.47</ele>
        <time>2018-01-24T09:48:02Z</time>
      </trkpt>
      <trkpt lat="42.92252" lon="0.11695">
        <ele>2079.36</ele>
        <time>2018-01-24T09:48:25Z</time>
      </trkpt>
      <trkpt lat="42.92258" lon="0.11704">
        <ele>2081.27</ele>
        <time>2018-01-24T09:48:43Z</time>
      </trkpt>
      <trkpt lat="42.92261" lon="0.11708">
        <ele>2083.11</ele>
        <time>2018-01-24T09:49:02Z</time>
      </trkpt>
      <trkpt lat="42.92261" lon="0.11709">
        <ele>2082.89</ele>
        <time>2018-01-24T09:49:28Z</time>
      </trkpt>
      <trkpt lat="42.9226" lon="0.11709">
        <ele>2083.11</ele>
        <time>2018-01-24T09:49:53Z</time>
      </trkpt>
      <trkpt lat="42.92265" lon="0.11719">
        <ele>2084.3</ele>
        <time>2018-01-24T09:50:23Z</time>
      </trkpt>
      <trkpt lat="42.92278" lon="0.11719">
        <ele>2087.33</ele>
        <time>2018-01-24T09:50:45Z</time>
      </trkpt>
      <trkpt lat="42.9228" lon="0.11706">
        <ele>2090.32</ele>
        <time>2018-01-24T09:51:05Z</time>
      </trkpt>
      <trkpt lat="42.92292" lon="0.11716">
        <ele>2093.16</ele>
        <time>2018-01-24T09:51:25Z</time>
      </trkpt>
      <trkpt lat="42.92306" lon="0.11725">
        <ele>2096.04</ele>
        <time>2018-01-24T09:51:42Z</time>
      </trkpt>
      <trkpt lat="42.9231" lon="0.11724">
        <ele>2099.18</ele>
        <time>2018-01-24T09:52:01Z</time>
      </trkpt>
      <trkpt lat="42.92307" lon="0.11714">
        <ele>2102</ele>
        <time>2018-01-24T09:52:18Z</time>
      </trkpt>
      <trkpt lat="42.92306" lon="0.11704">
        <ele>2104.22</ele>
        <time>2018-01-24T09:52:33Z</time>
      </trkpt>
      <trkpt lat="42.92307" lon="0.11694">
        <ele>2107.25</ele>
        <time>2018-01-24T09:52:47Z</time>
      </trkpt>
      <trkpt lat="42.92306" lon="0.11687">
        <ele>2109.03</ele>
        <time>2018-01-24T09:53:06Z</time>
      </trkpt>
      <trkpt lat="42.92315" lon="0.11694">
        <ele>2110.57</ele>
        <time>2018-01-24T09:53:20Z</time>
      </trkpt>
      <trkpt lat="42.92326" lon="0.11701">
        <ele>2113.78</ele>
        <time>2018-01-24T09:53:36Z</time>
      </trkpt>
      <trkpt lat="42.92333" lon="0.1171">
        <ele>2116.7</ele>
        <time>2018-01-24T09:53:55Z</time>
      </trkpt>
      <trkpt lat="42.92334" lon="0.11713">
        <ele>2118.93</ele>
        <time>2018-01-24T09:54:17Z</time>
      </trkpt>
      <trkpt lat="42.92335" lon="0.11699">
        <ele>2121.38</ele>
        <time>2018-01-24T09:54:33Z</time>
      </trkpt>
      <trkpt lat="42.92336" lon="0.11686">
        <ele>2124.41</ele>
        <time>2018-01-24T09:54:47Z</time>
      </trkpt>
      <trkpt lat="42.92334" lon="0.11672">
        <ele>2127.09</ele>
        <time>2018-01-24T09:55:05Z</time>
      </trkpt>
      <trkpt lat="42.92334" lon="0.11661">
        <ele>2130.15</ele>
        <time>2018-01-24T09:55:21Z</time>
      </trkpt>
      <trkpt lat="42.92332" lon="0.1165">
        <ele>2133.36</ele>
        <time>2018-01-24T09:55:37Z</time>
      </trkpt>
      <trkpt lat="42.92328" lon="0.11639">
        <ele>2136.42</ele>
        <time>2018-01-24T09:55:55Z</time>
      </trkpt>
      <trkpt lat="42.92325" lon="0.11631">
        <ele>2139.23</ele>
        <time>2018-01-24T09:56:12Z</time>
      </trkpt>
      <trkpt lat="42.92322" lon="0.11623">
        <ele>2140.88</ele>
        <time>2018-01-24T09:56:32Z</time>
      </trkpt>
      <trkpt lat="42.92328" lon="0.11606">
        <ele>2143.96</ele>
        <time>2018-01-24T09:56:50Z</time>
      </trkpt>
      <trkpt lat="42.92334" lon="0.1159">
        <ele>2146.81</ele>
        <time>2018-01-24T09:57:12Z</time>
      </trkpt>
      <trkpt lat="42.9234" lon="0.11577">
        <ele>2149</ele>
        <time>2018-01-24T09:57:30Z</time>
      </trkpt>
      <trkpt lat="42.92348" lon="0.11566">
        <ele>2150.23</ele>
        <time>2018-01-24T09:57:45Z</time>
      </trkpt>
      <trkpt lat="42.92358" lon="0.11554">
        <ele>2152.04</ele>
        <time>2018-01-24T09:58:03Z</time>
      </trkpt>
      <trkpt lat="42.92363" lon="0.1155">
        <ele>2153.93</ele>
        <time>2018-01-24T09:58:24Z</time>
      </trkpt>
      <trkpt lat="42.92365" lon="0.11549">
        <ele>2153.57</ele>
        <time>2018-01-24T09:58:45Z</time>
      </trkpt>
      <trkpt lat="42.92363" lon="0.11552">
        <ele>2152.69</ele>
        <time>2018-01-24T09:59:21Z</time>
      </trkpt>
      <trkpt lat="42.92363" lon="0.11555">
        <ele>2152.74</ele>
        <time>2018-01-24T10:00:14Z</time>
      </trkpt>
      <trkpt lat="42.92362" lon="0.11554">
        <ele>2152.74</ele>
        <time>2018-01-24T10:01:05Z</time>
      </trkpt>
      <trkpt lat="42.92365" lon="0.11551">
        <ele>2152.74</ele>
        <time>2018-01-24T10:01:40Z</time>
      </trkpt>
      <trkpt lat="42.92364" lon="0.11553">
        <ele>2152.74</ele>
        <time>2018-01-24T10:02:17Z</time>
      </trkpt>
      <trkpt lat="42.92362" lon="0.11553">
        <ele>2152.74</ele>
        <time>2018-01-24T10:02:32Z</time>
      </trkpt>
      <trkpt lat="42.92362" lon="0.11553">
        <ele>2152.74</ele>
        <time>2018-01-24T10:02:55Z</time>
      </trkpt>
      <trkpt lat="42.92361" lon="0.11554">
        <ele>2152.74</ele>
        <time>2018-01-24T10:03:16Z</time>
      </trkpt>
      <trkpt lat="42.92364" lon="0.1155">
        <ele>2152.74</ele>
        <time>2018-01-24T10:03:53Z</time>
      </trkpt>
      <trkpt lat="42.92365" lon="0.11553">
        <ele>2152.74</ele>
        <time>2018-01-24T10:04:20Z</time>
      </trkpt>
      <trkpt lat="42.92376" lon="0.11554">
        <ele>2152.74</ele>
        <time>2018-01-24T10:04:35Z</time>
      </trkpt>
      <trkpt lat="42.92387" lon="0.1155">
        <ele>2152.74</ele>
        <time>2018-01-24T10:04:52Z</time>
      </trkpt>
      <trkpt lat="42.92388" lon="0.11551">
        <ele>2157.03</ele>
        <time>2018-01-24T10:04:54Z</time>
      </trkpt>
      <trkpt lat="42.92388" lon="0.11551">
        <ele>2157</ele>
        <time>2018-01-24T10:04:55Z</time>
      </trkpt>
      <trkpt lat="42.924" lon="0.1155">
        <ele>2157.5</ele>
        <time>2018-01-24T10:05:11Z</time>
      </trkpt>
      <trkpt lat="42.92411" lon="0.11547">
        <ele>2158.31</ele>
        <time>2018-01-24T10:05:28Z</time>
      </trkpt>
      <trkpt lat="42.9242" lon="0.11542">
        <ele>2158.76</ele>
        <time>2018-01-24T10:05:46Z</time>
      </trkpt>
      <trkpt lat="42.92423" lon="0.11542">
        <ele>2160.04</ele>
        <time>2018-01-24T10:06:07Z</time>
      </trkpt>
      <trkpt lat="42.92424" lon="0.11541">
        <ele>2160.41</ele>
        <time>2018-01-24T10:06:46Z</time>
      </trkpt>
      <trkpt lat="42.92424" lon="0.11538">
        <ele>2160.59</ele>
        <time>2018-01-24T10:07:10Z</time>
      </trkpt>
      <trkpt lat="42.92425" lon="0.11534">
        <ele>2160.17</ele>
        <time>2018-01-24T10:07:41Z</time>
      </trkpt>
      <trkpt lat="42.92425" lon="0.11535">
        <ele>2159.99</ele>
        <time>2018-01-24T10:07:57Z</time>
      </trkpt>
      <trkpt lat="42.92428" lon="0.11535">
        <ele>2159.89</ele>
        <time>2018-01-24T10:08:00Z</time>
      </trkpt>
      <trkpt lat="42.92439" lon="0.11536">
        <ele>2161.23</ele>
        <time>2018-01-24T10:08:15Z</time>
      </trkpt>
      <trkpt lat="42.92445" lon="0.11535">
        <ele>2161.97</ele>
        <time>2018-01-24T10:08:23Z</time>
      </trkpt>
      <trkpt lat="42.92459" lon="0.11534">
        <ele>2163.19</ele>
        <time>2018-01-24T10:08:35Z</time>
      </trkpt>
      <trkpt lat="42.92471" lon="0.11528">
        <ele>2163.52</ele>
        <time>2018-01-24T10:08:46Z</time>
      </trkpt>
      <trkpt lat="42.92485" lon="0.11521">
        <ele>2166.56</ele>
        <time>2018-01-24T10:09:02Z</time>
      </trkpt>
      <trkpt lat="42.92495" lon="0.11522">
        <ele>2169.65</ele>
        <time>2018-01-24T10:09:18Z</time>
      </trkpt>
      <trkpt lat="42.925" lon="0.11532">
        <ele>2172.81</ele>
        <time>2018-01-24T10:09:33Z</time>
      </trkpt>
      <trkpt lat="42.92504" lon="0.11546">
        <ele>2175.28</ele>
        <time>2018-01-24T10:09:49Z</time>
      </trkpt>
      <trkpt lat="42.92507" lon="0.11544">
        <ele>2176.59</ele>
        <time>2018-01-24T10:10:05Z</time>
      </trkpt>
      <trkpt lat="42.92512" lon="0.11536">
        <ele>2177.52</ele>
        <time>2018-01-24T10:10:29Z</time>
      </trkpt>
      <trkpt lat="42.92525" lon="0.11525">
        <ele>2180.62</ele>
        <time>2018-01-24T10:10:47Z</time>
      </trkpt>
      <trkpt lat="42.92532" lon="0.11526">
        <ele>2183.47</ele>
        <time>2018-01-24T10:11:06Z</time>
      </trkpt>
      <trkpt lat="42.9254" lon="0.11531">
        <ele>2186.36</ele>
        <time>2018-01-24T10:11:20Z</time>
      </trkpt>
      <trkpt lat="42.92548" lon="0.11527">
        <ele>2189.33</ele>
        <time>2018-01-24T10:11:37Z</time>
      </trkpt>
      <trkpt lat="42.92558" lon="0.11531">
        <ele>2192.31</ele>
        <time>2018-01-24T10:11:53Z</time>
      </trkpt>
      <trkpt lat="42.92568" lon="0.1153">
        <ele>2195.15</ele>
        <time>2018-01-24T10:12:09Z</time>
      </trkpt>
      <trkpt lat="42.92576" lon="0.11529">
        <ele>2198.02</ele>
        <time>2018-01-24T10:12:27Z</time>
      </trkpt>
      <trkpt lat="42.92576" lon="0.11532">
        <ele>2198.43</ele>
        <time>2018-01-24T10:12:52Z</time>
      </trkpt>
      <trkpt lat="42.92575" lon="0.11537">
        <ele>2198.87</ele>
        <time>2018-01-24T10:13:13Z</time>
      </trkpt>
      <trkpt lat="42.92575" lon="0.11535">
        <ele>2198.79</ele>
        <time>2018-01-24T10:13:42Z</time>
      </trkpt>
      <trkpt lat="42.92575" lon="0.11537">
        <ele>2199.03</ele>
        <time>2018-01-24T10:14:13Z</time>
      </trkpt>
      <trkpt lat="42.92577" lon="0.11536">
        <ele>2199.03</ele>
        <time>2018-01-24T10:14:45Z</time>
      </trkpt>
      <trkpt lat="42.92575" lon="0.11533">
        <ele>2199.03</ele>
        <time>2018-01-24T10:15:13Z</time>
      </trkpt>
      <trkpt lat="42.92575" lon="0.11532">
        <ele>2199.03</ele>
        <time>2018-01-24T10:15:40Z</time>
      </trkpt>
      <trkpt lat="42.92577" lon="0.11533">
        <ele>2199.03</ele>
        <time>2018-01-24T10:16:06Z</time>
      </trkpt>
      <trkpt lat="42.92578" lon="0.11533">
        <ele>2199.03</ele>
        <time>2018-01-24T10:16:27Z</time>
      </trkpt>
      <trkpt lat="42.92582" lon="0.11532">
        <ele>2199.03</ele>
        <time>2018-01-24T10:16:48Z</time>
      </trkpt>
      <trkpt lat="42.92594" lon="0.11526">
        <ele>2199.03</ele>
        <time>2018-01-24T10:17:02Z</time>
      </trkpt>
      <trkpt lat="42.92607" lon="0.11524">
        <ele>2199.03</ele>
        <time>2018-01-24T10:17:19Z</time>
      </trkpt>
      <trkpt lat="42.92611" lon="0.11524">
        <ele>2202.37</ele>
        <time>2018-01-24T10:17:26Z</time>
      </trkpt>
      <trkpt lat="42.9262" lon="0.11517">
        <ele>2204.76</ele>
        <time>2018-01-24T10:17:44Z</time>
      </trkpt>
      <trkpt lat="42.92628" lon="0.11515">
        <ele>2205.3</ele>
        <time>2018-01-24T10:17:59Z</time>
      </trkpt>
      <trkpt lat="42.92632" lon="0.11516">
        <ele>2205.14</ele>
        <time>2018-01-24T10:18:03Z</time>
      </trkpt>
      <trkpt lat="42.92644" lon="0.1151">
        <ele>2205.14</ele>
        <time>2018-01-24T10:18:19Z</time>
      </trkpt>
      <trkpt lat="42.92655" lon="0.11506">
        <ele>2204.99</ele>
        <time>2018-01-24T10:18:32Z</time>
      </trkpt>
      <trkpt lat="42.92667" lon="0.11509">
        <ele>2204.44</ele>
        <time>2018-01-24T10:18:48Z</time>
      </trkpt>
      <trkpt lat="42.92675" lon="0.11516">
        <ele>2204.7</ele>
        <time>2018-01-24T10:19:01Z</time>
      </trkpt>
      <trkpt lat="42.92686" lon="0.11523">
        <ele>2207.33</ele>
        <time>2018-01-24T10:19:17Z</time>
      </trkpt>
      <trkpt lat="42.92698" lon="0.11528">
        <ele>2210.33</ele>
        <time>2018-01-24T10:19:36Z</time>
      </trkpt>
      <trkpt lat="42.92709" lon="0.1153">
        <ele>2213.05</ele>
        <time>2018-01-24T10:19:55Z</time>
      </trkpt>
      <trkpt lat="42.92723" lon="0.11521">
        <ele>2215.5</ele>
        <time>2018-01-24T10:20:13Z</time>
      </trkpt>
      <trkpt lat="42.9273" lon="0.11511">
        <ele>2217.99</ele>
        <time>2018-01-24T10:20:32Z</time>
      </trkpt>
      <trkpt lat="42.92741" lon="0.115">
        <ele>2220.08</ele>
        <time>2018-01-24T10:20:52Z</time>
      </trkpt>
      <trkpt lat="42.92764" lon="0.11501">
        <ele>2221.54</ele>
        <time>2018-01-24T10:21:06Z</time>
      </trkpt>
      <trkpt lat="42.92765" lon="0.11494">
        <ele>2223.44</ele>
        <time>2018-01-24T10:21:27Z</time>
      </trkpt>
      <trkpt lat="42.92771" lon="0.11495">
        <ele>2224.91</ele>
        <time>2018-01-24T10:21:46Z</time>
      </trkpt>
      <trkpt lat="42.92777" lon="0.11493">
        <ele>2225.92</ele>
        <time>2018-01-24T10:22:04Z</time>
      </trkpt>
      <trkpt lat="42.92787" lon="0.11495">
        <ele>2226.14</ele>
        <time>2018-01-24T10:22:24Z</time>
      </trkpt>
      <trkpt lat="42.92792" lon="0.11495">
        <ele>2226.43</ele>
        <time>2018-01-24T10:22:42Z</time>
      </trkpt>
      <trkpt lat="42.928" lon="0.11492">
        <ele>2228.93</ele>
        <time>2018-01-24T10:23:01Z</time>
      </trkpt>
      <trkpt lat="42.92812" lon="0.11485">
        <ele>2229.77</ele>
        <time>2018-01-24T10:23:26Z</time>
      </trkpt>
      <trkpt lat="42.92822" lon="0.11483">
        <ele>2231.5</ele>
        <time>2018-01-24T10:23:40Z</time>
      </trkpt>
      <trkpt lat="42.92821" lon="0.11483">
        <ele>2232.34</ele>
        <time>2018-01-24T10:24:12Z</time>
      </trkpt>
      <trkpt lat="42.92822" lon="0.1148">
        <ele>2232.5</ele>
        <time>2018-01-24T10:24:41Z</time>
      </trkpt>
      <trkpt lat="42.92835" lon="0.11484">
        <ele>2234.87</ele>
        <time>2018-01-24T10:24:59Z</time>
      </trkpt>
      <trkpt lat="42.92844" lon="0.11477">
        <ele>2236.75</ele>
        <time>2018-01-24T10:25:17Z</time>
      </trkpt>
      <trkpt lat="42.92857" lon="0.11471">
        <ele>2239.07</ele>
        <time>2018-01-24T10:25:39Z</time>
      </trkpt>
      <trkpt lat="42.92868" lon="0.11467">
        <ele>2241.01</ele>
        <time>2018-01-24T10:26:00Z</time>
      </trkpt>
      <trkpt lat="42.92883" lon="0.11464">
        <ele>2243.71</ele>
        <time>2018-01-24T10:26:23Z</time>
      </trkpt>
      <trkpt lat="42.92892" lon="0.11463">
        <ele>2245.34</ele>
        <time>2018-01-24T10:26:39Z</time>
      </trkpt>
      <trkpt lat="42.92899" lon="0.11458">
        <ele>2247.47</ele>
        <time>2018-01-24T10:26:58Z</time>
      </trkpt>
      <trkpt lat="42.92904" lon="0.11447">
        <ele>2249.7</ele>
        <time>2018-01-24T10:27:16Z</time>
      </trkpt>
      <trkpt lat="42.92915" lon="0.11439">
        <ele>2251.87</ele>
        <time>2018-01-24T10:27:34Z</time>
      </trkpt>
      <trkpt lat="42.9292" lon="0.11438">
        <ele>2253.18</ele>
        <time>2018-01-24T10:27:50Z</time>
      </trkpt>
      <trkpt lat="42.92933" lon="0.1143">
        <ele>2256</ele>
        <time>2018-01-24T10:28:11Z</time>
      </trkpt>
      <trkpt lat="42.92941" lon="0.1142">
        <ele>2257.93</ele>
        <time>2018-01-24T10:28:31Z</time>
      </trkpt>
      <trkpt lat="42.92947" lon="0.11417">
        <ele>2259.5</ele>
        <time>2018-01-24T10:28:51Z</time>
      </trkpt>
      <trkpt lat="42.92954" lon="0.11412">
        <ele>2261.4</ele>
        <time>2018-01-24T10:29:07Z</time>
      </trkpt>
      <trkpt lat="42.92955" lon="0.11411">
        <ele>2261.74</ele>
        <time>2018-01-24T10:29:27Z</time>
      </trkpt>
      <trkpt lat="42.92957" lon="0.11416">
        <ele>2261.76</ele>
        <time>2018-01-24T10:29:47Z</time>
      </trkpt>
      <trkpt lat="42.92957" lon="0.11416">
        <ele>2261.78</ele>
        <time>2018-01-24T10:30:09Z</time>
      </trkpt>
      <trkpt lat="42.92958" lon="0.11413">
        <ele>2261.79</ele>
        <time>2018-01-24T10:30:30Z</time>
      </trkpt>
      <trkpt lat="42.92963" lon="0.11413">
        <ele>2261.6</ele>
        <time>2018-01-24T10:30:52Z</time>
      </trkpt>
      <trkpt lat="42.92965" lon="0.11416">
        <ele>2262.04</ele>
        <time>2018-01-24T10:31:08Z</time>
      </trkpt>
      <trkpt lat="42.92969" lon="0.11417">
        <ele>2264.68</ele>
        <time>2018-01-24T10:31:25Z</time>
      </trkpt>
      <trkpt lat="42.92978" lon="0.11415">
        <ele>2267.18</ele>
        <time>2018-01-24T10:31:42Z</time>
      </trkpt>
      <trkpt lat="42.92981" lon="0.11413">
        <ele>2268.71</ele>
        <time>2018-01-24T10:32:05Z</time>
      </trkpt>
      <trkpt lat="42.92984" lon="0.1141">
        <ele>2269.68</ele>
        <time>2018-01-24T10:32:24Z</time>
      </trkpt>
      <trkpt lat="42.92973" lon="0.11395">
        <ele>2272.39</ele>
        <time>2018-01-24T10:32:43Z</time>
      </trkpt>
      <trkpt lat="42.92966" lon="0.11388">
        <ele>2275.01</ele>
        <time>2018-01-24T10:33:00Z</time>
      </trkpt>
      <trkpt lat="42.92967" lon="0.11388">
        <ele>2275.26</ele>
        <time>2018-01-24T10:33:02Z</time>
      </trkpt>
      <trkpt lat="42.92975" lon="0.11392">
        <ele>2276.51</ele>
        <time>2018-01-24T10:33:16Z</time>
      </trkpt>
      <trkpt lat="42.92984" lon="0.1139">
        <ele>2278.62</ele>
        <time>2018-01-24T10:33:30Z</time>
      </trkpt>
      <trkpt lat="42.92996" lon="0.11385">
        <ele>2281.49</ele>
        <time>2018-01-24T10:33:53Z</time>
      </trkpt>
      <trkpt lat="42.93007" lon="0.11384">
        <ele>2283.6</ele>
        <time>2018-01-24T10:34:14Z</time>
      </trkpt>
      <trkpt lat="42.9301" lon="0.11381">
        <ele>2285.29</ele>
        <time>2018-01-24T10:34:37Z</time>
      </trkpt>
      <trkpt lat="42.92999" lon="0.11368">
        <ele>2287.41</ele>
        <time>2018-01-24T10:34:54Z</time>
      </trkpt>
      <trkpt lat="42.92994" lon="0.11365">
        <ele>2289.35</ele>
        <time>2018-01-24T10:35:13Z</time>
      </trkpt>
      <trkpt lat="42.92989" lon="0.11361">
        <ele>2289.67</ele>
        <time>2018-01-24T10:35:33Z</time>
      </trkpt>
      <trkpt lat="42.92996" lon="0.1136">
        <ele>2291.2</ele>
        <time>2018-01-24T10:35:51Z</time>
      </trkpt>
      <trkpt lat="42.93009" lon="0.11356">
        <ele>2294.33</ele>
        <time>2018-01-24T10:36:08Z</time>
      </trkpt>
      <trkpt lat="42.93017" lon="0.11352">
        <ele>2296.96</ele>
        <time>2018-01-24T10:36:26Z</time>
      </trkpt>
      <trkpt lat="42.93024" lon="0.11345">
        <ele>2299.42</ele>
        <time>2018-01-24T10:36:43Z</time>
      </trkpt>
      <trkpt lat="42.93025" lon="0.11344">
        <ele>2299.84</ele>
        <time>2018-01-24T10:36:54Z</time>
      </trkpt>
      <trkpt lat="42.93026" lon="0.11344">
        <ele>2299.79</ele>
        <time>2018-01-24T10:37:05Z</time>
      </trkpt>
      <trkpt lat="42.93022" lon="0.11346">
        <ele>2299.67</ele>
        <time>2018-01-24T10:37:52Z</time>
      </trkpt>
      <trkpt lat="42.93026" lon="0.11344">
        <ele>2300.93</ele>
        <time>2018-01-24T10:38:19Z</time>
      </trkpt>
      <trkpt lat="42.93024" lon="0.11344">
        <ele>2300.12</ele>
        <time>2018-01-24T10:38:41Z</time>
      </trkpt>
      <trkpt lat="42.93023" lon="0.11344">
        <ele>2300.12</ele>
        <time>2018-01-24T10:39:18Z</time>
      </trkpt>
      <trkpt lat="42.93023" lon="0.11339">
        <ele>2300.12</ele>
        <time>2018-01-24T10:39:41Z</time>
      </trkpt>
      <trkpt lat="42.93031" lon="0.1134">
        <ele>2300.12</ele>
        <time>2018-01-24T10:39:58Z</time>
      </trkpt>
      <trkpt lat="42.93034" lon="0.11336">
        <ele>2300.12</ele>
        <time>2018-01-24T10:40:14Z</time>
      </trkpt>
      <trkpt lat="42.93032" lon="0.11332">
        <ele>2300.12</ele>
        <time>2018-01-24T10:40:29Z</time>
      </trkpt>
      <trkpt lat="42.93036" lon="0.11333">
        <ele>2306.74</ele>
        <time>2018-01-24T10:40:37Z</time>
      </trkpt>
      <trkpt lat="42.93038" lon="0.11333">
        <ele>2306.77</ele>
        <time>2018-01-24T10:40:38Z</time>
      </trkpt>
      <trkpt lat="42.93043" lon="0.11333">
        <ele>2308.26</ele>
        <time>2018-01-24T10:40:51Z</time>
      </trkpt>
      <trkpt lat="42.93039" lon="0.11327">
        <ele>2309.09</ele>
        <time>2018-01-24T10:41:08Z</time>
      </trkpt>
      <trkpt lat="42.93036" lon="0.11322">
        <ele>2311.24</ele>
        <time>2018-01-24T10:41:28Z</time>
      </trkpt>
      <trkpt lat="42.93041" lon="0.11323">
        <ele>2312.3</ele>
        <time>2018-01-24T10:41:57Z</time>
      </trkpt>
      <trkpt lat="42.93049" lon="0.11325">
        <ele>2313.9</ele>
        <time>2018-01-24T10:42:14Z</time>
      </trkpt>
      <trkpt lat="42.9305" lon="0.11327">
        <ele>2315.11</ele>
        <time>2018-01-24T10:42:35Z</time>
      </trkpt>
      <trkpt lat="42.93048" lon="0.11322">
        <ele>2316.25</ele>
        <time>2018-01-24T10:42:55Z</time>
      </trkpt>
      <trkpt lat="42.93043" lon="0.11318">
        <ele>2317.53</ele>
        <time>2018-01-24T10:43:13Z</time>
      </trkpt>
      <trkpt lat="42.93042" lon="0.11317">
        <ele>2318.59</ele>
        <time>2018-01-24T10:43:36Z</time>
      </trkpt>
      <trkpt lat="42.93047" lon="0.11317">
        <ele>2319.11</ele>
        <time>2018-01-24T10:43:53Z</time>
      </trkpt>
      <trkpt lat="42.93054" lon="0.11318">
        <ele>2320.29</ele>
        <time>2018-01-24T10:44:13Z</time>
      </trkpt>
      <trkpt lat="42.93062" lon="0.11319">
        <ele>2322.92</ele>
        <time>2018-01-24T10:44:31Z</time>
      </trkpt>
      <trkpt lat="42.9306" lon="0.11312">
        <ele>2323.38</ele>
        <time>2018-01-24T10:44:53Z</time>
      </trkpt>
      <trkpt lat="42.93057" lon="0.11308">
        <ele>2325.56</ele>
        <time>2018-01-24T10:45:12Z</time>
      </trkpt>
      <trkpt lat="42.93066" lon="0.11308">
        <ele>2327</ele>
        <time>2018-01-24T10:45:31Z</time>
      </trkpt>
      <trkpt lat="42.93072" lon="0.11308">
        <ele>2329.54</ele>
        <time>2018-01-24T10:45:52Z</time>
      </trkpt>
      <trkpt lat="42.9307" lon="0.11299">
        <ele>2330.77</ele>
        <time>2018-01-24T10:46:11Z</time>
      </trkpt>
      <trkpt lat="42.93069" lon="0.11297">
        <ele>2332.61</ele>
        <time>2018-01-24T10:46:30Z</time>
      </trkpt>
      <trkpt lat="42.93077" lon="0.11298">
        <ele>2334.84</ele>
        <time>2018-01-24T10:46:50Z</time>
      </trkpt>
      <trkpt lat="42.93087" lon="0.11304">
        <ele>2337.17</ele>
        <time>2018-01-24T10:47:07Z</time>
      </trkpt>
      <trkpt lat="42.93094" lon="0.11308">
        <ele>2339.37</ele>
        <time>2018-01-24T10:47:24Z</time>
      </trkpt>
      <trkpt lat="42.93098" lon="0.11317">
        <ele>2340.98</ele>
        <time>2018-01-24T10:47:38Z</time>
      </trkpt>
      <trkpt lat="42.931" lon="0.11314">
        <ele>2341.65</ele>
        <time>2018-01-24T10:47:58Z</time>
      </trkpt>
      <trkpt lat="42.93102" lon="0.11306">
        <ele>2342.47</ele>
        <time>2018-01-24T10:48:32Z</time>
      </trkpt>
      <trkpt lat="42.931" lon="0.11296">
        <ele>2343.94</ele>
        <time>2018-01-24T10:48:51Z</time>
      </trkpt>
      <trkpt lat="42.93099" lon="0.11297">
        <ele>2344.57</ele>
        <time>2018-01-24T10:49:11Z</time>
      </trkpt>
      <trkpt lat="42.93099" lon="0.11298">
        <ele>2345.47</ele>
        <time>2018-01-24T10:49:36Z</time>
      </trkpt>
      <trkpt lat="42.93104" lon="0.113">
        <ele>2345.63</ele>
        <time>2018-01-24T10:50:01Z</time>
      </trkpt>
      <trkpt lat="42.93105" lon="0.11303">
        <ele>2347.52</ele>
        <time>2018-01-24T10:50:24Z</time>
      </trkpt>
      <trkpt lat="42.93108" lon="0.11303">
        <ele>2347.58</ele>
        <time>2018-01-24T10:50:44Z</time>
      </trkpt>
      <trkpt lat="42.93107" lon="0.11301">
        <ele>2348.02</ele>
        <time>2018-01-24T10:51:08Z</time>
      </trkpt>
      <trkpt lat="42.93108" lon="0.113">
        <ele>2348.23</ele>
        <time>2018-01-24T10:51:31Z</time>
      </trkpt>
      <trkpt lat="42.93108" lon="0.11297">
        <ele>2347.92</ele>
        <time>2018-01-24T10:51:54Z</time>
      </trkpt>
      <trkpt lat="42.93107" lon="0.11302">
        <ele>2347.92</ele>
        <time>2018-01-24T10:52:22Z</time>
      </trkpt>
      <trkpt lat="42.93107" lon="0.11304">
        <ele>2347.92</ele>
        <time>2018-01-24T10:53:13Z</time>
      </trkpt>
      <trkpt lat="42.93106" lon="0.11304">
        <ele>2347.92</ele>
        <time>2018-01-24T10:53:53Z</time>
      </trkpt>
      <trkpt lat="42.93107" lon="0.11303">
        <ele>2347.92</ele>
        <time>2018-01-24T10:54:36Z</time>
      </trkpt>
      <trkpt lat="42.93107" lon="0.11303">
        <ele>2347.92</ele>
        <time>2018-01-24T10:55:17Z</time>
      </trkpt>
      <trkpt lat="42.93108" lon="0.11301">
        <ele>2347.92</ele>
        <time>2018-01-24T10:55:36Z</time>
      </trkpt>
      <trkpt lat="42.93109" lon="0.113">
        <ele>2347.92</ele>
        <time>2018-01-24T10:56:00Z</time>
      </trkpt>
      <trkpt lat="42.9311" lon="0.11297">
        <ele>2347.92</ele>
        <time>2018-01-24T10:56:19Z</time>
      </trkpt>
      <trkpt lat="42.93112" lon="0.11293">
        <ele>2347.92</ele>
        <time>2018-01-24T10:56:40Z</time>
      </trkpt>
      <trkpt lat="42.93113" lon="0.1129">
        <ele>2355.01</ele>
        <time>2018-01-24T10:56:53Z</time>
      </trkpt>
      <trkpt lat="42.93113" lon="0.1129">
        <ele>2355.06</ele>
        <time>2018-01-24T10:56:54Z</time>
      </trkpt>
      <trkpt lat="42.93114" lon="0.11287">
        <ele>2356.13</ele>
        <time>2018-01-24T10:57:12Z</time>
      </trkpt>
      <trkpt lat="42.93118" lon="0.11285">
        <ele>2358.48</ele>
        <time>2018-01-24T10:57:32Z</time>
      </trkpt>
      <trkpt lat="42.9312" lon="0.11285">
        <ele>2361.53</ele>
        <time>2018-01-24T10:57:45Z</time>
      </trkpt>
      <trkpt lat="42.93122" lon="0.11284">
        <ele>2364.6</ele>
        <time>2018-01-24T10:58:03Z</time>
      </trkpt>
      <trkpt lat="42.93125" lon="0.11283">
        <ele>2366.86</ele>
        <time>2018-01-24T10:58:20Z</time>
      </trkpt>
      <trkpt lat="42.93127" lon="0.11282">
        <ele>2369.35</ele>
        <time>2018-01-24T10:58:38Z</time>
      </trkpt>
      <trkpt lat="42.9313" lon="0.11279">
        <ele>2371.55</ele>
        <time>2018-01-24T10:58:56Z</time>
      </trkpt>
      <trkpt lat="42.93131" lon="0.11279">
        <ele>2373.2</ele>
        <time>2018-01-24T10:59:18Z</time>
      </trkpt>
      <trkpt lat="42.93133" lon="0.11278">
        <ele>2373.56</ele>
        <time>2018-01-24T10:59:39Z</time>
      </trkpt>
      <trkpt lat="42.93135" lon="0.11277">
        <ele>2375.04</ele>
        <time>2018-01-24T11:00:03Z</time>
      </trkpt>
      <trkpt lat="42.93134" lon="0.11277">
        <ele>2375.64</ele>
        <time>2018-01-24T11:00:21Z</time>
      </trkpt>
      <trkpt lat="42.93133" lon="0.11275">
        <ele>2376.53</ele>
        <time>2018-01-24T11:00:53Z</time>
      </trkpt>
      <trkpt lat="42.93131" lon="0.11271">
        <ele>2376.94</ele>
        <time>2018-01-24T11:01:17Z</time>
      </trkpt>
      <trkpt lat="42.9313" lon="0.11263">
        <ele>2376.17</ele>
        <time>2018-01-24T11:01:41Z</time>
      </trkpt>
      <trkpt lat="42.93128" lon="0.11259">
        <ele>2374.89</ele>
        <time>2018-01-24T11:02:05Z</time>
      </trkpt>
      <trkpt lat="42.93121" lon="0.11251">
        <ele>2372.94</ele>
        <time>2018-01-24T11:02:26Z</time>
      </trkpt>
      <trkpt lat="42.93112" lon="0.11259">
        <ele>2369.72</ele>
        <time>2018-01-24T11:02:45Z</time>
      </trkpt>
      <trkpt lat="42.93108" lon="0.11258">
        <ele>2368.03</ele>
        <time>2018-01-24T11:02:51Z</time>
      </trkpt>
      <trkpt lat="42.93105" lon="0.11259">
        <ele>2367.68</ele>
        <time>2018-01-24T11:02:53Z</time>
      </trkpt>
      <trkpt lat="42.93101" lon="0.11258">
        <ele>2365.67</ele>
        <time>2018-01-24T11:03:00Z</time>
      </trkpt>
      <trkpt lat="42.93087" lon="0.11258">
        <ele>2362.26</ele>
        <time>2018-01-24T11:03:15Z</time>
      </trkpt>
      <trkpt lat="42.93077" lon="0.11256">
        <ele>2359.82</ele>
        <time>2018-01-24T11:03:31Z</time>
      </trkpt>
      <trkpt lat="42.93071" lon="0.11257">
        <ele>2357.76</ele>
        <time>2018-01-24T11:03:47Z</time>
      </trkpt>
      <trkpt lat="42.93069" lon="0.11257">
        <ele>2357.27</ele>
        <time>2018-01-24T11:04:18Z</time>
      </trkpt>
      <trkpt lat="42.93067" lon="0.11257">
        <ele>2356.94</ele>
        <time>2018-01-24T11:04:39Z</time>
      </trkpt>
      <trkpt lat="42.93067" lon="0.11257">
        <ele>2356.95</ele>
        <time>2018-01-24T11:05:00Z</time>
      </trkpt>
      <trkpt lat="42.93068" lon="0.11258">
        <ele>2357.12</ele>
        <time>2018-01-24T11:05:20Z</time>
      </trkpt>
      <trkpt lat="42.93068" lon="0.1126">
        <ele>2356.89</ele>
        <time>2018-01-24T11:05:44Z</time>
      </trkpt>
      <trkpt lat="42.93068" lon="0.11259">
        <ele>2356.64</ele>
        <time>2018-01-24T11:06:08Z</time>
      </trkpt>
      <trkpt lat="42.93065" lon="0.11262">
        <ele>2356.64</ele>
        <time>2018-01-24T11:06:36Z</time>
      </trkpt>
      <trkpt lat="42.93066" lon="0.11262">
        <ele>2356.64</ele>
        <time>2018-01-24T11:06:56Z</time>
      </trkpt>
      <trkpt lat="42.93067" lon="0.1126">
        <ele>2356.64</ele>
        <time>2018-01-24T11:07:14Z</time>
      </trkpt>
      <trkpt lat="42.93069" lon="0.11257">
        <ele>2356.64</ele>
        <time>2018-01-24T11:08:51Z</time>
      </trkpt>
      <trkpt lat="42.93069" lon="0.11255">
        <ele>2356.64</ele>
        <time>2018-01-24T11:10:56Z</time>
      </trkpt>
      <trkpt lat="42.9307" lon="0.11253">
        <ele>2356.64</ele>
        <time>2018-01-24T11:12:44Z</time>
      </trkpt>
      <trkpt lat="42.93069" lon="0.11253">
        <ele>2356.64</ele>
        <time>2018-01-24T11:13:30Z</time>
      </trkpt>
      <trkpt lat="42.93069" lon="0.11252">
        <ele>2356.64</ele>
        <time>2018-01-24T11:14:24Z</time>
      </trkpt>
      <trkpt lat="42.93069" lon="0.11251">
        <ele>2356.64</ele>
        <time>2018-01-24T11:15:09Z</time>
      </trkpt>
      <trkpt lat="42.9307" lon="0.11253">
        <ele>2356.64</ele>
        <time>2018-01-24T11:16:01Z</time>
      </trkpt>
      <trkpt lat="42.93069" lon="0.11255">
        <ele>2356.64</ele>
        <time>2018-01-24T11:16:55Z</time>
      </trkpt>
      <trkpt lat="42.93069" lon="0.11254">
        <ele>2356.64</ele>
        <time>2018-01-24T11:17:18Z</time>
      </trkpt>
      <trkpt lat="42.93069" lon="0.11256">
        <ele>2356.64</ele>
        <time>2018-01-24T11:17:40Z</time>
      </trkpt>
      <trkpt lat="42.93069" lon="0.11256">
        <ele>2356.64</ele>
        <time>2018-01-24T11:18:09Z</time>
      </trkpt>
      <trkpt lat="42.93069" lon="0.11256">
        <ele>2356.64</ele>
        <time>2018-01-24T11:18:30Z</time>
      </trkpt>
      <trkpt lat="42.93065" lon="0.11256">
        <ele>2356.64</ele>
        <time>2018-01-24T11:18:59Z</time>
      </trkpt>
      <trkpt lat="42.93068" lon="0.11255">
        <ele>2356.64</ele>
        <time>2018-01-24T11:19:25Z</time>
      </trkpt>
      <trkpt lat="42.93073" lon="0.11251">
        <ele>2356.64</ele>
        <time>2018-01-24T11:19:47Z</time>
      </trkpt>
      <trkpt lat="42.93074" lon="0.11248">
        <ele>2356.64</ele>
        <time>2018-01-24T11:20:11Z</time>
      </trkpt>
      <trkpt lat="42.93077" lon="0.11243">
        <ele>2356.64</ele>
        <time>2018-01-24T11:20:14Z</time>
      </trkpt>
      <trkpt lat="42.93095" lon="0.11201">
        <ele>2354.3</ele>
        <time>2018-01-24T11:20:28Z</time>
      </trkpt>
      <trkpt lat="42.93107" lon="0.11169">
        <ele>2351.1</ele>
        <time>2018-01-24T11:20:38Z</time>
      </trkpt>
      <trkpt lat="42.93117" lon="0.11141">
        <ele>2348.29</ele>
        <time>2018-01-24T11:20:44Z</time>
      </trkpt>
      <trkpt lat="42.93124" lon="0.11123">
        <ele>2345.3</ele>
        <time>2018-01-24T11:20:47Z</time>
      </trkpt>
      <trkpt lat="42.93129" lon="0.11109">
        <ele>2341.7</ele>
        <time>2018-01-24T11:20:49Z</time>
      </trkpt>
      <trkpt lat="42.93133" lon="0.1109">
        <ele>2337.71</ele>
        <time>2018-01-24T11:20:52Z</time>
      </trkpt>
      <trkpt lat="42.93135" lon="0.1107">
        <ele>2334.61</ele>
        <time>2018-01-24T11:20:55Z</time>
      </trkpt>
      <trkpt lat="42.93138" lon="0.11045">
        <ele>2331.59</ele>
        <time>2018-01-24T11:20:58Z</time>
      </trkpt>
      <trkpt lat="42.9314" lon="0.11022">
        <ele>2327.49</ele>
        <time>2018-01-24T11:21:01Z</time>
      </trkpt>
      <trkpt lat="42.9314" lon="0.10997">
        <ele>2322.92</ele>
        <time>2018-01-24T11:21:05Z</time>
      </trkpt>
      <trkpt lat="42.93138" lon="0.10976">
        <ele>2319.32</ele>
        <time>2018-01-24T11:21:08Z</time>
      </trkpt>
      <trkpt lat="42.93138" lon="0.10961">
        <ele>2316.14</ele>
        <time>2018-01-24T11:21:10Z</time>
      </trkpt>
      <trkpt lat="42.93138" lon="0.10954">
        <ele>2314.37</ele>
        <time>2018-01-24T11:21:11Z</time>
      </trkpt>
      <trkpt lat="42.9314" lon="0.10923">
        <ele>2309.33</ele>
        <time>2018-01-24T11:21:16Z</time>
      </trkpt>
      <trkpt lat="42.93137" lon="0.10888">
        <ele>2306.11</ele>
        <time>2018-01-24T11:21:21Z</time>
      </trkpt>
      <trkpt lat="42.93136" lon="0.10874">
        <ele>2301.79</ele>
        <time>2018-01-24T11:21:23Z</time>
      </trkpt>
      <trkpt lat="42.93137" lon="0.10854">
        <ele>2298.5</ele>
        <time>2018-01-24T11:21:26Z</time>
      </trkpt>
      <trkpt lat="42.93142" lon="0.10822">
        <ele>2295.32</ele>
        <time>2018-01-24T11:21:33Z</time>
      </trkpt>
      <trkpt lat="42.93143" lon="0.10818">
        <ele>2293.13</ele>
        <time>2018-01-24T11:21:42Z</time>
      </trkpt>
      <trkpt lat="42.93143" lon="0.10817">
        <ele>2293.14</ele>
        <time>2018-01-24T11:21:43Z</time>
      </trkpt>
      <trkpt lat="42.93143" lon="0.10806">
        <ele>2292.98</ele>
        <time>2018-01-24T11:21:46Z</time>
      </trkpt>
      <trkpt lat="42.93147" lon="0.1078">
        <ele>2289.33</ele>
        <time>2018-01-24T11:21:52Z</time>
      </trkpt>
      <trkpt lat="42.93139" lon="0.10766">
        <ele>2287.61</ele>
        <time>2018-01-24T11:21:56Z</time>
      </trkpt>
      <trkpt lat="42.93136" lon="0.10737">
        <ele>2280.55</ele>
        <time>2018-01-24T11:22:01Z</time>
      </trkpt>
      <trkpt lat="42.93137" lon="0.10733">
        <ele>2279.19</ele>
        <time>2018-01-24T11:22:02Z</time>
      </trkpt>
      <trkpt lat="42.93139" lon="0.10729">
        <ele>2274.52</ele>
        <time>2018-01-24T11:22:06Z</time>
      </trkpt>
      <trkpt lat="42.93139" lon="0.10729">
        <ele>2273.83</ele>
        <time>2018-01-24T11:22:10Z</time>
      </trkpt>
      <trkpt lat="42.93126" lon="0.10716">
        <ele>2270.8</ele>
        <time>2018-01-24T11:22:18Z</time>
      </trkpt>
      <trkpt lat="42.93126" lon="0.10716">
        <ele>2270.16</ele>
        <time>2018-01-24T11:22:20Z</time>
      </trkpt>
      <trkpt lat="42.93126" lon="0.10715">
        <ele>2269.91</ele>
        <time>2018-01-24T11:22:29Z</time>
      </trkpt>
      <trkpt lat="42.93129" lon="0.10688">
        <ele>2266.51</ele>
        <time>2018-01-24T11:22:36Z</time>
      </trkpt>
      <trkpt lat="42.93132" lon="0.10673">
        <ele>2263.08</ele>
        <time>2018-01-24T11:22:39Z</time>
      </trkpt>
      <trkpt lat="42.93136" lon="0.10655">
        <ele>2259.74</ele>
        <time>2018-01-24T11:22:42Z</time>
      </trkpt>
      <trkpt lat="42.93133" lon="0.10641">
        <ele>2256.64</ele>
        <time>2018-01-24T11:22:45Z</time>
      </trkpt>
      <trkpt lat="42.93133" lon="0.1062">
        <ele>2253.52</ele>
        <time>2018-01-24T11:22:50Z</time>
      </trkpt>
      <trkpt lat="42.93138" lon="0.10613">
        <ele>2250.42</ele>
        <time>2018-01-24T11:22:55Z</time>
      </trkpt>
      <trkpt lat="42.93139" lon="0.10612">
        <ele>2250.96</ele>
        <time>2018-01-24T11:23:05Z</time>
      </trkpt>
      <trkpt lat="42.93129" lon="0.10594">
        <ele>2249.55</ele>
        <time>2018-01-24T11:23:12Z</time>
      </trkpt>
      <trkpt lat="42.93126" lon="0.10589">
        <ele>2248.9</ele>
        <time>2018-01-24T11:23:13Z</time>
      </trkpt>
      <trkpt lat="42.9311" lon="0.10564">
        <ele>2242.43</ele>
        <time>2018-01-24T11:23:18Z</time>
      </trkpt>
      <trkpt lat="42.93098" lon="0.10557">
        <ele>2239.19</ele>
        <time>2018-01-24T11:23:20Z</time>
      </trkpt>
      <trkpt lat="42.93086" lon="0.10541">
        <ele>2236.73</ele>
        <time>2018-01-24T11:23:24Z</time>
      </trkpt>
      <trkpt lat="42.93082" lon="0.10533">
        <ele>2235.86</ele>
        <time>2018-01-24T11:23:33Z</time>
      </trkpt>
      <trkpt lat="42.93066" lon="0.10512">
        <ele>2232.93</ele>
        <time>2018-01-24T11:23:40Z</time>
      </trkpt>
      <trkpt lat="42.93055" lon="0.10505">
        <ele>2230.97</ele>
        <time>2018-01-24T11:23:49Z</time>
      </trkpt>
      <trkpt lat="42.93056" lon="0.1051">
        <ele>2231.28</ele>
        <time>2018-01-24T11:24:03Z</time>
      </trkpt>
      <trkpt lat="42.93063" lon="0.10511">
        <ele>2231.23</ele>
        <time>2018-01-24T11:24:06Z</time>
      </trkpt>
      <trkpt lat="42.93066" lon="0.10514">
        <ele>2231.78</ele>
        <time>2018-01-24T11:24:22Z</time>
      </trkpt>
      <trkpt lat="42.93068" lon="0.10515">
        <ele>2231.72</ele>
        <time>2018-01-24T11:24:27Z</time>
      </trkpt>
      <trkpt lat="42.93072" lon="0.10508">
        <ele>2231.61</ele>
        <time>2018-01-24T11:24:31Z</time>
      </trkpt>
      <trkpt lat="42.93073" lon="0.10501">
        <ele>2231.08</ele>
        <time>2018-01-24T11:24:33Z</time>
      </trkpt>
      <trkpt lat="42.93082" lon="0.10479">
        <ele>2228.67</ele>
        <time>2018-01-24T11:24:37Z</time>
      </trkpt>
      <trkpt lat="42.93081" lon="0.10465">
        <ele>2225.17</ele>
        <time>2018-01-24T11:24:41Z</time>
      </trkpt>
      <trkpt lat="42.93081" lon="0.10463">
        <ele>2225.34</ele>
        <time>2018-01-24T11:24:55Z</time>
      </trkpt>
      <trkpt lat="42.93082" lon="0.10461">
        <ele>2225.41</ele>
        <time>2018-01-24T11:25:15Z</time>
      </trkpt>
      <trkpt lat="42.93083" lon="0.10462">
        <ele>2225.32</ele>
        <time>2018-01-24T11:25:44Z</time>
      </trkpt>
      <trkpt lat="42.93082" lon="0.10461">
        <ele>2225.43</ele>
        <time>2018-01-24T11:26:07Z</time>
      </trkpt>
      <trkpt lat="42.93085" lon="0.10461">
        <ele>2225.43</ele>
        <time>2018-01-24T11:26:31Z</time>
      </trkpt>
      <trkpt lat="42.93086" lon="0.10459">
        <ele>2225.43</ele>
        <time>2018-01-24T11:26:56Z</time>
      </trkpt>
      <trkpt lat="42.93087" lon="0.10458">
        <ele>2225.43</ele>
        <time>2018-01-24T11:27:17Z</time>
      </trkpt>
      <trkpt lat="42.93087" lon="0.10459">
        <ele>2225.43</ele>
        <time>2018-01-24T11:27:41Z</time>
      </trkpt>
      <trkpt lat="42.93087" lon="0.1046">
        <ele>2225.43</ele>
        <time>2018-01-24T11:28:06Z</time>
      </trkpt>
      <trkpt lat="42.93088" lon="0.10459">
        <ele>2225.43</ele>
        <time>2018-01-24T11:28:35Z</time>
      </trkpt>
      <trkpt lat="42.9309" lon="0.10457">
        <ele>2225.43</ele>
        <time>2018-01-24T11:29:03Z</time>
      </trkpt>
      <trkpt lat="42.93088" lon="0.10458">
        <ele>2225.43</ele>
        <time>2018-01-24T11:29:33Z</time>
      </trkpt>
      <trkpt lat="42.93089" lon="0.10458">
        <ele>2225.43</ele>
        <time>2018-01-24T11:30:08Z</time>
      </trkpt>
      <trkpt lat="42.93089" lon="0.10459">
        <ele>2225.43</ele>
        <time>2018-01-24T11:30:46Z</time>
      </trkpt>
      <trkpt lat="42.93088" lon="0.10459">
        <ele>2225.43</ele>
        <time>2018-01-24T11:31:07Z</time>
      </trkpt>
      <trkpt lat="42.93086" lon="0.10462">
        <ele>2225.43</ele>
        <time>2018-01-24T11:31:29Z</time>
      </trkpt>
      <trkpt lat="42.93084" lon="0.10467">
        <ele>2225.43</ele>
        <time>2018-01-24T11:31:31Z</time>
      </trkpt>
      <trkpt lat="42.93073" lon="0.10481">
        <ele>2225.16</ele>
        <time>2018-01-24T11:31:41Z</time>
      </trkpt>
      <trkpt lat="42.9304" lon="0.10467">
        <ele>2221.68</ele>
        <time>2018-01-24T11:31:48Z</time>
      </trkpt>
      <trkpt lat="42.9302" lon="0.10465">
        <ele>2217.4</ele>
        <time>2018-01-24T11:31:53Z</time>
      </trkpt>
      <trkpt lat="42.92994" lon="0.10451">
        <ele>2214.61</ele>
        <time>2018-01-24T11:32:04Z</time>
      </trkpt>
      <trkpt lat="42.92983" lon="0.10432">
        <ele>2214.45</ele>
        <time>2018-01-24T11:32:17Z</time>
      </trkpt>
      <trkpt lat="42.92984" lon="0.10433">
        <ele>2214.21</ele>
        <time>2018-01-24T11:32:35Z</time>
      </trkpt>
      <trkpt lat="42.92986" lon="0.10434">
        <ele>2213.79</ele>
        <time>2018-01-24T11:32:59Z</time>
      </trkpt>
      <trkpt lat="42.92984" lon="0.10432">
        <ele>2213.6</ele>
        <time>2018-01-24T11:33:23Z</time>
      </trkpt>
      <trkpt lat="42.92985" lon="0.10431">
        <ele>2213.68</ele>
        <time>2018-01-24T11:33:30Z</time>
      </trkpt>
      <trkpt lat="42.92994" lon="0.10421">
        <ele>2212.81</ele>
        <time>2018-01-24T11:33:36Z</time>
      </trkpt>
      <trkpt lat="42.93004" lon="0.10401">
        <ele>2209.29</ele>
        <time>2018-01-24T11:33:42Z</time>
      </trkpt>
      <trkpt lat="42.93009" lon="0.10384">
        <ele>2205.8</ele>
        <time>2018-01-24T11:33:46Z</time>
      </trkpt>
      <trkpt lat="42.9301" lon="0.10381">
        <ele>2205.26</ele>
        <time>2018-01-24T11:33:47Z</time>
      </trkpt>
      <trkpt lat="42.93011" lon="0.10373">
        <ele>2205.02</ele>
        <time>2018-01-24T11:34:03Z</time>
      </trkpt>
      <trkpt lat="42.9301" lon="0.10366">
        <ele>2204.95</ele>
        <time>2018-01-24T11:34:17Z</time>
      </trkpt>
      <trkpt lat="42.93008" lon="0.10361">
        <ele>2204.93</ele>
        <time>2018-01-24T11:34:20Z</time>
      </trkpt>
      <trkpt lat="42.92999" lon="0.10323">
        <ele>2203.11</ele>
        <time>2018-01-24T11:34:33Z</time>
      </trkpt>
      <trkpt lat="42.93" lon="0.10323">
        <ele>2202.97</ele>
        <time>2018-01-24T11:34:57Z</time>
      </trkpt>
      <trkpt lat="42.93001" lon="0.10323">
        <ele>2202.97</ele>
        <time>2018-01-24T11:35:29Z</time>
      </trkpt>
      <trkpt lat="42.93" lon="0.10323">
        <ele>2202.85</ele>
        <time>2018-01-24T11:35:48Z</time>
      </trkpt>
      <trkpt lat="42.93" lon="0.10323">
        <ele>2203.1</ele>
        <time>2018-01-24T11:35:58Z</time>
      </trkpt>
      <trkpt lat="42.93001" lon="0.10324">
        <ele>2201.91</ele>
        <time>2018-01-24T11:36:43Z</time>
      </trkpt>
      <trkpt lat="42.93001" lon="0.10322">
        <ele>2201.91</ele>
        <time>2018-01-24T11:37:33Z</time>
      </trkpt>
      <trkpt lat="42.93" lon="0.10322">
        <ele>2201.91</ele>
        <time>2018-01-24T11:37:54Z</time>
      </trkpt>
      <trkpt lat="42.93001" lon="0.10323">
        <ele>2201.91</ele>
        <time>2018-01-24T11:38:14Z</time>
      </trkpt>
      <trkpt lat="42.93003" lon="0.10323">
        <ele>2201.91</ele>
        <time>2018-01-24T11:39:08Z</time>
      </trkpt>
      <trkpt lat="42.93002" lon="0.10323">
        <ele>2201.91</ele>
        <time>2018-01-24T11:40:11Z</time>
      </trkpt>
      <trkpt lat="42.93003" lon="0.10322">
        <ele>2201.91</ele>
        <time>2018-01-24T11:41:25Z</time>
      </trkpt>
      <trkpt lat="42.93003" lon="0.10321">
        <ele>2201.91</ele>
        <time>2018-01-24T11:42:03Z</time>
      </trkpt>
      <trkpt lat="42.93002" lon="0.10323">
        <ele>2201.91</ele>
        <time>2018-01-24T11:42:37Z</time>
      </trkpt>
      <trkpt lat="42.93" lon="0.10322">
        <ele>2201.91</ele>
        <time>2018-01-24T11:43:22Z</time>
      </trkpt>
      <trkpt lat="42.92998" lon="0.10322">
        <ele>2201.91</ele>
        <time>2018-01-24T11:44:18Z</time>
      </trkpt>
      <trkpt lat="42.92998" lon="0.10321">
        <ele>2201.91</ele>
        <time>2018-01-24T11:45:07Z</time>
      </trkpt>
      <trkpt lat="42.93002" lon="0.10323">
        <ele>2201.91</ele>
        <time>2018-01-24T11:45:43Z</time>
      </trkpt>
      <trkpt lat="42.93004" lon="0.10322">
        <ele>2201.91</ele>
        <time>2018-01-24T11:46:16Z</time>
      </trkpt>
      <trkpt lat="42.93002" lon="0.10323">
        <ele>2201.91</ele>
        <time>2018-01-24T11:46:45Z</time>
      </trkpt>
      <trkpt lat="42.93002" lon="0.10323">
        <ele>2201.91</ele>
        <time>2018-01-24T11:47:18Z</time>
      </trkpt>
      <trkpt lat="42.93002" lon="0.10323">
        <ele>2201.91</ele>
        <time>2018-01-24T11:47:58Z</time>
      </trkpt>
      <trkpt lat="42.93004" lon="0.10323">
        <ele>2201.91</ele>
        <time>2018-01-24T11:48:54Z</time>
      </trkpt>
      <trkpt lat="42.93004" lon="0.10322">
        <ele>2201.91</ele>
        <time>2018-01-24T11:49:31Z</time>
      </trkpt>
      <trkpt lat="42.93004" lon="0.10322">
        <ele>2201.91</ele>
        <time>2018-01-24T11:50:34Z</time>
      </trkpt>
      <trkpt lat="42.93001" lon="0.10322">
        <ele>2201.91</ele>
        <time>2018-01-24T11:50:52Z</time>
      </trkpt>
      <trkpt lat="42.93003" lon="0.10323">
        <ele>2201.91</ele>
        <time>2018-01-24T11:51:10Z</time>
      </trkpt>
      <trkpt lat="42.93002" lon="0.10322">
        <ele>2201.91</ele>
        <time>2018-01-24T11:51:34Z</time>
      </trkpt>
      <trkpt lat="42.93003" lon="0.10323">
        <ele>2201.91</ele>
        <time>2018-01-24T11:51:58Z</time>
      </trkpt>
      <trkpt lat="42.93001" lon="0.10322">
        <ele>2201.91</ele>
        <time>2018-01-24T11:52:20Z</time>
      </trkpt>
      <trkpt lat="42.93001" lon="0.10323">
        <ele>2201.91</ele>
        <time>2018-01-24T11:52:42Z</time>
      </trkpt>
      <trkpt lat="42.93002" lon="0.10321">
        <ele>2201.91</ele>
        <time>2018-01-24T11:53:08Z</time>
      </trkpt>
      <trkpt lat="42.92993" lon="0.10321">
        <ele>2203.88</ele>
        <time>2018-01-24T11:53:22Z</time>
      </trkpt>
      <trkpt lat="42.92991" lon="0.10322">
        <ele>2204.6</ele>
        <time>2018-01-24T11:53:24Z</time>
      </trkpt>
      <trkpt lat="42.92975" lon="0.10323">
        <ele>2204.82</ele>
        <time>2018-01-24T11:53:39Z</time>
      </trkpt>
      <trkpt lat="42.9296" lon="0.10321">
        <ele>2205.43</ele>
        <time>2018-01-24T11:53:54Z</time>
      </trkpt>
      <trkpt lat="42.92946" lon="0.10318">
        <ele>2206.03</ele>
        <time>2018-01-24T11:54:09Z</time>
      </trkpt>
      <trkpt lat="42.92941" lon="0.10321">
        <ele>2207.27</ele>
        <time>2018-01-24T11:54:16Z</time>
      </trkpt>
      <trkpt lat="42.92926" lon="0.10333">
        <ele>2209.14</ele>
        <time>2018-01-24T11:54:34Z</time>
      </trkpt>
      <trkpt lat="42.92924" lon="0.10332">
        <ele>2209.46</ele>
        <time>2018-01-24T11:54:36Z</time>
      </trkpt>
      <trkpt lat="42.92921" lon="0.10331">
        <ele>2210.13</ele>
        <time>2018-01-24T11:54:39Z</time>
      </trkpt>
      <trkpt lat="42.92911" lon="0.10321">
        <ele>2213.1</ele>
        <time>2018-01-24T11:54:55Z</time>
      </trkpt>
      <trkpt lat="42.92907" lon="0.10316">
        <ele>2214.24</ele>
        <time>2018-01-24T11:55:12Z</time>
      </trkpt>
      <trkpt lat="42.92906" lon="0.10315">
        <ele>2214.13</ele>
        <time>2018-01-24T11:55:14Z</time>
      </trkpt>
      <trkpt lat="42.92894" lon="0.10304">
        <ele>2215.74</ele>
        <time>2018-01-24T11:55:29Z</time>
      </trkpt>
      <trkpt lat="42.9289" lon="0.10314">
        <ele>2218.51</ele>
        <time>2018-01-24T11:55:41Z</time>
      </trkpt>
      <trkpt lat="42.92889" lon="0.10318">
        <ele>2218.86</ele>
        <time>2018-01-24T11:55:44Z</time>
      </trkpt>
      <trkpt lat="42.92882" lon="0.1033">
        <ele>2218.59</ele>
        <time>2018-01-24T11:55:55Z</time>
      </trkpt>
      <trkpt lat="42.92873" lon="0.10332">
        <ele>2218.72</ele>
        <time>2018-01-24T11:56:06Z</time>
      </trkpt>
      <trkpt lat="42.92858" lon="0.10333">
        <ele>2221.59</ele>
        <time>2018-01-24T11:56:23Z</time>
      </trkpt>
      <trkpt lat="42.92854" lon="0.10336">
        <ele>2223.73</ele>
        <time>2018-01-24T11:56:42Z</time>
      </trkpt>
      <trkpt lat="42.92855" lon="0.10337">
        <ele>2223.75</ele>
        <time>2018-01-24T11:57:15Z</time>
      </trkpt>
      <trkpt lat="42.92852" lon="0.10339">
        <ele>2223.91</ele>
        <time>2018-01-24T11:57:24Z</time>
      </trkpt>
      <trkpt lat="42.92843" lon="0.10345">
        <ele>2224.81</ele>
        <time>2018-01-24T11:57:39Z</time>
      </trkpt>
      <trkpt lat="42.92842" lon="0.10344">
        <ele>2224.88</ele>
        <time>2018-01-24T11:57:41Z</time>
      </trkpt>
      <trkpt lat="42.92834" lon="0.10336">
        <ele>2224.44</ele>
        <time>2018-01-24T11:57:49Z</time>
      </trkpt>
      <trkpt lat="42.9282" lon="0.10328">
        <ele>2222.59</ele>
        <time>2018-01-24T11:58:02Z</time>
      </trkpt>
      <trkpt lat="42.92808" lon="0.1033">
        <ele>2223.07</ele>
        <time>2018-01-24T11:58:17Z</time>
      </trkpt>
      <trkpt lat="42.92794" lon="0.1033">
        <ele>2225.78</ele>
        <time>2018-01-24T11:58:34Z</time>
      </trkpt>
      <trkpt lat="42.92783" lon="0.10324">
        <ele>2228.78</ele>
        <time>2018-01-24T11:58:52Z</time>
      </trkpt>
      <trkpt lat="42.92776" lon="0.1032">
        <ele>2232.25</ele>
        <time>2018-01-24T11:59:07Z</time>
      </trkpt>
      <trkpt lat="42.92768" lon="0.10309">
        <ele>2235.44</ele>
        <time>2018-01-24T11:59:22Z</time>
      </trkpt>
      <trkpt lat="42.92752" lon="0.10296">
        <ele>2238.54</ele>
        <time>2018-01-24T11:59:39Z</time>
      </trkpt>
      <trkpt lat="42.92744" lon="0.10283">
        <ele>2241.67</ele>
        <time>2018-01-24T11:59:55Z</time>
      </trkpt>
      <trkpt lat="42.92736" lon="0.1028">
        <ele>2244.7</ele>
        <time>2018-01-24T12:00:09Z</time>
      </trkpt>
      <trkpt lat="42.92729" lon="0.10282">
        <ele>2247.17</ele>
        <time>2018-01-24T12:00:26Z</time>
      </trkpt>
      <trkpt lat="42.92721" lon="0.10279">
        <ele>2249.37</ele>
        <time>2018-01-24T12:00:42Z</time>
      </trkpt>
      <trkpt lat="42.92715" lon="0.10273">
        <ele>2252.48</ele>
        <time>2018-01-24T12:00:59Z</time>
      </trkpt>
      <trkpt lat="42.92714" lon="0.10263">
        <ele>2254.33</ele>
        <time>2018-01-24T12:01:19Z</time>
      </trkpt>
      <trkpt lat="42.92707" lon="0.10264">
        <ele>2256.46</ele>
        <time>2018-01-24T12:01:36Z</time>
      </trkpt>
      <trkpt lat="42.92709" lon="0.10266">
        <ele>2256.28</ele>
        <time>2018-01-24T12:02:02Z</time>
      </trkpt>
      <trkpt lat="42.9271" lon="0.10265">
        <ele>2256.55</ele>
        <time>2018-01-24T12:02:26Z</time>
      </trkpt>
      <trkpt lat="42.9271" lon="0.10263">
        <ele>2256.87</ele>
        <time>2018-01-24T12:02:51Z</time>
      </trkpt>
      <trkpt lat="42.92705" lon="0.10269">
        <ele>2257.35</ele>
        <time>2018-01-24T12:03:18Z</time>
      </trkpt>
      <trkpt lat="42.92695" lon="0.10272">
        <ele>2260.4</ele>
        <time>2018-01-24T12:03:37Z</time>
      </trkpt>
      <trkpt lat="42.92688" lon="0.10284">
        <ele>2262.57</ele>
        <time>2018-01-24T12:03:54Z</time>
      </trkpt>
      <trkpt lat="42.92688" lon="0.10286">
        <ele>2263.25</ele>
        <time>2018-01-24T12:04:12Z</time>
      </trkpt>
      <trkpt lat="42.92689" lon="0.10284">
        <ele>2263.38</ele>
        <time>2018-01-24T12:04:33Z</time>
      </trkpt>
      <trkpt lat="42.92686" lon="0.1029">
        <ele>2263.51</ele>
        <time>2018-01-24T12:04:49Z</time>
      </trkpt>
      <trkpt lat="42.92684" lon="0.10291">
        <ele>2263.43</ele>
        <time>2018-01-24T12:05:11Z</time>
      </trkpt>
      <trkpt lat="42.92684" lon="0.10293">
        <ele>2263.43</ele>
        <time>2018-01-24T12:05:37Z</time>
      </trkpt>
      <trkpt lat="42.92682" lon="0.10294">
        <ele>2263.43</ele>
        <time>2018-01-24T12:05:59Z</time>
      </trkpt>
      <trkpt lat="42.92682" lon="0.10298">
        <ele>2263.43</ele>
        <time>2018-01-24T12:06:01Z</time>
      </trkpt>
      <trkpt lat="42.92681" lon="0.10321">
        <ele>2262.31</ele>
        <time>2018-01-24T12:06:17Z</time>
      </trkpt>
      <trkpt lat="42.9268" lon="0.10323">
        <ele>2262.59</ele>
        <time>2018-01-24T12:06:23Z</time>
      </trkpt>
      <trkpt lat="42.92678" lon="0.10327">
        <ele>2262.59</ele>
        <time>2018-01-24T12:06:26Z</time>
      </trkpt>
      <trkpt lat="42.92666" lon="0.10345">
        <ele>2263.01</ele>
        <time>2018-01-24T12:06:42Z</time>
      </trkpt>
      <trkpt lat="42.92658" lon="0.10364">
        <ele>2264.64</ele>
        <time>2018-01-24T12:06:59Z</time>
      </trkpt>
      <trkpt lat="42.92654" lon="0.10377">
        <ele>2266.21</ele>
        <time>2018-01-24T12:07:15Z</time>
      </trkpt>
      <trkpt lat="42.92646" lon="0.10394">
        <ele>2269.25</ele>
        <time>2018-01-24T12:07:31Z</time>
      </trkpt>
      <trkpt lat="42.92636" lon="0.10404">
        <ele>2271.7</ele>
        <time>2018-01-24T12:07:45Z</time>
      </trkpt>
      <trkpt lat="42.92626" lon="0.10415">
        <ele>2274.19</ele>
        <time>2018-01-24T12:08:00Z</time>
      </trkpt>
      <trkpt lat="42.92616" lon="0.10434">
        <ele>2276.27</ele>
        <time>2018-01-24T12:08:17Z</time>
      </trkpt>
      <trkpt lat="42.92607" lon="0.10444">
        <ele>2278.76</ele>
        <time>2018-01-24T12:08:31Z</time>
      </trkpt>
      <trkpt lat="42.92593" lon="0.1045">
        <ele>2280.93</ele>
        <time>2018-01-24T12:08:47Z</time>
      </trkpt>
      <trkpt lat="42.92581" lon="0.1045">
        <ele>2283.98</ele>
        <time>2018-01-24T12:09:01Z</time>
      </trkpt>
      <trkpt lat="42.92575" lon="0.1045">
        <ele>2287</ele>
        <time>2018-01-24T12:09:15Z</time>
      </trkpt>
      <trkpt lat="42.9258" lon="0.10461">
        <ele>2290.05</ele>
        <time>2018-01-24T12:09:34Z</time>
      </trkpt>
      <trkpt lat="42.92587" lon="0.1047">
        <ele>2293.2</ele>
        <time>2018-01-24T12:09:49Z</time>
      </trkpt>
      <trkpt lat="42.92593" lon="0.10476">
        <ele>2296.26</ele>
        <time>2018-01-24T12:10:04Z</time>
      </trkpt>
      <trkpt lat="42.92587" lon="0.1048">
        <ele>2298.26</ele>
        <time>2018-01-24T12:10:20Z</time>
      </trkpt>
      <trkpt lat="42.92575" lon="0.10486">
        <ele>2301.23</ele>
        <time>2018-01-24T12:10:36Z</time>
      </trkpt>
      <trkpt lat="42.92566" lon="0.1049">
        <ele>2304.26</ele>
        <time>2018-01-24T12:10:49Z</time>
      </trkpt>
      <trkpt lat="42.9256" lon="0.10493">
        <ele>2307.18</ele>
        <time>2018-01-24T12:11:07Z</time>
      </trkpt>
      <trkpt lat="42.9255" lon="0.10493">
        <ele>2309.41</ele>
        <time>2018-01-24T12:11:24Z</time>
      </trkpt>
      <trkpt lat="42.92543" lon="0.10502">
        <ele>2312.1</ele>
        <time>2018-01-24T12:11:42Z</time>
      </trkpt>
      <trkpt lat="42.92546" lon="0.10505">
        <ele>2313.64</ele>
        <time>2018-01-24T12:12:03Z</time>
      </trkpt>
      <trkpt lat="42.92545" lon="0.10509">
        <ele>2315.73</ele>
        <time>2018-01-24T12:12:22Z</time>
      </trkpt>
      <trkpt lat="42.92531" lon="0.1052">
        <ele>2318.92</ele>
        <time>2018-01-24T12:12:38Z</time>
      </trkpt>
      <trkpt lat="42.92523" lon="0.10531">
        <ele>2322</ele>
        <time>2018-01-24T12:12:53Z</time>
      </trkpt>
      <trkpt lat="42.92532" lon="0.10531">
        <ele>2324.22</ele>
        <time>2018-01-24T12:13:12Z</time>
      </trkpt>
      <trkpt lat="42.92541" lon="0.10537">
        <ele>2327.28</ele>
        <time>2018-01-24T12:13:27Z</time>
      </trkpt>
      <trkpt lat="42.92542" lon="0.10542">
        <ele>2330.29</ele>
        <time>2018-01-24T12:13:42Z</time>
      </trkpt>
      <trkpt lat="42.92524" lon="0.10555">
        <ele>2333.34</ele>
        <time>2018-01-24T12:14:02Z</time>
      </trkpt>
      <trkpt lat="42.92513" lon="0.10562">
        <ele>2336.4</ele>
        <time>2018-01-24T12:14:17Z</time>
      </trkpt>
      <trkpt lat="42.92511" lon="0.10563">
        <ele>2337.73</ele>
        <time>2018-01-24T12:14:35Z</time>
      </trkpt>
      <trkpt lat="42.9251" lon="0.10565">
        <ele>2338.38</ele>
        <time>2018-01-24T12:14:52Z</time>
      </trkpt>
      <trkpt lat="42.92504" lon="0.10568">
        <ele>2340.07</ele>
        <time>2018-01-24T12:15:11Z</time>
      </trkpt>
      <trkpt lat="42.92498" lon="0.10574">
        <ele>2343.12</ele>
        <time>2018-01-24T12:15:29Z</time>
      </trkpt>
      <trkpt lat="42.92491" lon="0.10581">
        <ele>2346.14</ele>
        <time>2018-01-24T12:15:47Z</time>
      </trkpt>
      <trkpt lat="42.92489" lon="0.10587">
        <ele>2348.58</ele>
        <time>2018-01-24T12:16:05Z</time>
      </trkpt>
      <trkpt lat="42.92484" lon="0.10593">
        <ele>2350.83</ele>
        <time>2018-01-24T12:16:27Z</time>
      </trkpt>
      <trkpt lat="42.92484" lon="0.10597">
        <ele>2352.34</ele>
        <time>2018-01-24T12:16:43Z</time>
      </trkpt>
      <trkpt lat="42.92483" lon="0.10603">
        <ele>2355.44</ele>
        <time>2018-01-24T12:16:55Z</time>
      </trkpt>
      <trkpt lat="42.9248" lon="0.1061">
        <ele>2358.66</ele>
        <time>2018-01-24T12:17:08Z</time>
      </trkpt>
      <trkpt lat="42.92475" lon="0.10617">
        <ele>2361.26</ele>
        <time>2018-01-24T12:17:24Z</time>
      </trkpt>
      <trkpt lat="42.92476" lon="0.10616">
        <ele>2362.19</ele>
        <time>2018-01-24T12:17:44Z</time>
      </trkpt>
      <trkpt lat="42.92477" lon="0.10614">
        <ele>2362.55</ele>
        <time>2018-01-24T12:18:09Z</time>
      </trkpt>
      <trkpt lat="42.92475" lon="0.10612">
        <ele>2362.45</ele>
        <time>2018-01-24T12:18:36Z</time>
      </trkpt>
      <trkpt lat="42.92477" lon="0.10614">
        <ele>2363.43</ele>
        <time>2018-01-24T12:19:04Z</time>
      </trkpt>
      <trkpt lat="42.92478" lon="0.10613">
        <ele>2364.77</ele>
        <time>2018-01-24T12:19:36Z</time>
      </trkpt>
      <trkpt lat="42.92476" lon="0.10617">
        <ele>2363.48</ele>
        <time>2018-01-24T12:20:17Z</time>
      </trkpt>
      <trkpt lat="42.92478" lon="0.10614">
        <ele>2362.75</ele>
        <time>2018-01-24T12:20:38Z</time>
      </trkpt>
      <trkpt lat="42.92477" lon="0.10613">
        <ele>2363.08</ele>
        <time>2018-01-24T12:21:16Z</time>
      </trkpt>
      <trkpt lat="42.92476" lon="0.10612">
        <ele>2363.18</ele>
        <time>2018-01-24T12:21:35Z</time>
      </trkpt>
      <trkpt lat="42.92476" lon="0.10613">
        <ele>2363.18</ele>
        <time>2018-01-24T12:22:03Z</time>
      </trkpt>
      <trkpt lat="42.92475" lon="0.10612">
        <ele>2363.18</ele>
        <time>2018-01-24T12:22:26Z</time>
      </trkpt>
      <trkpt lat="42.92473" lon="0.10612">
        <ele>2363.18</ele>
        <time>2018-01-24T12:22:53Z</time>
      </trkpt>
      <trkpt lat="42.92471" lon="0.1061">
        <ele>2363.18</ele>
        <time>2018-01-24T12:23:21Z</time>
      </trkpt>
      <trkpt lat="42.92472" lon="0.1061">
        <ele>2363.18</ele>
        <time>2018-01-24T12:23:52Z</time>
      </trkpt>
      <trkpt lat="42.92473" lon="0.10611">
        <ele>2363.18</ele>
        <time>2018-01-24T12:24:29Z</time>
      </trkpt>
      <trkpt lat="42.92472" lon="0.10612">
        <ele>2363.18</ele>
        <time>2018-01-24T12:24:58Z</time>
      </trkpt>
      <trkpt lat="42.92474" lon="0.10611">
        <ele>2363.18</ele>
        <time>2018-01-24T12:25:26Z</time>
      </trkpt>
      <trkpt lat="42.92471" lon="0.10611">
        <ele>2363.18</ele>
        <time>2018-01-24T12:25:56Z</time>
      </trkpt>
      <trkpt lat="42.92473" lon="0.10614">
        <ele>2363.18</ele>
        <time>2018-01-24T12:26:20Z</time>
      </trkpt>
      <trkpt lat="42.92474" lon="0.10614">
        <ele>2363.18</ele>
        <time>2018-01-24T12:26:51Z</time>
      </trkpt>
      <trkpt lat="42.92474" lon="0.10613">
        <ele>2363.18</ele>
        <time>2018-01-24T12:27:18Z</time>
      </trkpt>
      <trkpt lat="42.92472" lon="0.1061">
        <ele>2364.36</ele>
        <time>2018-01-24T12:27:37Z</time>
      </trkpt>
      <trkpt lat="42.92472" lon="0.10608">
        <ele>2364.43</ele>
        <time>2018-01-24T12:28:02Z</time>
      </trkpt>
      <trkpt lat="42.92475" lon="0.10613">
        <ele>2363.88</ele>
        <time>2018-01-24T12:28:23Z</time>
      </trkpt>
      <trkpt lat="42.92475" lon="0.10613">
        <ele>2364.22</ele>
        <time>2018-01-24T12:28:49Z</time>
      </trkpt>
      <trkpt lat="42.92475" lon="0.10608">
        <ele>2364.22</ele>
        <time>2018-01-24T12:29:15Z</time>
      </trkpt>
      <trkpt lat="42.92476" lon="0.10611">
        <ele>2364.22</ele>
        <time>2018-01-24T12:29:39Z</time>
      </trkpt>
      <trkpt lat="42.92476" lon="0.10611">
        <ele>2364.22</ele>
        <time>2018-01-24T12:30:07Z</time>
      </trkpt>
      <trkpt lat="42.92477" lon="0.1061">
        <ele>2364.22</ele>
        <time>2018-01-24T12:30:32Z</time>
      </trkpt>
      <trkpt lat="42.92477" lon="0.10614">
        <ele>2364.22</ele>
        <time>2018-01-24T12:30:52Z</time>
      </trkpt>
      <trkpt lat="42.9248" lon="0.1062">
        <ele>2364.22</ele>
        <time>2018-01-24T12:31:06Z</time>
      </trkpt>
      <trkpt lat="42.92484" lon="0.10631">
        <ele>2364.22</ele>
        <time>2018-01-24T12:31:26Z</time>
      </trkpt>
      <trkpt lat="42.92485" lon="0.10631">
        <ele>2370.27</ele>
        <time>2018-01-24T12:31:27Z</time>
      </trkpt>
      <trkpt lat="42.92485" lon="0.10632">
        <ele>2370.23</ele>
        <time>2018-01-24T12:31:28Z</time>
      </trkpt>
      <trkpt lat="42.9249" lon="0.10643">
        <ele>2373.18</ele>
        <time>2018-01-24T12:31:45Z</time>
      </trkpt>
      <trkpt lat="42.92495" lon="0.10649">
        <ele>2376.25</ele>
        <time>2018-01-24T12:32:03Z</time>
      </trkpt>
      <trkpt lat="42.92501" lon="0.10653">
        <ele>2379.33</ele>
        <time>2018-01-24T12:32:20Z</time>
      </trkpt>
      <trkpt lat="42.92503" lon="0.10655">
        <ele>2381.16</ele>
        <time>2018-01-24T12:32:33Z</time>
      </trkpt>
      <trkpt lat="42.92502" lon="0.10656">
        <ele>2381.16</ele>
        <time>2018-01-24T12:32:59Z</time>
      </trkpt>
      <trkpt lat="42.92502" lon="0.10655">
        <ele>2379.99</ele>
        <time>2018-01-24T12:33:23Z</time>
      </trkpt>
      <trkpt lat="42.92502" lon="0.10653">
        <ele>2380.56</ele>
        <time>2018-01-24T12:33:44Z</time>
      </trkpt>
      <trkpt lat="42.92502" lon="0.10652">
        <ele>2380.8</ele>
        <time>2018-01-24T12:34:06Z</time>
      </trkpt>
      <trkpt lat="42.925" lon="0.10652">
        <ele>2380.86</ele>
        <time>2018-01-24T12:34:26Z</time>
      </trkpt>
      <trkpt lat="42.92501" lon="0.10652">
        <ele>2380.81</ele>
        <time>2018-01-24T12:34:56Z</time>
      </trkpt>
      <trkpt lat="42.92503" lon="0.10654">
        <ele>2381.08</ele>
        <time>2018-01-24T12:35:23Z</time>
      </trkpt>
      <trkpt lat="42.92507" lon="0.10657">
        <ele>2383.2</ele>
        <time>2018-01-24T12:35:39Z</time>
      </trkpt>
      <trkpt lat="42.92512" lon="0.10657">
        <ele>2386.48</ele>
        <time>2018-01-24T12:35:55Z</time>
      </trkpt>
      <trkpt lat="42.92516" lon="0.10658">
        <ele>2389.53</ele>
        <time>2018-01-24T12:36:08Z</time>
      </trkpt>
      <trkpt lat="42.92518" lon="0.1066">
        <ele>2392.61</ele>
        <time>2018-01-24T12:36:22Z</time>
      </trkpt>
      <trkpt lat="42.92522" lon="0.10661">
        <ele>2394.67</ele>
        <time>2018-01-24T12:36:40Z</time>
      </trkpt>
      <trkpt lat="42.92524" lon="0.10662">
        <ele>2397.53</ele>
        <time>2018-01-24T12:36:58Z</time>
      </trkpt>
      <trkpt lat="42.92527" lon="0.10665">
        <ele>2400.51</ele>
        <time>2018-01-24T12:37:17Z</time>
      </trkpt>
      <trkpt lat="42.92529" lon="0.10671">
        <ele>2403.52</ele>
        <time>2018-01-24T12:37:31Z</time>
      </trkpt>
      <trkpt lat="42.92535" lon="0.10674">
        <ele>2405.93</ele>
        <time>2018-01-24T12:37:49Z</time>
      </trkpt>
      <trkpt lat="42.9254" lon="0.10679">
        <ele>2408.52</ele>
        <time>2018-01-24T12:38:06Z</time>
      </trkpt>
      <trkpt lat="42.92545" lon="0.10684">
        <ele>2411.61</ele>
        <time>2018-01-24T12:38:21Z</time>
      </trkpt>
      <trkpt lat="42.9255" lon="0.10689">
        <ele>2414.51</ele>
        <time>2018-01-24T12:38:38Z</time>
      </trkpt>
      <trkpt lat="42.92554" lon="0.10692">
        <ele>2416.89</ele>
        <time>2018-01-24T12:38:53Z</time>
      </trkpt>
      <trkpt lat="42.92555" lon="0.10698">
        <ele>2419.22</ele>
        <time>2018-01-24T12:39:07Z</time>
      </trkpt>
      <trkpt lat="42.92559" lon="0.10708">
        <ele>2420.71</ele>
        <time>2018-01-24T12:39:23Z</time>
      </trkpt>
      <trkpt lat="42.92564" lon="0.10714">
        <ele>2423.61</ele>
        <time>2018-01-24T12:39:38Z</time>
      </trkpt>
      <trkpt lat="42.92562" lon="0.1072">
        <ele>2426.1</ele>
        <time>2018-01-24T12:39:55Z</time>
      </trkpt>
      <trkpt lat="42.92557" lon="0.10735">
        <ele>2428.34</ele>
        <time>2018-01-24T12:40:11Z</time>
      </trkpt>
      <trkpt lat="42.92558" lon="0.10736">
        <ele>2428.9</ele>
        <time>2018-01-24T12:40:15Z</time>
      </trkpt>
      <trkpt lat="42.92566" lon="0.10736">
        <ele>2431.58</ele>
        <time>2018-01-24T12:40:31Z</time>
      </trkpt>
      <trkpt lat="42.92574" lon="0.10735">
        <ele>2434.6</ele>
        <time>2018-01-24T12:40:48Z</time>
      </trkpt>
      <trkpt lat="42.92573" lon="0.10743">
        <ele>2437.3</ele>
        <time>2018-01-24T12:41:04Z</time>
      </trkpt>
      <trkpt lat="42.92575" lon="0.10746">
        <ele>2439.79</ele>
        <time>2018-01-24T12:41:18Z</time>
      </trkpt>
      <trkpt lat="42.92575" lon="0.1075">
        <ele>2442.16</ele>
        <time>2018-01-24T12:41:32Z</time>
      </trkpt>
      <trkpt lat="42.92576" lon="0.10759">
        <ele>2444.61</ele>
        <time>2018-01-24T12:41:49Z</time>
      </trkpt>
      <trkpt lat="42.92577" lon="0.10765">
        <ele>2447.14</ele>
        <time>2018-01-24T12:42:03Z</time>
      </trkpt>
      <trkpt lat="42.92584" lon="0.10768">
        <ele>2450.16</ele>
        <time>2018-01-24T12:42:17Z</time>
      </trkpt>
      <trkpt lat="42.92586" lon="0.10772">
        <ele>2453.31</ele>
        <time>2018-01-24T12:42:31Z</time>
      </trkpt>
      <trkpt lat="42.92588" lon="0.10778">
        <ele>2455.71</ele>
        <time>2018-01-24T12:42:47Z</time>
      </trkpt>
      <trkpt lat="42.9259" lon="0.10786">
        <ele>2458.36</ele>
        <time>2018-01-24T12:43:05Z</time>
      </trkpt>
      <trkpt lat="42.92592" lon="0.10791">
        <ele>2461.55</ele>
        <time>2018-01-24T12:43:22Z</time>
      </trkpt>
      <trkpt lat="42.92594" lon="0.10795">
        <ele>2463.43</ele>
        <time>2018-01-24T12:43:37Z</time>
      </trkpt>
      <trkpt lat="42.92597" lon="0.108">
        <ele>2465.83</ele>
        <time>2018-01-24T12:43:54Z</time>
      </trkpt>
      <trkpt lat="42.92601" lon="0.10803">
        <ele>2468.83</ele>
        <time>2018-01-24T12:44:07Z</time>
      </trkpt>
      <trkpt lat="42.92604" lon="0.10805">
        <ele>2471.65</ele>
        <time>2018-01-24T12:44:27Z</time>
      </trkpt>
      <trkpt lat="42.92611" lon="0.10806">
        <ele>2474.33</ele>
        <time>2018-01-24T12:44:42Z</time>
      </trkpt>
      <trkpt lat="42.92615" lon="0.10807">
        <ele>2477.37</ele>
        <time>2018-01-24T12:44:54Z</time>
      </trkpt>
      <trkpt lat="42.9262" lon="0.10812">
        <ele>2479.93</ele>
        <time>2018-01-24T12:45:11Z</time>
      </trkpt>
      <trkpt lat="42.92624" lon="0.10816">
        <ele>2483.06</ele>
        <time>2018-01-24T12:45:28Z</time>
      </trkpt>
      <trkpt lat="42.92626" lon="0.10827">
        <ele>2486.15</ele>
        <time>2018-01-24T12:45:48Z</time>
      </trkpt>
      <trkpt lat="42.92628" lon="0.10833">
        <ele>2489.1</ele>
        <time>2018-01-24T12:46:02Z</time>
      </trkpt>
      <trkpt lat="42.92632" lon="0.1084">
        <ele>2490.51</ele>
        <time>2018-01-24T12:46:19Z</time>
      </trkpt>
      <trkpt lat="42.92634" lon="0.10846">
        <ele>2492.32</ele>
        <time>2018-01-24T12:46:30Z</time>
      </trkpt>
      <trkpt lat="42.92638" lon="0.10855">
        <ele>2494.18</ele>
        <time>2018-01-24T12:46:48Z</time>
      </trkpt>
      <trkpt lat="42.92646" lon="0.10866">
        <ele>2496.33</ele>
        <time>2018-01-24T12:47:03Z</time>
      </trkpt>
      <trkpt lat="42.92655" lon="0.10871">
        <ele>2499.39</ele>
        <time>2018-01-24T12:47:20Z</time>
      </trkpt>
      <trkpt lat="42.92663" lon="0.10872">
        <ele>2502.43</ele>
        <time>2018-01-24T12:47:34Z</time>
      </trkpt>
      <trkpt lat="42.92667" lon="0.10873">
        <ele>2504.85</ele>
        <time>2018-01-24T12:47:48Z</time>
      </trkpt>
      <trkpt lat="42.92668" lon="0.10872">
        <ele>2505.02</ele>
        <time>2018-01-24T12:48:14Z</time>
      </trkpt>
      <trkpt lat="42.92667" lon="0.10874">
        <ele>2504.8</ele>
        <time>2018-01-24T12:48:41Z</time>
      </trkpt>
      <trkpt lat="42.92666" lon="0.10875">
        <ele>2504.95</ele>
        <time>2018-01-24T12:49:05Z</time>
      </trkpt>
      <trkpt lat="42.92666" lon="0.10871">
        <ele>2504.95</ele>
        <time>2018-01-24T12:49:32Z</time>
      </trkpt>
      <trkpt lat="42.92666" lon="0.1087">
        <ele>2504.95</ele>
        <time>2018-01-24T12:50:02Z</time>
      </trkpt>
      <trkpt lat="42.92666" lon="0.10871">
        <ele>2504.95</ele>
        <time>2018-01-24T12:50:31Z</time>
      </trkpt>
      <trkpt lat="42.92666" lon="0.10871">
        <ele>2504.95</ele>
        <time>2018-01-24T12:51:12Z</time>
      </trkpt>
      <trkpt lat="42.92666" lon="0.10871">
        <ele>2504.95</ele>
        <time>2018-01-24T12:51:40Z</time>
      </trkpt>
      <trkpt lat="42.92666" lon="0.10872">
        <ele>2504.95</ele>
        <time>2018-01-24T12:52:04Z</time>
      </trkpt>
      <trkpt lat="42.92666" lon="0.10871">
        <ele>2504.95</ele>
        <time>2018-01-24T12:52:39Z</time>
      </trkpt>
      <trkpt lat="42.92665" lon="0.10871">
        <ele>2504.95</ele>
        <time>2018-01-24T12:53:02Z</time>
      </trkpt>
      <trkpt lat="42.92666" lon="0.10871">
        <ele>2504.95</ele>
        <time>2018-01-24T12:53:23Z</time>
      </trkpt>
      <trkpt lat="42.92666" lon="0.10871">
        <ele>2504.95</ele>
        <time>2018-01-24T12:53:46Z</time>
      </trkpt>
      <trkpt lat="42.92666" lon="0.10871">
        <ele>2504.95</ele>
        <time>2018-01-24T12:54:10Z</time>
      </trkpt>
      <trkpt lat="42.92666" lon="0.10871">
        <ele>2504.95</ele>
        <time>2018-01-24T12:54:30Z</time>
      </trkpt>
      <trkpt lat="42.92666" lon="0.10871">
        <ele>2504.95</ele>
        <time>2018-01-24T12:54:53Z</time>
      </trkpt>
      <trkpt lat="42.92666" lon="0.10871">
        <ele>2504.95</ele>
        <time>2018-01-24T12:55:19Z</time>
      </trkpt>
      <trkpt lat="42.92667" lon="0.10871">
        <ele>2504.95</ele>
        <time>2018-01-24T12:55:44Z</time>
      </trkpt>
      <trkpt lat="42.92666" lon="0.10871">
        <ele>2504.95</ele>
        <time>2018-01-24T12:56:13Z</time>
      </trkpt>
      <trkpt lat="42.92666" lon="0.10871">
        <ele>2504.95</ele>
        <time>2018-01-24T12:56:41Z</time>
      </trkpt>
      <trkpt lat="42.92665" lon="0.1087">
        <ele>2504.95</ele>
        <time>2018-01-24T12:57:14Z</time>
      </trkpt>
      <trkpt lat="42.92665" lon="0.10872">
        <ele>2504.95</ele>
        <time>2018-01-24T12:57:41Z</time>
      </trkpt>
      <trkpt lat="42.92665" lon="0.10872">
        <ele>2504.95</ele>
        <time>2018-01-24T12:58:09Z</time>
      </trkpt>
      <trkpt lat="42.92665" lon="0.10872">
        <ele>2504.95</ele>
        <time>2018-01-24T12:58:36Z</time>
      </trkpt>
      <trkpt lat="42.92667" lon="0.10871">
        <ele>2504.95</ele>
        <time>2018-01-24T12:59:02Z</time>
      </trkpt>
      <trkpt lat="42.92666" lon="0.1087">
        <ele>2504.95</ele>
        <time>2018-01-24T12:59:27Z</time>
      </trkpt>
      <trkpt lat="42.92666" lon="0.10872">
        <ele>2504.95</ele>
        <time>2018-01-24T12:59:50Z</time>
      </trkpt>
      <trkpt lat="42.92667" lon="0.10871">
        <ele>2504.95</ele>
        <time>2018-01-24T13:00:19Z</time>
      </trkpt>
      <trkpt lat="42.92663" lon="0.10866">
        <ele>2504.95</ele>
        <time>2018-01-24T13:00:40Z</time>
      </trkpt>
      <trkpt lat="42.92664" lon="0.1087">
        <ele>2504.95</ele>
        <time>2018-01-24T13:01:02Z</time>
      </trkpt>
      <trkpt lat="42.92664" lon="0.1087">
        <ele>2504.95</ele>
        <time>2018-01-24T13:01:18Z</time>
      </trkpt>
      <trkpt lat="42.92665" lon="0.10869">
        <ele>2504.95</ele>
        <time>2018-01-24T13:01:49Z</time>
      </trkpt>
      <trkpt lat="42.92666" lon="0.1087">
        <ele>2504.95</ele>
        <time>2018-01-24T13:02:18Z</time>
      </trkpt>
      <trkpt lat="42.92666" lon="0.10871">
        <ele>2504.95</ele>
        <time>2018-01-24T13:02:48Z</time>
      </trkpt>
      <trkpt lat="42.92668" lon="0.1087">
        <ele>2504.95</ele>
        <time>2018-01-24T13:03:03Z</time>
      </trkpt>
      <trkpt lat="42.92667" lon="0.1087">
        <ele>2504.95</ele>
        <time>2018-01-24T13:03:29Z</time>
      </trkpt>
      <trkpt lat="42.92665" lon="0.10868">
        <ele>2504.95</ele>
        <time>2018-01-24T13:03:53Z</time>
      </trkpt>
      <trkpt lat="42.92658" lon="0.10868">
        <ele>2504.95</ele>
        <time>2018-01-24T13:04:06Z</time>
      </trkpt>
      <trkpt lat="42.92653" lon="0.10863">
        <ele>2504.95</ele>
        <time>2018-01-24T13:04:14Z</time>
      </trkpt>
      <trkpt lat="42.92648" lon="0.10857">
        <ele>2501.81</ele>
        <time>2018-01-24T13:04:24Z</time>
      </trkpt>
      <trkpt lat="42.92646" lon="0.10854">
        <ele>2500.97</ele>
        <time>2018-01-24T13:04:28Z</time>
      </trkpt>
      <trkpt lat="42.92644" lon="0.10853">
        <ele>2497.85</ele>
        <time>2018-01-24T13:04:43Z</time>
      </trkpt>
      <trkpt lat="42.9264" lon="0.10848">
        <ele>2498.13</ele>
        <time>2018-01-24T13:05:04Z</time>
      </trkpt>
      <trkpt lat="42.92634" lon="0.10843">
        <ele>2496.55</ele>
        <time>2018-01-24T13:05:17Z</time>
      </trkpt>
      <trkpt lat="42.92628" lon="0.10833">
        <ele>2493.45</ele>
        <time>2018-01-24T13:05:33Z</time>
      </trkpt>
      <trkpt lat="42.92624" lon="0.10826">
        <ele>2490.56</ele>
        <time>2018-01-24T13:05:48Z</time>
      </trkpt>
      <trkpt lat="42.9262" lon="0.10824">
        <ele>2489.49</ele>
        <time>2018-01-24T13:06:02Z</time>
      </trkpt>
      <trkpt lat="42.92615" lon="0.10821">
        <ele>2486.89</ele>
        <time>2018-01-24T13:06:17Z</time>
      </trkpt>
      <trkpt lat="42.92613" lon="0.10815">
        <ele>2483.96</ele>
        <time>2018-01-24T13:06:32Z</time>
      </trkpt>
      <trkpt lat="42.9261" lon="0.10813">
        <ele>2481.07</ele>
        <time>2018-01-24T13:06:47Z</time>
      </trkpt>
      <trkpt lat="42.92605" lon="0.10815">
        <ele>2478.55</ele>
        <time>2018-01-24T13:07:02Z</time>
      </trkpt>
      <trkpt lat="42.92604" lon="0.10816">
        <ele>2477</ele>
        <time>2018-01-24T13:07:16Z</time>
      </trkpt>
      <trkpt lat="42.92601" lon="0.10809">
        <ele>2475.45</ele>
        <time>2018-01-24T13:07:30Z</time>
      </trkpt>
      <trkpt lat="42.92597" lon="0.10802">
        <ele>2472.25</ele>
        <time>2018-01-24T13:07:44Z</time>
      </trkpt>
      <trkpt lat="42.92591" lon="0.10797">
        <ele>2469.14</ele>
        <time>2018-01-24T13:07:54Z</time>
      </trkpt>
      <trkpt lat="42.92588" lon="0.10794">
        <ele>2466.04</ele>
        <time>2018-01-24T13:08:07Z</time>
      </trkpt>
      <trkpt lat="42.92588" lon="0.10785">
        <ele>2463.5</ele>
        <time>2018-01-24T13:08:21Z</time>
      </trkpt>
      <trkpt lat="42.92586" lon="0.1078">
        <ele>2461.61</ele>
        <time>2018-01-24T13:08:36Z</time>
      </trkpt>
      <trkpt lat="42.92583" lon="0.10773">
        <ele>2458.32</ele>
        <time>2018-01-24T13:08:50Z</time>
      </trkpt>
      <trkpt lat="42.92579" lon="0.10767">
        <ele>2455.11</ele>
        <time>2018-01-24T13:09:01Z</time>
      </trkpt>
      <trkpt lat="42.92575" lon="0.1076">
        <ele>2451.88</ele>
        <time>2018-01-24T13:09:11Z</time>
      </trkpt>
      <trkpt lat="42.92571" lon="0.10755">
        <ele>2448.85</ele>
        <time>2018-01-24T13:09:21Z</time>
      </trkpt>
      <trkpt lat="42.92568" lon="0.10747">
        <ele>2445.68</ele>
        <time>2018-01-24T13:09:33Z</time>
      </trkpt>
      <trkpt lat="42.92568" lon="0.10741">
        <ele>2442.68</ele>
        <time>2018-01-24T13:09:44Z</time>
      </trkpt>
      <trkpt lat="42.92567" lon="0.10732">
        <ele>2439.52</ele>
        <time>2018-01-24T13:09:56Z</time>
      </trkpt>
      <trkpt lat="42.92564" lon="0.10728">
        <ele>2436.46</ele>
        <time>2018-01-24T13:10:07Z</time>
      </trkpt>
      <trkpt lat="42.92564" lon="0.10722">
        <ele>2435.17</ele>
        <time>2018-01-24T13:10:13Z</time>
      </trkpt>
      <trkpt lat="42.92562" lon="0.10713">
        <ele>2431.92</ele>
        <time>2018-01-24T13:10:25Z</time>
      </trkpt>
      <trkpt lat="42.92562" lon="0.10712">
        <ele>2431.04</ele>
        <time>2018-01-24T13:10:46Z</time>
      </trkpt>
      <trkpt lat="42.92561" lon="0.10712">
        <ele>2431.15</ele>
        <time>2018-01-24T13:11:12Z</time>
      </trkpt>
      <trkpt lat="42.92561" lon="0.10706">
        <ele>2430.64</ele>
        <time>2018-01-24T13:11:18Z</time>
      </trkpt>
      <trkpt lat="42.92556" lon="0.107">
        <ele>2427.2</ele>
        <time>2018-01-24T13:11:30Z</time>
      </trkpt>
      <trkpt lat="42.92554" lon="0.10691">
        <ele>2424.69</ele>
        <time>2018-01-24T13:11:41Z</time>
      </trkpt>
      <trkpt lat="42.92548" lon="0.10683">
        <ele>2423.78</ele>
        <time>2018-01-24T13:11:56Z</time>
      </trkpt>
      <trkpt lat="42.92543" lon="0.10684">
        <ele>2420.7</ele>
        <time>2018-01-24T13:12:09Z</time>
      </trkpt>
      <trkpt lat="42.92543" lon="0.10683">
        <ele>2420.13</ele>
        <time>2018-01-24T13:12:11Z</time>
      </trkpt>
      <trkpt lat="42.92539" lon="0.10678">
        <ele>2417.52</ele>
        <time>2018-01-24T13:12:25Z</time>
      </trkpt>
      <trkpt lat="42.92538" lon="0.10675">
        <ele>2415.24</ele>
        <time>2018-01-24T13:12:33Z</time>
      </trkpt>
      <trkpt lat="42.92535" lon="0.10668">
        <ele>2412.12</ele>
        <time>2018-01-24T13:12:47Z</time>
      </trkpt>
      <trkpt lat="42.92532" lon="0.10664">
        <ele>2411.23</ele>
        <time>2018-01-24T13:13:02Z</time>
      </trkpt>
      <trkpt lat="42.9253" lon="0.10661">
        <ele>2408.57</ele>
        <time>2018-01-24T13:13:19Z</time>
      </trkpt>
      <trkpt lat="42.9253" lon="0.10655">
        <ele>2407</ele>
        <time>2018-01-24T13:13:36Z</time>
      </trkpt>
      <trkpt lat="42.92529" lon="0.10648">
        <ele>2403.94</ele>
        <time>2018-01-24T13:13:51Z</time>
      </trkpt>
      <trkpt lat="42.92525" lon="0.10648">
        <ele>2402.37</ele>
        <time>2018-01-24T13:14:06Z</time>
      </trkpt>
      <trkpt lat="42.92519" lon="0.10654">
        <ele>2399.97</ele>
        <time>2018-01-24T13:14:23Z</time>
      </trkpt>
      <trkpt lat="42.92517" lon="0.10657">
        <ele>2397.79</ele>
        <time>2018-01-24T13:14:43Z</time>
      </trkpt>
      <trkpt lat="42.92516" lon="0.10658">
        <ele>2395.62</ele>
        <time>2018-01-24T13:15:01Z</time>
      </trkpt>
      <trkpt lat="42.9251" lon="0.10663">
        <ele>2393.54</ele>
        <time>2018-01-24T13:15:17Z</time>
      </trkpt>
      <trkpt lat="42.92509" lon="0.10661">
        <ele>2392.62</ele>
        <time>2018-01-24T13:15:30Z</time>
      </trkpt>
      <trkpt lat="42.92505" lon="0.10652">
        <ele>2389.45</ele>
        <time>2018-01-24T13:15:42Z</time>
      </trkpt>
      <trkpt lat="42.92503" lon="0.10654">
        <ele>2386.38</ele>
        <time>2018-01-24T13:15:54Z</time>
      </trkpt>
      <trkpt lat="42.92504" lon="0.10652">
        <ele>2386.49</ele>
        <time>2018-01-24T13:16:14Z</time>
      </trkpt>
      <trkpt lat="42.92497" lon="0.10647">
        <ele>2385.69</ele>
        <time>2018-01-24T13:16:31Z</time>
      </trkpt>
      <trkpt lat="42.92492" lon="0.10644">
        <ele>2384.27</ele>
        <time>2018-01-24T13:16:37Z</time>
      </trkpt>
      <trkpt lat="42.92488" lon="0.10633">
        <ele>2380.54</ele>
        <time>2018-01-24T13:16:49Z</time>
      </trkpt>
      <trkpt lat="42.92484" lon="0.10624">
        <ele>2377.31</ele>
        <time>2018-01-24T13:16:57Z</time>
      </trkpt>
      <trkpt lat="42.92481" lon="0.10618">
        <ele>2375.09</ele>
        <time>2018-01-24T13:17:03Z</time>
      </trkpt>
      <trkpt lat="42.92475" lon="0.10606">
        <ele>2372.31</ele>
        <time>2018-01-24T13:17:12Z</time>
      </trkpt>
      <trkpt lat="42.9247" lon="0.10595">
        <ele>2373.87</ele>
        <time>2018-01-24T13:17:27Z</time>
      </trkpt>
      <trkpt lat="42.9247" lon="0.10594">
        <ele>2372.78</ele>
        <time>2018-01-24T13:17:48Z</time>
      </trkpt>
      <trkpt lat="42.92468" lon="0.10596">
        <ele>2372.43</ele>
        <time>2018-01-24T13:18:08Z</time>
      </trkpt>
      <trkpt lat="42.92467" lon="0.10596">
        <ele>2371.89</ele>
        <time>2018-01-24T13:18:35Z</time>
      </trkpt>
      <trkpt lat="42.92468" lon="0.10595">
        <ele>2372.1</ele>
        <time>2018-01-24T13:18:55Z</time>
      </trkpt>
      <trkpt lat="42.92469" lon="0.10593">
        <ele>2372.13</ele>
        <time>2018-01-24T13:19:20Z</time>
      </trkpt>
      <trkpt lat="42.92469" lon="0.10594">
        <ele>2372.29</ele>
        <time>2018-01-24T13:19:55Z</time>
      </trkpt>
      <trkpt lat="42.9247" lon="0.10594">
        <ele>2372.29</ele>
        <time>2018-01-24T13:20:16Z</time>
      </trkpt>
      <trkpt lat="42.92472" lon="0.10597">
        <ele>2372.29</ele>
        <time>2018-01-24T13:20:53Z</time>
      </trkpt>
      <trkpt lat="42.92474" lon="0.10599">
        <ele>2372.29</ele>
        <time>2018-01-24T13:21:27Z</time>
      </trkpt>
      <trkpt lat="42.92475" lon="0.10598">
        <ele>2372.29</ele>
        <time>2018-01-24T13:22:01Z</time>
      </trkpt>
      <trkpt lat="42.92476" lon="0.10595">
        <ele>2372.29</ele>
        <time>2018-01-24T13:22:47Z</time>
      </trkpt>
      <trkpt lat="42.92475" lon="0.10598">
        <ele>2372.29</ele>
        <time>2018-01-24T13:23:15Z</time>
      </trkpt>
      <trkpt lat="42.92472" lon="0.10596">
        <ele>2372.29</ele>
        <time>2018-01-24T13:23:42Z</time>
      </trkpt>
      <trkpt lat="42.9247" lon="0.10594">
        <ele>2372.29</ele>
        <time>2018-01-24T13:24:08Z</time>
      </trkpt>
      <trkpt lat="42.92469" lon="0.10595">
        <ele>2372.29</ele>
        <time>2018-01-24T13:24:31Z</time>
      </trkpt>
      <trkpt lat="42.9247" lon="0.10593">
        <ele>2372.29</ele>
        <time>2018-01-24T13:24:53Z</time>
      </trkpt>
      <trkpt lat="42.92472" lon="0.10594">
        <ele>2372.29</ele>
        <time>2018-01-24T13:25:21Z</time>
      </trkpt>
      <trkpt lat="42.92471" lon="0.10593">
        <ele>2372.29</ele>
        <time>2018-01-24T13:25:43Z</time>
      </trkpt>
      <trkpt lat="42.92468" lon="0.10591">
        <ele>2372.29</ele>
        <time>2018-01-24T13:26:09Z</time>
      </trkpt>
      <trkpt lat="42.92467" lon="0.1059">
        <ele>2372.29</ele>
        <time>2018-01-24T13:26:25Z</time>
      </trkpt>
      <trkpt lat="42.92467" lon="0.1059">
        <ele>2372.29</ele>
        <time>2018-01-24T13:26:52Z</time>
      </trkpt>
      <trkpt lat="42.92469" lon="0.10593">
        <ele>2372.29</ele>
        <time>2018-01-24T13:27:26Z</time>
      </trkpt>
      <trkpt lat="42.9247" lon="0.10592">
        <ele>2372.29</ele>
        <time>2018-01-24T13:27:53Z</time>
      </trkpt>
      <trkpt lat="42.92469" lon="0.10591">
        <ele>2372.29</ele>
        <time>2018-01-24T13:28:08Z</time>
      </trkpt>
      <trkpt lat="42.9246" lon="0.10606">
        <ele>2368.59</ele>
        <time>2018-01-24T13:28:16Z</time>
      </trkpt>
      <trkpt lat="42.92455" lon="0.10612">
        <ele>2364.52</ele>
        <time>2018-01-24T13:28:18Z</time>
      </trkpt>
      <trkpt lat="42.92452" lon="0.10621">
        <ele>2359.58</ele>
        <time>2018-01-24T13:28:20Z</time>
      </trkpt>
      <trkpt lat="42.92443" lon="0.10625">
        <ele>2355.1</ele>
        <time>2018-01-24T13:28:22Z</time>
      </trkpt>
      <trkpt lat="42.92436" lon="0.10634">
        <ele>2350.7</ele>
        <time>2018-01-24T13:28:24Z</time>
      </trkpt>
      <trkpt lat="42.92427" lon="0.10631">
        <ele>2345.17</ele>
        <time>2018-01-24T13:28:26Z</time>
      </trkpt>
      <trkpt lat="42.92423" lon="0.10638">
        <ele>2340.94</ele>
        <time>2018-01-24T13:28:28Z</time>
      </trkpt>
      <trkpt lat="42.92417" lon="0.10643">
        <ele>2337.31</ele>
        <time>2018-01-24T13:28:30Z</time>
      </trkpt>
      <trkpt lat="42.92409" lon="0.10638">
        <ele>2333.65</ele>
        <time>2018-01-24T13:28:32Z</time>
      </trkpt>
      <trkpt lat="42.92406" lon="0.1065">
        <ele>2329.66</ele>
        <time>2018-01-24T13:28:35Z</time>
      </trkpt>
      <trkpt lat="42.92398" lon="0.10651">
        <ele>2325.27</ele>
        <time>2018-01-24T13:28:37Z</time>
      </trkpt>
      <trkpt lat="42.92391" lon="0.1065">
        <ele>2320.63</ele>
        <time>2018-01-24T13:28:39Z</time>
      </trkpt>
      <trkpt lat="42.92386" lon="0.1066">
        <ele>2316.84</ele>
        <time>2018-01-24T13:28:41Z</time>
      </trkpt>
      <trkpt lat="42.92378" lon="0.10658">
        <ele>2312.27</ele>
        <time>2018-01-24T13:28:43Z</time>
      </trkpt>
      <trkpt lat="42.92371" lon="0.10663">
        <ele>2304.5</ele>
        <time>2018-01-24T13:28:45Z</time>
      </trkpt>
      <trkpt lat="42.92371" lon="0.1067">
        <ele>2302.4</ele>
        <time>2018-01-24T13:28:46Z</time>
      </trkpt>
      <trkpt lat="42.92373" lon="0.10699">
        <ele>2296.37</ele>
        <time>2018-01-24T13:28:49Z</time>
      </trkpt>
      <trkpt lat="42.92373" lon="0.10716">
        <ele>2292.51</ele>
        <time>2018-01-24T13:28:51Z</time>
      </trkpt>
      <trkpt lat="42.92371" lon="0.10735">
        <ele>2290.03</ele>
        <time>2018-01-24T13:28:58Z</time>
      </trkpt>
      <trkpt lat="42.9237" lon="0.10735">
        <ele>2289.93</ele>
        <time>2018-01-24T13:29:00Z</time>
      </trkpt>
      <trkpt lat="42.92355" lon="0.10732">
        <ele>2287.09</ele>
        <time>2018-01-24T13:29:06Z</time>
      </trkpt>
      <trkpt lat="42.92351" lon="0.10732">
        <ele>2285.51</ele>
        <time>2018-01-24T13:29:07Z</time>
      </trkpt>
      <trkpt lat="42.92338" lon="0.10735">
        <ele>2277.21</ele>
        <time>2018-01-24T13:29:11Z</time>
      </trkpt>
      <trkpt lat="42.92332" lon="0.10738">
        <ele>2271.81</ele>
        <time>2018-01-24T13:29:13Z</time>
      </trkpt>
      <trkpt lat="42.92324" lon="0.10732">
        <ele>2267.28</ele>
        <time>2018-01-24T13:29:15Z</time>
      </trkpt>
      <trkpt lat="42.92318" lon="0.1074">
        <ele>2263.8</ele>
        <time>2018-01-24T13:29:17Z</time>
      </trkpt>
      <trkpt lat="42.9231" lon="0.10739">
        <ele>2256.56</ele>
        <time>2018-01-24T13:29:19Z</time>
      </trkpt>
      <trkpt lat="42.92302" lon="0.10737">
        <ele>2251.78</ele>
        <time>2018-01-24T13:29:21Z</time>
      </trkpt>
      <trkpt lat="42.92285" lon="0.10745">
        <ele>2241.1</ele>
        <time>2018-01-24T13:29:25Z</time>
      </trkpt>
      <trkpt lat="42.9228" lon="0.10746">
        <ele>2238.7</ele>
        <time>2018-01-24T13:29:26Z</time>
      </trkpt>
      <trkpt lat="42.92271" lon="0.10752">
        <ele>2229.21</ele>
        <time>2018-01-24T13:29:30Z</time>
      </trkpt>
      <trkpt lat="42.92271" lon="0.10754">
        <ele>2225.83</ele>
        <time>2018-01-24T13:29:32Z</time>
      </trkpt>
      <trkpt lat="42.92271" lon="0.10754">
        <ele>2224.38</ele>
        <time>2018-01-24T13:29:35Z</time>
      </trkpt>
      <trkpt lat="42.92271" lon="0.10756">
        <ele>2224.2</ele>
        <time>2018-01-24T13:29:40Z</time>
      </trkpt>
      <trkpt lat="42.92255" lon="0.10765">
        <ele>2222.81</ele>
        <time>2018-01-24T13:29:46Z</time>
      </trkpt>
      <trkpt lat="42.9224" lon="0.10765">
        <ele>2218.07</ele>
        <time>2018-01-24T13:29:49Z</time>
      </trkpt>
      <trkpt lat="42.92233" lon="0.10773">
        <ele>2214.34</ele>
        <time>2018-01-24T13:29:51Z</time>
      </trkpt>
      <trkpt lat="42.92224" lon="0.10772">
        <ele>2210.77</ele>
        <time>2018-01-24T13:29:53Z</time>
      </trkpt>
      <trkpt lat="42.92218" lon="0.10771">
        <ele>2206.82</ele>
        <time>2018-01-24T13:29:54Z</time>
      </trkpt>
      <trkpt lat="42.9221" lon="0.10779">
        <ele>2202.62</ele>
        <time>2018-01-24T13:29:56Z</time>
      </trkpt>
      <trkpt lat="42.92202" lon="0.10778">
        <ele>2198.21</ele>
        <time>2018-01-24T13:29:58Z</time>
      </trkpt>
      <trkpt lat="42.92201" lon="0.10773">
        <ele>2194.98</ele>
        <time>2018-01-24T13:30:00Z</time>
      </trkpt>
      <trkpt lat="42.92202" lon="0.10774">
        <ele>2192.15</ele>
        <time>2018-01-24T13:30:24Z</time>
      </trkpt>
      <trkpt lat="42.92202" lon="0.10773">
        <ele>2192.15</ele>
        <time>2018-01-24T13:30:47Z</time>
      </trkpt>
      <trkpt lat="42.92179" lon="0.10764">
        <ele>2190.74</ele>
        <time>2018-01-24T13:30:53Z</time>
      </trkpt>
      <trkpt lat="42.92162" lon="0.10749">
        <ele>2185.79</ele>
        <time>2018-01-24T13:30:56Z</time>
      </trkpt>
      <trkpt lat="42.92155" lon="0.10729">
        <ele>2181.28</ele>
        <time>2018-01-24T13:30:58Z</time>
      </trkpt>
      <trkpt lat="42.92149" lon="0.10712">
        <ele>2176.8</ele>
        <time>2018-01-24T13:31:00Z</time>
      </trkpt>
      <trkpt lat="42.92105" lon="0.1068">
        <ele>2168.61</ele>
        <time>2018-01-24T13:31:07Z</time>
      </trkpt>
      <trkpt lat="42.92096" lon="0.10678">
        <ele>2166.24</ele>
        <time>2018-01-24T13:31:08Z</time>
      </trkpt>
      <trkpt lat="42.92058" lon="0.10673">
        <ele>2166.42</ele>
        <time>2018-01-24T13:31:17Z</time>
      </trkpt>
      <trkpt lat="42.92058" lon="0.10676">
        <ele>2166.93</ele>
        <time>2018-01-24T13:31:32Z</time>
      </trkpt>
      <trkpt lat="42.92056" lon="0.10679">
        <ele>2166.75</ele>
        <time>2018-01-24T13:32:10Z</time>
      </trkpt>
      <trkpt lat="42.92056" lon="0.10679">
        <ele>2166.82</ele>
        <time>2018-01-24T13:32:16Z</time>
      </trkpt>
      <trkpt lat="42.92057" lon="0.1068">
        <ele>2166.71</ele>
        <time>2018-01-24T13:32:23Z</time>
      </trkpt>
      <trkpt lat="42.92057" lon="0.10681">
        <ele>2166.55</ele>
        <time>2018-01-24T13:32:48Z</time>
      </trkpt>
      <trkpt lat="42.92057" lon="0.10682">
        <ele>2166.55</ele>
        <time>2018-01-24T13:33:04Z</time>
      </trkpt>
      <trkpt lat="42.9206" lon="0.1068">
        <ele>2166.55</ele>
        <time>2018-01-24T13:33:37Z</time>
      </trkpt>
      <trkpt lat="42.92059" lon="0.1068">
        <ele>2166.55</ele>
        <time>2018-01-24T13:34:05Z</time>
      </trkpt>
      <trkpt lat="42.92057" lon="0.10684">
        <ele>2166.55</ele>
        <time>2018-01-24T13:34:31Z</time>
      </trkpt>
      <trkpt lat="42.92056" lon="0.10684">
        <ele>2166.55</ele>
        <time>2018-01-24T13:34:59Z</time>
      </trkpt>
      <trkpt lat="42.92056" lon="0.10684">
        <ele>2166.55</ele>
        <time>2018-01-24T13:35:22Z</time>
      </trkpt>
      <trkpt lat="42.92056" lon="0.10685">
        <ele>2166.59</ele>
        <time>2018-01-24T13:35:29Z</time>
      </trkpt>
      <trkpt lat="42.92056" lon="0.10685">
        <ele>2166.73</ele>
        <time>2018-01-24T13:36:05Z</time>
      </trkpt>
      <trkpt lat="42.92055" lon="0.10685">
        <ele>2166.1</ele>
        <time>2018-01-24T13:36:32Z</time>
      </trkpt>
      <trkpt lat="42.92055" lon="0.10686">
        <ele>2165.92</ele>
        <time>2018-01-24T13:37:07Z</time>
      </trkpt>
      <trkpt lat="42.92055" lon="0.10686">
        <ele>2166.03</ele>
        <time>2018-01-24T13:38:01Z</time>
      </trkpt>
      <trkpt lat="42.92056" lon="0.10688">
        <ele>2166.03</ele>
        <time>2018-01-24T13:38:34Z</time>
      </trkpt>
      <trkpt lat="42.92055" lon="0.10688">
        <ele>2166.03</ele>
        <time>2018-01-24T13:39:06Z</time>
      </trkpt>
      <trkpt lat="42.92055" lon="0.10686">
        <ele>2166.03</ele>
        <time>2018-01-24T13:39:38Z</time>
      </trkpt>
      <trkpt lat="42.92054" lon="0.10685">
        <ele>2166.03</ele>
        <time>2018-01-24T13:40:41Z</time>
      </trkpt>
      <trkpt lat="42.92054" lon="0.10686">
        <ele>2166.03</ele>
        <time>2018-01-24T13:41:37Z</time>
      </trkpt>
      <trkpt lat="42.92055" lon="0.10688">
        <ele>2166.03</ele>
        <time>2018-01-24T13:42:37Z</time>
      </trkpt>
      <trkpt lat="42.92055" lon="0.10689">
        <ele>2166.03</ele>
        <time>2018-01-24T13:43:31Z</time>
      </trkpt>
      <trkpt lat="42.92055" lon="0.10689">
        <ele>2166.03</ele>
        <time>2018-01-24T13:44:24Z</time>
      </trkpt>
      <trkpt lat="42.92056" lon="0.10687">
        <ele>2166.03</ele>
        <time>2018-01-24T13:45:14Z</time>
      </trkpt>
      <trkpt lat="42.92057" lon="0.10682">
        <ele>2166.03</ele>
        <time>2018-01-24T13:45:46Z</time>
      </trkpt>
      <trkpt lat="42.92059" lon="0.1068">
        <ele>2166.03</ele>
        <time>2018-01-24T13:46:32Z</time>
      </trkpt>
      <trkpt lat="42.92058" lon="0.10681">
        <ele>2166.03</ele>
        <time>2018-01-24T13:47:05Z</time>
      </trkpt>
      <trkpt lat="42.92059" lon="0.1068">
        <ele>2166.03</ele>
        <time>2018-01-24T13:47:44Z</time>
      </trkpt>
      <trkpt lat="42.9206" lon="0.10679">
        <ele>2166.03</ele>
        <time>2018-01-24T13:48:23Z</time>
      </trkpt>
      <trkpt lat="42.9206" lon="0.10678">
        <ele>2166.03</ele>
        <time>2018-01-24T13:48:49Z</time>
      </trkpt>
      <trkpt lat="42.9206" lon="0.10679">
        <ele>2166.03</ele>
        <time>2018-01-24T13:49:58Z</time>
      </trkpt>
      <trkpt lat="42.9206" lon="0.10679">
        <ele>2166.03</ele>
        <time>2018-01-24T13:50:00Z</time>
      </trkpt>
      <trkpt lat="42.92062" lon="0.10683">
        <ele>2166.03</ele>
        <time>2018-01-24T13:50:24Z</time>
      </trkpt>
      <trkpt lat="42.9206" lon="0.10685">
        <ele>2166.03</ele>
        <time>2018-01-24T13:51:20Z</time>
      </trkpt>
      <trkpt lat="42.92059" lon="0.10685">
        <ele>2166.03</ele>
        <time>2018-01-24T13:51:47Z</time>
      </trkpt>
      <trkpt lat="42.9206" lon="0.10683">
        <ele>2166.03</ele>
        <time>2018-01-24T13:53:18Z</time>
      </trkpt>
      <trkpt lat="42.92061" lon="0.10683">
        <ele>2166.03</ele>
        <time>2018-01-24T13:54:26Z</time>
      </trkpt>
      <trkpt lat="42.92061" lon="0.10682">
        <ele>2166.03</ele>
        <time>2018-01-24T13:56:31Z</time>
      </trkpt>
      <trkpt lat="42.92061" lon="0.10681">
        <ele>2166.03</ele>
        <time>2018-01-24T13:57:24Z</time>
      </trkpt>
      <trkpt lat="42.92062" lon="0.10681">
        <ele>2166.03</ele>
        <time>2018-01-24T13:58:23Z</time>
      </trkpt>
      <trkpt lat="42.92059" lon="0.10684">
        <ele>2166.03</ele>
        <time>2018-01-24T13:58:59Z</time>
      </trkpt>
      <trkpt lat="42.92053" lon="0.10687">
        <ele>2166.03</ele>
        <time>2018-01-24T13:59:44Z</time>
      </trkpt>
      <trkpt lat="42.92054" lon="0.10686">
        <ele>2166.03</ele>
        <time>2018-01-24T14:00:03Z</time>
      </trkpt>
      <trkpt lat="42.92058" lon="0.10684">
        <ele>2166.03</ele>
        <time>2018-01-24T14:00:34Z</time>
      </trkpt>
      <trkpt lat="42.92058" lon="0.10687">
        <ele>2166.03</ele>
        <time>2018-01-24T14:01:03Z</time>
      </trkpt>
      <trkpt lat="42.92059" lon="0.10687">
        <ele>2166.03</ele>
        <time>2018-01-24T14:01:36Z</time>
      </trkpt>
      <trkpt lat="42.92058" lon="0.10684">
        <ele>2166.03</ele>
        <time>2018-01-24T14:01:56Z</time>
      </trkpt>
      <trkpt lat="42.92058" lon="0.10683">
        <ele>2166.03</ele>
        <time>2018-01-24T14:02:18Z</time>
      </trkpt>
      <trkpt lat="42.92056" lon="0.10684">
        <ele>2166.03</ele>
        <time>2018-01-24T14:02:52Z</time>
      </trkpt>
      <trkpt lat="42.92056" lon="0.10685">
        <ele>2167.96</ele>
        <time>2018-01-24T14:03:00Z</time>
      </trkpt>
      <trkpt lat="42.92056" lon="0.10685">
        <ele>2167.32</ele>
        <time>2018-01-24T14:03:02Z</time>
      </trkpt>
      <trkpt lat="42.92056" lon="0.10689">
        <ele>2167.06</ele>
        <time>2018-01-24T14:03:33Z</time>
      </trkpt>
      <trkpt lat="42.92054" lon="0.10689">
        <ele>2166.75</ele>
        <time>2018-01-24T14:03:53Z</time>
      </trkpt>
      <trkpt lat="42.92053" lon="0.10688">
        <ele>2166.94</ele>
        <time>2018-01-24T14:04:14Z</time>
      </trkpt>
      <trkpt lat="42.92056" lon="0.10689">
        <ele>2167.16</ele>
        <time>2018-01-24T14:04:40Z</time>
      </trkpt>
      <trkpt lat="42.9206" lon="0.10686">
        <ele>2167.46</ele>
        <time>2018-01-24T14:05:17Z</time>
      </trkpt>
      <trkpt lat="42.9206" lon="0.10686">
        <ele>2167.46</ele>
        <time>2018-01-24T14:05:21Z</time>
      </trkpt>
      <trkpt lat="42.92049" lon="0.10684">
        <ele>2166.6</ele>
        <time>2018-01-24T14:05:30Z</time>
      </trkpt>
      <trkpt lat="42.92048" lon="0.10678">
        <ele>2166.07</ele>
        <time>2018-01-24T14:05:32Z</time>
      </trkpt>
      <trkpt lat="42.92034" lon="0.10671">
        <ele>2163.51</ele>
        <time>2018-01-24T14:05:39Z</time>
      </trkpt>
      <trkpt lat="42.92022" lon="0.1068">
        <ele>2160.7</ele>
        <time>2018-01-24T14:05:42Z</time>
      </trkpt>
      <trkpt lat="42.92001" lon="0.10702">
        <ele>2155.03</ele>
        <time>2018-01-24T14:05:45Z</time>
      </trkpt>
      <trkpt lat="42.91992" lon="0.10713">
        <ele>2150.01</ele>
        <time>2018-01-24T14:05:47Z</time>
      </trkpt>
      <trkpt lat="42.91986" lon="0.10722">
        <ele>2148.22</ele>
        <time>2018-01-24T14:05:50Z</time>
      </trkpt>
      <trkpt lat="42.91981" lon="0.10733">
        <ele>2151.18</ele>
        <time>2018-01-24T14:05:55Z</time>
      </trkpt>
      <trkpt lat="42.91974" lon="0.1075">
        <ele>2151.23</ele>
        <time>2018-01-24T14:06:00Z</time>
      </trkpt>
      <trkpt lat="42.91969" lon="0.1076">
        <ele>2149.17</ele>
        <time>2018-01-24T14:06:05Z</time>
      </trkpt>
      <trkpt lat="42.9197" lon="0.10758">
        <ele>2149.04</ele>
        <time>2018-01-24T14:06:24Z</time>
      </trkpt>
      <trkpt lat="42.91968" lon="0.10756">
        <ele>2148.99</ele>
        <time>2018-01-24T14:06:26Z</time>
      </trkpt>
      <trkpt lat="42.91953" lon="0.10757">
        <ele>2148.23</ele>
        <time>2018-01-24T14:06:30Z</time>
      </trkpt>
      <trkpt lat="42.91929" lon="0.10769">
        <ele>2144.52</ele>
        <time>2018-01-24T14:06:34Z</time>
      </trkpt>
      <trkpt lat="42.91922" lon="0.10773">
        <ele>2141.44</ele>
        <time>2018-01-24T14:06:35Z</time>
      </trkpt>
      <trkpt lat="42.91908" lon="0.10781">
        <ele>2137.39</ele>
        <time>2018-01-24T14:06:37Z</time>
      </trkpt>
      <trkpt lat="42.91895" lon="0.10792">
        <ele>2133.12</ele>
        <time>2018-01-24T14:06:39Z</time>
      </trkpt>
      <trkpt lat="42.91883" lon="0.10804">
        <ele>2129.07</ele>
        <time>2018-01-24T14:06:41Z</time>
      </trkpt>
      <trkpt lat="42.91875" lon="0.1082">
        <ele>2124.86</ele>
        <time>2018-01-24T14:06:43Z</time>
      </trkpt>
      <trkpt lat="42.91862" lon="0.10836">
        <ele>2121.61</ele>
        <time>2018-01-24T14:06:46Z</time>
      </trkpt>
      <trkpt lat="42.91849" lon="0.10868">
        <ele>2117.14</ele>
        <time>2018-01-24T14:06:51Z</time>
      </trkpt>
      <trkpt lat="42.91842" lon="0.10888">
        <ele>2113.6</ele>
        <time>2018-01-24T14:06:55Z</time>
      </trkpt>
      <trkpt lat="42.91839" lon="0.10894">
        <ele>2112.47</ele>
        <time>2018-01-24T14:06:57Z</time>
      </trkpt>
      <trkpt lat="42.91833" lon="0.10903">
        <ele>2111.44</ele>
        <time>2018-01-24T14:06:59Z</time>
      </trkpt>
      <trkpt lat="42.91827" lon="0.10914">
        <ele>2110.35</ele>
        <time>2018-01-24T14:07:01Z</time>
      </trkpt>
      <trkpt lat="42.9181" lon="0.1093">
        <ele>2105.96</ele>
        <time>2018-01-24T14:07:05Z</time>
      </trkpt>
      <trkpt lat="42.91808" lon="0.10936">
        <ele>2104.2</ele>
        <time>2018-01-24T14:07:06Z</time>
      </trkpt>
      <trkpt lat="42.91806" lon="0.10946">
        <ele>2097.84</ele>
        <time>2018-01-24T14:07:08Z</time>
      </trkpt>
      <trkpt lat="42.91786" lon="0.1096">
        <ele>2092.12</ele>
        <time>2018-01-24T14:07:13Z</time>
      </trkpt>
      <trkpt lat="42.91776" lon="0.10968">
        <ele>2087.4</ele>
        <time>2018-01-24T14:07:15Z</time>
      </trkpt>
      <trkpt lat="42.91769" lon="0.10979">
        <ele>2082.92</ele>
        <time>2018-01-24T14:07:17Z</time>
      </trkpt>
      <trkpt lat="42.91761" lon="0.10987">
        <ele>2078.37</ele>
        <time>2018-01-24T14:07:19Z</time>
      </trkpt>
      <trkpt lat="42.91756" lon="0.11001">
        <ele>2073.75</ele>
        <time>2018-01-24T14:07:22Z</time>
      </trkpt>
      <trkpt lat="42.91755" lon="0.11007">
        <ele>2070.04</ele>
        <time>2018-01-24T14:07:24Z</time>
      </trkpt>
      <trkpt lat="42.91754" lon="0.1101">
        <ele>2068.03</ele>
        <time>2018-01-24T14:07:50Z</time>
      </trkpt>
      <trkpt lat="42.91751" lon="0.11012">
        <ele>2068.01</ele>
        <time>2018-01-24T14:07:54Z</time>
      </trkpt>
      <trkpt lat="42.9174" lon="0.11018">
        <ele>2064.21</ele>
        <time>2018-01-24T14:08:01Z</time>
      </trkpt>
      <trkpt lat="42.9174" lon="0.11018">
        <ele>2061.12</ele>
        <time>2018-01-24T14:08:05Z</time>
      </trkpt>
      <trkpt lat="42.9174" lon="0.11018">
        <ele>2060.69</ele>
        <time>2018-01-24T14:08:10Z</time>
      </trkpt>
      <trkpt lat="42.91726" lon="0.11034">
        <ele>2057.88</ele>
        <time>2018-01-24T14:08:18Z</time>
      </trkpt>
      <trkpt lat="42.9172" lon="0.11042">
        <ele>2053.85</ele>
        <time>2018-01-24T14:08:21Z</time>
      </trkpt>
      <trkpt lat="42.91711" lon="0.11052">
        <ele>2049.09</ele>
        <time>2018-01-24T14:08:24Z</time>
      </trkpt>
      <trkpt lat="42.91704" lon="0.11054">
        <ele>2045.12</ele>
        <time>2018-01-24T14:08:26Z</time>
      </trkpt>
      <trkpt lat="42.91697" lon="0.11056">
        <ele>2041.59</ele>
        <time>2018-01-24T14:08:28Z</time>
      </trkpt>
      <trkpt lat="42.91689" lon="0.11058">
        <ele>2032.87</ele>
        <time>2018-01-24T14:08:32Z</time>
      </trkpt>
      <trkpt lat="42.91685" lon="0.11064">
        <ele>2027.97</ele>
        <time>2018-01-24T14:08:35Z</time>
      </trkpt>
      <trkpt lat="42.91677" lon="0.11063">
        <ele>2024.91</ele>
        <time>2018-01-24T14:08:37Z</time>
      </trkpt>
      <trkpt lat="42.91673" lon="0.11066">
        <ele>2021.66</ele>
        <time>2018-01-24T14:08:39Z</time>
      </trkpt>
      <trkpt lat="42.91667" lon="0.1107">
        <ele>2017.4</ele>
        <time>2018-01-24T14:08:41Z</time>
      </trkpt>
      <trkpt lat="42.91659" lon="0.11074">
        <ele>2013.13</ele>
        <time>2018-01-24T14:08:43Z</time>
      </trkpt>
      <trkpt lat="42.91659" lon="0.1108">
        <ele>2010.95</ele>
        <time>2018-01-24T14:08:44Z</time>
      </trkpt>
      <trkpt lat="42.91658" lon="0.11086">
        <ele>2004.33</ele>
        <time>2018-01-24T14:08:47Z</time>
      </trkpt>
      <trkpt lat="42.91658" lon="0.11086">
        <ele>2001.92</ele>
        <time>2018-01-24T14:08:50Z</time>
      </trkpt>
      <trkpt lat="42.91658" lon="0.11083">
        <ele>2001.49</ele>
        <time>2018-01-24T14:09:20Z</time>
      </trkpt>
      <trkpt lat="42.91654" lon="0.11085">
        <ele>2001.4</ele>
        <time>2018-01-24T14:09:24Z</time>
      </trkpt>
      <trkpt lat="42.91633" lon="0.11114">
        <ele>1997.16</ele>
        <time>2018-01-24T14:09:29Z</time>
      </trkpt>
      <trkpt lat="42.91627" lon="0.11121">
        <ele>1995.44</ele>
        <time>2018-01-24T14:09:30Z</time>
      </trkpt>
      <trkpt lat="42.9161" lon="0.11141">
        <ele>1988.62</ele>
        <time>2018-01-24T14:09:34Z</time>
      </trkpt>
      <trkpt lat="42.91587" lon="0.11144">
        <ele>1984.75</ele>
        <time>2018-01-24T14:09:38Z</time>
      </trkpt>
      <trkpt lat="42.91574" lon="0.11149">
        <ele>1980.18</ele>
        <time>2018-01-24T14:09:40Z</time>
      </trkpt>
      <trkpt lat="42.91557" lon="0.11154">
        <ele>1975.3</ele>
        <time>2018-01-24T14:09:42Z</time>
      </trkpt>
      <trkpt lat="42.91548" lon="0.11173">
        <ele>1969.4</ele>
        <time>2018-01-24T14:09:44Z</time>
      </trkpt>
      <trkpt lat="42.91541" lon="0.11197">
        <ele>1963.13</ele>
        <time>2018-01-24T14:09:47Z</time>
      </trkpt>
      <trkpt lat="42.91536" lon="0.11211">
        <ele>1961.75</ele>
        <time>2018-01-24T14:09:50Z</time>
      </trkpt>
      <trkpt lat="42.91536" lon="0.11223">
        <ele>1960.35</ele>
        <time>2018-01-24T14:10:00Z</time>
      </trkpt>
      <trkpt lat="42.91538" lon="0.11229">
        <ele>1961.09</ele>
        <time>2018-01-24T14:10:18Z</time>
      </trkpt>
      <trkpt lat="42.91541" lon="0.11239">
        <ele>1961.32</ele>
        <time>2018-01-24T14:10:38Z</time>
      </trkpt>
      <trkpt lat="42.91542" lon="0.11241">
        <ele>1960.6</ele>
        <time>2018-01-24T14:10:48Z</time>
      </trkpt>
      <trkpt lat="42.91541" lon="0.11248">
        <ele>1960.52</ele>
        <time>2018-01-24T14:10:51Z</time>
      </trkpt>
      <trkpt lat="42.91541" lon="0.11254">
        <ele>1959.94</ele>
        <time>2018-01-24T14:10:54Z</time>
      </trkpt>
      <trkpt lat="42.91529" lon="0.11276">
        <ele>1956.15</ele>
        <time>2018-01-24T14:11:01Z</time>
      </trkpt>
      <trkpt lat="42.91525" lon="0.11285">
        <ele>1951.87</ele>
        <time>2018-01-24T14:11:03Z</time>
      </trkpt>
      <trkpt lat="42.9152" lon="0.113">
        <ele>1946.24</ele>
        <time>2018-01-24T14:11:06Z</time>
      </trkpt>
      <trkpt lat="42.91523" lon="0.11312">
        <ele>1939.87</ele>
        <time>2018-01-24T14:11:09Z</time>
      </trkpt>
      <trkpt lat="42.91528" lon="0.11315">
        <ele>1937.85</ele>
        <time>2018-01-24T14:11:10Z</time>
      </trkpt>
      <trkpt lat="42.91528" lon="0.11331">
        <ele>1932.52</ele>
        <time>2018-01-24T14:11:14Z</time>
      </trkpt>
      <trkpt lat="42.91529" lon="0.11341">
        <ele>1929.12</ele>
        <time>2018-01-24T14:11:16Z</time>
      </trkpt>
      <trkpt lat="42.91522" lon="0.11348">
        <ele>1925.15</ele>
        <time>2018-01-24T14:11:18Z</time>
      </trkpt>
      <trkpt lat="42.91518" lon="0.11355">
        <ele>1920.72</ele>
        <time>2018-01-24T14:11:20Z</time>
      </trkpt>
      <trkpt lat="42.91523" lon="0.11362">
        <ele>1916.6</ele>
        <time>2018-01-24T14:11:22Z</time>
      </trkpt>
      <trkpt lat="42.91526" lon="0.11364">
        <ele>1915.1</ele>
        <time>2018-01-24T14:11:23Z</time>
      </trkpt>
      <trkpt lat="42.91531" lon="0.11365">
        <ele>1910.89</ele>
        <time>2018-01-24T14:11:28Z</time>
      </trkpt>
      <trkpt lat="42.91532" lon="0.11364">
        <ele>1909.71</ele>
        <time>2018-01-24T14:11:56Z</time>
      </trkpt>
      <trkpt lat="42.91531" lon="0.11365">
        <ele>1909.61</ele>
        <time>2018-01-24T14:11:57Z</time>
      </trkpt>
      <trkpt lat="42.91513" lon="0.114">
        <ele>1907.8</ele>
        <time>2018-01-24T14:12:03Z</time>
      </trkpt>
      <trkpt lat="42.915" lon="0.11421">
        <ele>1904.24</ele>
        <time>2018-01-24T14:12:05Z</time>
      </trkpt>
      <trkpt lat="42.91484" lon="0.11463">
        <ele>1895.85</ele>
        <time>2018-01-24T14:12:08Z</time>
      </trkpt>
      <trkpt lat="42.91478" lon="0.11478">
        <ele>1889.5</ele>
        <time>2018-01-24T14:12:09Z</time>
      </trkpt>
      <trkpt lat="42.91469" lon="0.11506">
        <ele>1884.13</ele>
        <time>2018-01-24T14:12:11Z</time>
      </trkpt>
      <trkpt lat="42.91462" lon="0.11531">
        <ele>1880.05</ele>
        <time>2018-01-24T14:12:13Z</time>
      </trkpt>
      <trkpt lat="42.91455" lon="0.11566">
        <ele>1878.25</ele>
        <time>2018-01-24T14:12:16Z</time>
      </trkpt>
      <trkpt lat="42.91418" lon="0.11604">
        <ele>1877.7</ele>
        <time>2018-01-24T14:12:23Z</time>
      </trkpt>
      <trkpt lat="42.91393" lon="0.11642">
        <ele>1873.93</ele>
        <time>2018-01-24T14:12:29Z</time>
      </trkpt>
      <trkpt lat="42.91373" lon="0.11678">
        <ele>1868.2</ele>
        <time>2018-01-24T14:12:34Z</time>
      </trkpt>
      <trkpt lat="42.91367" lon="0.11694">
        <ele>1866.66</ele>
        <time>2018-01-24T14:12:36Z</time>
      </trkpt>
      <trkpt lat="42.91352" lon="0.11737">
        <ele>1863.01</ele>
        <time>2018-01-24T14:12:42Z</time>
      </trkpt>
      <trkpt lat="42.91338" lon="0.11761">
        <ele>1861.82</ele>
        <time>2018-01-24T14:12:52Z</time>
      </trkpt>
      <trkpt lat="42.91338" lon="0.1176">
        <ele>1861.7</ele>
        <time>2018-01-24T14:13:14Z</time>
      </trkpt>
      <trkpt lat="42.91341" lon="0.11761">
        <ele>1861.53</ele>
        <time>2018-01-24T14:13:38Z</time>
      </trkpt>
      <trkpt lat="42.91341" lon="0.11762">
        <ele>1861.61</ele>
        <time>2018-01-24T14:14:11Z</time>
      </trkpt>
      <trkpt lat="42.91339" lon="0.11765">
        <ele>1861.61</ele>
        <time>2018-01-24T14:14:31Z</time>
      </trkpt>
      <trkpt lat="42.91336" lon="0.11777">
        <ele>1861.31</ele>
        <time>2018-01-24T14:14:48Z</time>
      </trkpt>
      <trkpt lat="42.91338" lon="0.11779">
        <ele>1861.61</ele>
        <time>2018-01-24T14:15:14Z</time>
      </trkpt>
      <trkpt lat="42.91339" lon="0.11781">
        <ele>1861.1</ele>
        <time>2018-01-24T14:15:36Z</time>
      </trkpt>
      <trkpt lat="42.91341" lon="0.118">
        <ele>1860.94</ele>
        <time>2018-01-24T14:15:41Z</time>
      </trkpt>
      <trkpt lat="42.91347" lon="0.11832">
        <ele>1857.03</ele>
        <time>2018-01-24T14:15:45Z</time>
      </trkpt>
      <trkpt lat="42.91352" lon="0.11863">
        <ele>1853.27</ele>
        <time>2018-01-24T14:15:48Z</time>
      </trkpt>
      <trkpt lat="42.91354" lon="0.11881">
        <ele>1850.96</ele>
        <time>2018-01-24T14:15:50Z</time>
      </trkpt>
      <trkpt lat="42.91359" lon="0.11918">
        <ele>1848.59</ele>
        <time>2018-01-24T14:15:54Z</time>
      </trkpt>
      <trkpt lat="42.91355" lon="0.11956">
        <ele>1845.9</ele>
        <time>2018-01-24T14:16:00Z</time>
      </trkpt>
      <trkpt lat="42.91343" lon="0.11981">
        <ele>1844.58</ele>
        <time>2018-01-24T14:16:12Z</time>
      </trkpt>
      <trkpt lat="42.91342" lon="0.11996">
        <ele>1844.83</ele>
        <time>2018-01-24T14:16:27Z</time>
      </trkpt>
      <trkpt lat="42.91346" lon="0.11999">
        <ele>1845.48</ele>
        <time>2018-01-24T14:16:51Z</time>
      </trkpt>
      <trkpt lat="42.91347" lon="0.12002">
        <ele>1845.62</ele>
        <time>2018-01-24T14:16:53Z</time>
      </trkpt>
      <trkpt lat="42.91348" lon="0.12012">
        <ele>1845.13</ele>
        <time>2018-01-24T14:16:58Z</time>
      </trkpt>
      <trkpt lat="42.91337" lon="0.12019">
        <ele>1842.6</ele>
        <time>2018-01-24T14:17:08Z</time>
      </trkpt>
      <trkpt lat="42.91336" lon="0.1202">
        <ele>1842.67</ele>
        <time>2018-01-24T14:17:09Z</time>
      </trkpt>
      <trkpt lat="42.91332" lon="0.12023">
        <ele>1842.81</ele>
        <time>2018-01-24T14:17:11Z</time>
      </trkpt>
      <trkpt lat="42.91303" lon="0.12053">
        <ele>1839.53</ele>
        <time>2018-01-24T14:17:18Z</time>
      </trkpt>
      <trkpt lat="42.91295" lon="0.1206">
        <ele>1836.53</ele>
        <time>2018-01-24T14:17:21Z</time>
      </trkpt>
      <trkpt lat="42.91276" lon="0.12051">
        <ele>1833.54</ele>
        <time>2018-01-24T14:17:27Z</time>
      </trkpt>
      <trkpt lat="42.9127" lon="0.12052">
        <ele>1830.44</ele>
        <time>2018-01-24T14:17:29Z</time>
      </trkpt>
      <trkpt lat="42.91266" lon="0.12058">
        <ele>1826.52</ele>
        <time>2018-01-24T14:17:31Z</time>
      </trkpt>
      <trkpt lat="42.91266" lon="0.1206">
        <ele>1823.4</ele>
        <time>2018-01-24T14:17:33Z</time>
      </trkpt>
      <trkpt lat="42.91266" lon="0.12061">
        <ele>1822</ele>
        <time>2018-01-24T14:17:35Z</time>
      </trkpt>
      <trkpt lat="42.91257" lon="0.12069">
        <ele>1820.75</ele>
        <time>2018-01-24T14:17:45Z</time>
      </trkpt>
      <trkpt lat="42.91248" lon="0.12075">
        <ele>1820.18</ele>
        <time>2018-01-24T14:17:49Z</time>
      </trkpt>
      <trkpt lat="42.91225" lon="0.12092">
        <ele>1816.24</ele>
        <time>2018-01-24T14:17:55Z</time>
      </trkpt>
      <trkpt lat="42.9122" lon="0.12095">
        <ele>1815.48</ele>
        <time>2018-01-24T14:17:57Z</time>
      </trkpt>
      <trkpt lat="42.91208" lon="0.12099">
        <ele>1814.86</ele>
        <time>2018-01-24T14:18:02Z</time>
      </trkpt>
      <trkpt lat="42.91188" lon="0.12102">
        <ele>1810.95</ele>
        <time>2018-01-24T14:18:07Z</time>
      </trkpt>
      <trkpt lat="42.9118" lon="0.12103">
        <ele>1809.44</ele>
        <time>2018-01-24T14:18:10Z</time>
      </trkpt>
      <trkpt lat="42.91176" lon="0.12104">
        <ele>1809.28</ele>
        <time>2018-01-24T14:18:11Z</time>
      </trkpt>
      <trkpt lat="42.91149" lon="0.12103">
        <ele>1807.25</ele>
        <time>2018-01-24T14:18:16Z</time>
      </trkpt>
      <trkpt lat="42.91127" lon="0.12096">
        <ele>1803.72</ele>
        <time>2018-01-24T14:18:20Z</time>
      </trkpt>
      <trkpt lat="42.91084" lon="0.12073">
        <ele>1800.58</ele>
        <time>2018-01-24T14:18:34Z</time>
      </trkpt>
      <trkpt lat="42.91075" lon="0.1207">
        <ele>1799.64</ele>
        <time>2018-01-24T14:18:36Z</time>
      </trkpt>
      <trkpt lat="42.9105" lon="0.12052">
        <ele>1796.01</ele>
        <time>2018-01-24T14:18:42Z</time>
      </trkpt>
      <trkpt lat="42.9102" lon="0.12022">
        <ele>1793.01</ele>
        <time>2018-01-24T14:18:56Z</time>
      </trkpt>
      <trkpt lat="42.91019" lon="0.12021">
        <ele>1792.71</ele>
        <time>2018-01-24T14:18:59Z</time>
      </trkpt>
      <trkpt lat="42.91021" lon="0.12019">
        <ele>1790.82</ele>
        <time>2018-01-24T14:19:13Z</time>
      </trkpt>
      <trkpt lat="42.91021" lon="0.12023">
        <ele>1790.73</ele>
        <time>2018-01-24T14:19:36Z</time>
      </trkpt>
      <trkpt lat="42.91024" lon="0.1202">
        <ele>1790.8</ele>
        <time>2018-01-24T14:19:59Z</time>
      </trkpt>
      <trkpt lat="42.91013" lon="0.11991">
        <ele>1787.9</ele>
        <time>2018-01-24T14:20:05Z</time>
      </trkpt>
      <trkpt lat="42.9101" lon="0.11971">
        <ele>1784.56</ele>
        <time>2018-01-24T14:20:07Z</time>
      </trkpt>
      <trkpt lat="42.91001" lon="0.11956">
        <ele>1779.95</ele>
        <time>2018-01-24T14:20:09Z</time>
      </trkpt>
      <trkpt lat="42.90983" lon="0.11918">
        <ele>1770.74</ele>
        <time>2018-01-24T14:20:13Z</time>
      </trkpt>
      <trkpt lat="42.90977" lon="0.1191">
        <ele>1767.67</ele>
        <time>2018-01-24T14:20:14Z</time>
      </trkpt>
      <trkpt lat="42.90974" lon="0.119">
        <ele>1764.49</ele>
        <time>2018-01-24T14:20:15Z</time>
      </trkpt>
      <trkpt lat="42.90972" lon="0.11875">
        <ele>1759.76</ele>
        <time>2018-01-24T14:20:17Z</time>
      </trkpt>
      <trkpt lat="42.90964" lon="0.11854">
        <ele>1754.53</ele>
        <time>2018-01-24T14:20:19Z</time>
      </trkpt>
      <trkpt lat="42.90961" lon="0.11844">
        <ele>1751.7</ele>
        <time>2018-01-24T14:20:20Z</time>
      </trkpt>
      <trkpt lat="42.90953" lon="0.11825">
        <ele>1747.31</ele>
        <time>2018-01-24T14:20:22Z</time>
      </trkpt>
      <trkpt lat="42.90948" lon="0.11806">
        <ele>1742.96</ele>
        <time>2018-01-24T14:20:24Z</time>
      </trkpt>
      <trkpt lat="42.90932" lon="0.1179">
        <ele>1736.95</ele>
        <time>2018-01-24T14:20:27Z</time>
      </trkpt>
      <trkpt lat="42.90923" lon="0.1178">
        <ele>1732.81</ele>
        <time>2018-01-24T14:20:29Z</time>
      </trkpt>
      <trkpt lat="42.90909" lon="0.11767">
        <ele>1729.19</ele>
        <time>2018-01-24T14:20:32Z</time>
      </trkpt>
      <trkpt lat="42.90901" lon="0.11767">
        <ele>1724.99</ele>
        <time>2018-01-24T14:20:34Z</time>
      </trkpt>
      <trkpt lat="42.90889" lon="0.11759">
        <ele>1722.5</ele>
        <time>2018-01-24T14:20:38Z</time>
      </trkpt>
      <trkpt lat="42.90878" lon="0.1174">
        <ele>1718.9</ele>
        <time>2018-01-24T14:20:43Z</time>
      </trkpt>
      <trkpt lat="42.90878" lon="0.11739">
        <ele>1717.04</ele>
        <time>2018-01-24T14:20:46Z</time>
      </trkpt>
      <trkpt lat="42.90886" lon="0.11737">
        <ele>1715.69</ele>
        <time>2018-01-24T14:21:09Z</time>
      </trkpt>
      <trkpt lat="42.90891" lon="0.11734">
        <ele>1713.98</ele>
        <time>2018-01-24T14:21:14Z</time>
      </trkpt>
      <trkpt lat="42.90894" lon="0.11703">
        <ele>1710.87</ele>
        <time>2018-01-24T14:21:20Z</time>
      </trkpt>
      <trkpt lat="42.90898" lon="0.11685">
        <ele>1706.48</ele>
        <time>2018-01-24T14:21:23Z</time>
      </trkpt>
      <trkpt lat="42.90896" lon="0.11672">
        <ele>1702.45</ele>
        <time>2018-01-24T14:21:25Z</time>
      </trkpt>
      <trkpt lat="42.90901" lon="0.11664">
        <ele>1698.1</ele>
        <time>2018-01-24T14:21:27Z</time>
      </trkpt>
      <trkpt lat="42.90913" lon="0.11651">
        <ele>1690.32</ele>
        <time>2018-01-24T14:21:31Z</time>
      </trkpt>
      <trkpt lat="42.90911" lon="0.11646">
        <ele>1689.05</ele>
        <time>2018-01-24T14:21:32Z</time>
      </trkpt>
      <trkpt lat="42.90905" lon="0.11628">
        <ele>1684.59</ele>
        <time>2018-01-24T14:21:35Z</time>
      </trkpt>
      <trkpt lat="42.90894" lon="0.11616">
        <ele>1679.6</ele>
        <time>2018-01-24T14:21:38Z</time>
      </trkpt>
      <trkpt lat="42.90889" lon="0.11614">
        <ele>1677.66</ele>
        <time>2018-01-24T14:21:39Z</time>
      </trkpt>
      <trkpt lat="42.90885" lon="0.11613">
        <ele>1672.75</ele>
        <time>2018-01-24T14:21:43Z</time>
      </trkpt>
      <trkpt lat="42.90861" lon="0.11602">
        <ele>1668.47</ele>
        <time>2018-01-24T14:21:51Z</time>
      </trkpt>
      <trkpt lat="42.90857" lon="0.11595">
        <ele>1666.94</ele>
        <time>2018-01-24T14:21:52Z</time>
      </trkpt>
      <trkpt lat="42.90847" lon="0.11582">
        <ele>1662.42</ele>
        <time>2018-01-24T14:21:55Z</time>
      </trkpt>
      <trkpt lat="42.90844" lon="0.11585">
        <ele>1660.57</ele>
        <time>2018-01-24T14:21:56Z</time>
      </trkpt>
      <trkpt lat="42.90841" lon="0.11585">
        <ele>1658.91</ele>
        <time>2018-01-24T14:21:57Z</time>
      </trkpt>
      <trkpt lat="42.90838" lon="0.11581">
        <ele>1657.67</ele>
        <time>2018-01-24T14:21:58Z</time>
      </trkpt>
      <trkpt lat="42.90831" lon="0.1157">
        <ele>1654.27</ele>
        <time>2018-01-24T14:22:02Z</time>
      </trkpt>
      <trkpt lat="42.90833" lon="0.11571">
        <ele>1652.07</ele>
        <time>2018-01-24T14:22:27Z</time>
      </trkpt>
      <trkpt lat="42.90833" lon="0.11574">
        <ele>1651.91</ele>
        <time>2018-01-24T14:22:50Z</time>
      </trkpt>
      <trkpt lat="42.90829" lon="0.11578">
        <ele>1651.91</ele>
        <time>2018-01-24T14:22:58Z</time>
      </trkpt>
      <trkpt lat="42.90827" lon="0.11579">
        <ele>1651.91</ele>
        <time>2018-01-24T14:22:59Z</time>
      </trkpt>
      <trkpt lat="42.90825" lon="0.11579">
        <ele>1651.91</ele>
        <time>2018-01-24T14:23:00Z</time>
      </trkpt>
      <trkpt lat="42.90823" lon="0.11575">
        <ele>1651.91</ele>
        <time>2018-01-24T14:23:01Z</time>
      </trkpt>
      <trkpt lat="42.90822" lon="0.11569">
        <ele>1651.9</ele>
        <time>2018-01-24T14:23:02Z</time>
      </trkpt>
      <trkpt lat="42.90821" lon="0.11563">
        <ele>1651.8</ele>
        <time>2018-01-24T14:23:03Z</time>
      </trkpt>
      <trkpt lat="42.90819" lon="0.11558">
        <ele>1651.5</ele>
        <time>2018-01-24T14:23:04Z</time>
      </trkpt>
      <trkpt lat="42.90814" lon="0.11556">
        <ele>1650.94</ele>
        <time>2018-01-24T14:23:05Z</time>
      </trkpt>
      <trkpt lat="42.90807" lon="0.11556">
        <ele>1650.19</ele>
        <time>2018-01-24T14:23:06Z</time>
      </trkpt>
      <trkpt lat="42.90801" lon="0.11557">
        <ele>1649.44</ele>
        <time>2018-01-24T14:23:07Z</time>
      </trkpt>
      <trkpt lat="42.90795" lon="0.1156">
        <ele>1648.64</ele>
        <time>2018-01-24T14:23:08Z</time>
      </trkpt>
      <trkpt lat="42.9079" lon="0.11563">
        <ele>1647.64</ele>
        <time>2018-01-24T14:23:09Z</time>
      </trkpt>
      <trkpt lat="42.90785" lon="0.11567">
        <ele>1646.49</ele>
        <time>2018-01-24T14:23:10Z</time>
      </trkpt>
      <trkpt lat="42.90773" lon="0.11578">
        <ele>1643.14</ele>
        <time>2018-01-24T14:23:13Z</time>
      </trkpt>
      <trkpt lat="42.90736" lon="0.11623">
        <ele>1639.96</ele>
        <time>2018-01-24T14:23:25Z</time>
      </trkpt>
      <trkpt lat="42.90724" lon="0.11626">
        <ele>1639.67</ele>
        <time>2018-01-24T14:23:28Z</time>
      </trkpt>
      <trkpt lat="42.90721" lon="0.11623">
        <ele>1639.56</ele>
        <time>2018-01-24T14:23:29Z</time>
      </trkpt>
      <trkpt lat="42.90717" lon="0.11619">
        <ele>1639.42</ele>
        <time>2018-01-24T14:23:30Z</time>
      </trkpt>
      <trkpt lat="42.90714" lon="0.11613">
        <ele>1639.11</ele>
        <time>2018-01-24T14:23:31Z</time>
      </trkpt>
      <trkpt lat="42.90712" lon="0.11606">
        <ele>1638.54</ele>
        <time>2018-01-24T14:23:32Z</time>
      </trkpt>
      <trkpt lat="42.90711" lon="0.11599">
        <ele>1637.81</ele>
        <time>2018-01-24T14:23:33Z</time>
      </trkpt>
      <trkpt lat="42.90712" lon="0.11592">
        <ele>1637.1</ele>
        <time>2018-01-24T14:23:34Z</time>
      </trkpt>
      <trkpt lat="42.90712" lon="0.11584">
        <ele>1636.5</ele>
        <time>2018-01-24T14:23:35Z</time>
      </trkpt>
      <trkpt lat="42.90713" lon="0.11577">
        <ele>1635.96</ele>
        <time>2018-01-24T14:23:36Z</time>
      </trkpt>
      <trkpt lat="42.90714" lon="0.11568">
        <ele>1635.41</ele>
        <time>2018-01-24T14:23:37Z</time>
      </trkpt>
      <trkpt lat="42.90719" lon="0.11533">
        <ele>1632</ele>
        <time>2018-01-24T14:23:41Z</time>
      </trkpt>
      <trkpt lat="42.9072" lon="0.11524">
        <ele>1631.19</ele>
        <time>2018-01-24T14:23:42Z</time>
      </trkpt>
      <trkpt lat="42.9072" lon="0.11515">
        <ele>1630.39</ele>
        <time>2018-01-24T14:23:43Z</time>
      </trkpt>
      <trkpt lat="42.9072" lon="0.11474">
        <ele>1626.63</ele>
        <time>2018-01-24T14:23:47Z</time>
      </trkpt>
      <trkpt lat="42.90715" lon="0.11428">
        <ele>1622.9</ele>
        <time>2018-01-24T14:23:51Z</time>
      </trkpt>
      <trkpt lat="42.9071" lon="0.11404">
        <ele>1620.43</ele>
        <time>2018-01-24T14:23:53Z</time>
      </trkpt>
      <trkpt lat="42.90698" lon="0.11366">
        <ele>1616.52</ele>
        <time>2018-01-24T14:23:56Z</time>
      </trkpt>
      <trkpt lat="42.90682" lon="0.11325">
        <ele>1612.04</ele>
        <time>2018-01-24T14:23:59Z</time>
      </trkpt>
      <trkpt lat="42.90669" lon="0.11298">
        <ele>1607.79</ele>
        <time>2018-01-24T14:24:01Z</time>
      </trkpt>
      <trkpt lat="42.90663" lon="0.11272">
        <ele>1604.46</ele>
        <time>2018-01-24T14:24:03Z</time>
      </trkpt>
      <trkpt lat="42.90664" lon="0.1126">
        <ele>1603.66</ele>
        <time>2018-01-24T14:24:04Z</time>
      </trkpt>
      <trkpt lat="42.90667" lon="0.11247">
        <ele>1603.03</ele>
        <time>2018-01-24T14:24:05Z</time>
      </trkpt>
      <trkpt lat="42.90668" lon="0.11235">
        <ele>1602.49</ele>
        <time>2018-01-24T14:24:06Z</time>
      </trkpt>
      <trkpt lat="42.90667" lon="0.11223">
        <ele>1602.01</ele>
        <time>2018-01-24T14:24:07Z</time>
      </trkpt>
      <trkpt lat="42.90666" lon="0.11211">
        <ele>1601.17</ele>
        <time>2018-01-24T14:24:08Z</time>
      </trkpt>
      <trkpt lat="42.9066" lon="0.11146">
        <ele>1597.36</ele>
        <time>2018-01-24T14:24:13Z</time>
      </trkpt>
      <trkpt lat="42.90659" lon="0.11105">
        <ele>1593.61</ele>
        <time>2018-01-24T14:24:16Z</time>
      </trkpt>
      <trkpt lat="42.90653" lon="0.11068">
        <ele>1589.94</ele>
        <time>2018-01-24T14:24:19Z</time>
      </trkpt>
      <trkpt lat="42.90649" lon="0.11057">
        <ele>1588.86</ele>
        <time>2018-01-24T14:24:20Z</time>
      </trkpt>
      <trkpt lat="42.90644" lon="0.11046">
        <ele>1588.61</ele>
        <time>2018-01-24T14:24:21Z</time>
      </trkpt>
      <trkpt lat="42.90613" lon="0.10973">
        <ele>1584.43</ele>
        <time>2018-01-24T14:24:27Z</time>
      </trkpt>
      <trkpt lat="42.90603" lon="0.10945">
        <ele>1581.33</ele>
        <time>2018-01-24T14:24:29Z</time>
      </trkpt>
      <trkpt lat="42.90591" lon="0.10916">
        <ele>1577.75</ele>
        <time>2018-01-24T14:24:31Z</time>
      </trkpt>
      <trkpt lat="42.90586" lon="0.10903">
        <ele>1575.27</ele>
        <time>2018-01-24T14:24:32Z</time>
      </trkpt>
      <trkpt lat="42.90582" lon="0.1089">
        <ele>1572.95</ele>
        <time>2018-01-24T14:24:33Z</time>
      </trkpt>
      <trkpt lat="42.90557" lon="0.10792">
        <ele>1569.97</ele>
        <time>2018-01-24T14:24:43Z</time>
      </trkpt>
      <trkpt lat="42.90553" lon="0.10784">
        <ele>1569.66</ele>
        <time>2018-01-24T14:24:44Z</time>
      </trkpt>
      <trkpt lat="42.90548" lon="0.10778">
        <ele>1569.42</ele>
        <time>2018-01-24T14:24:45Z</time>
      </trkpt>
      <trkpt lat="42.9054" lon="0.10765">
        <ele>1568.9</ele>
        <time>2018-01-24T14:24:47Z</time>
      </trkpt>
      <trkpt lat="42.90537" lon="0.10758">
        <ele>1568.65</ele>
        <time>2018-01-24T14:24:48Z</time>
      </trkpt>
      <trkpt lat="42.90536" lon="0.10748">
        <ele>1568.43</ele>
        <time>2018-01-24T14:24:49Z</time>
      </trkpt>
      <trkpt lat="42.90537" lon="0.10737">
        <ele>1568.13</ele>
        <time>2018-01-24T14:24:50Z</time>
      </trkpt>
      <trkpt lat="42.90537" lon="0.10726">
        <ele>1567.63</ele>
        <time>2018-01-24T14:24:51Z</time>
      </trkpt>
      <trkpt lat="42.90536" lon="0.10706">
        <ele>1563.42</ele>
        <time>2018-01-24T14:24:53Z</time>
      </trkpt>
      <trkpt lat="42.90524" lon="0.10673">
        <ele>1557.32</ele>
        <time>2018-01-24T14:24:57Z</time>
      </trkpt>
      <trkpt lat="42.90519" lon="0.10667">
        <ele>1555.97</ele>
        <time>2018-01-24T14:24:58Z</time>
      </trkpt>
      <trkpt lat="42.90489" lon="0.10637">
        <ele>1551.56</ele>
        <time>2018-01-24T14:25:02Z</time>
      </trkpt>
      <trkpt lat="42.90469" lon="0.10616">
        <ele>1548.13</ele>
        <time>2018-01-24T14:25:04Z</time>
      </trkpt>
      <trkpt lat="42.90447" lon="0.10593">
        <ele>1542.3</ele>
        <time>2018-01-24T14:25:06Z</time>
      </trkpt>
      <trkpt lat="42.90436" lon="0.10582">
        <ele>1538.73</ele>
        <time>2018-01-24T14:25:07Z</time>
      </trkpt>
      <trkpt lat="42.90425" lon="0.10573">
        <ele>1535.46</ele>
        <time>2018-01-24T14:25:08Z</time>
      </trkpt>
      <trkpt lat="42.90371" lon="0.10555">
        <ele>1530.25</ele>
        <time>2018-01-24T14:25:13Z</time>
      </trkpt>
      <trkpt lat="42.90319" lon="0.10541">
        <ele>1527.06</ele>
        <time>2018-01-24T14:25:18Z</time>
      </trkpt>
      <trkpt lat="42.90301" lon="0.10533">
        <ele>1522.55</ele>
        <time>2018-01-24T14:25:20Z</time>
      </trkpt>
      <trkpt lat="42.90285" lon="0.10522">
        <ele>1519.5</ele>
        <time>2018-01-24T14:25:22Z</time>
      </trkpt>
      <trkpt lat="42.90265" lon="0.10504">
        <ele>1517.92</ele>
        <time>2018-01-24T14:25:25Z</time>
      </trkpt>
      <trkpt lat="42.90233" lon="0.10476">
        <ele>1516.22</ele>
        <time>2018-01-24T14:25:29Z</time>
      </trkpt>
      <trkpt lat="42.90218" lon="0.1046">
        <ele>1512.32</ele>
        <time>2018-01-24T14:25:31Z</time>
      </trkpt>
      <trkpt lat="42.90208" lon="0.10443">
        <ele>1511</ele>
        <time>2018-01-24T14:25:33Z</time>
      </trkpt>
      <trkpt lat="42.90199" lon="0.10426">
        <ele>1510.26</ele>
        <time>2018-01-24T14:25:35Z</time>
      </trkpt>
      <trkpt lat="42.90198" lon="0.10397">
        <ele>1506.08</ele>
        <time>2018-01-24T14:25:38Z</time>
      </trkpt>
      <trkpt lat="42.90209" lon="0.10376">
        <ele>1502.96</ele>
        <time>2018-01-24T14:25:40Z</time>
      </trkpt>
      <trkpt lat="42.90217" lon="0.10366">
        <ele>1501.15</ele>
        <time>2018-01-24T14:25:41Z</time>
      </trkpt>
      <trkpt lat="42.90227" lon="0.1036">
        <ele>1498.61</ele>
        <time>2018-01-24T14:25:42Z</time>
      </trkpt>
      <trkpt lat="42.90238" lon="0.10357">
        <ele>1495.7</ele>
        <time>2018-01-24T14:25:43Z</time>
      </trkpt>
      <trkpt lat="42.90248" lon="0.10355">
        <ele>1493.06</ele>
        <time>2018-01-24T14:25:44Z</time>
      </trkpt>
      <trkpt lat="42.90259" lon="0.10354">
        <ele>1490.92</ele>
        <time>2018-01-24T14:25:45Z</time>
      </trkpt>
      <trkpt lat="42.9028" lon="0.10352">
        <ele>1488.18</ele>
        <time>2018-01-24T14:25:47Z</time>
      </trkpt>
      <trkpt lat="42.903" lon="0.10351">
        <ele>1486.94</ele>
        <time>2018-01-24T14:25:49Z</time>
      </trkpt>
      <trkpt lat="42.90327" lon="0.10345">
        <ele>1485.34</ele>
        <time>2018-01-24T14:25:52Z</time>
      </trkpt>
      <trkpt lat="42.90345" lon="0.10338">
        <ele>1483.88</ele>
        <time>2018-01-24T14:25:55Z</time>
      </trkpt>
      <trkpt lat="42.90349" lon="0.10338">
        <ele>1483.69</ele>
        <time>2018-01-24T14:25:56Z</time>
      </trkpt>
      <trkpt lat="42.90357" lon="0.10336">
        <ele>1483.6</ele>
        <time>2018-01-24T14:25:59Z</time>
      </trkpt>
      <trkpt lat="42.90359" lon="0.10337">
        <ele>1483.68</ele>
        <time>2018-01-24T14:26:00Z</time>
      </trkpt>
      <trkpt lat="42.90361" lon="0.10338">
        <ele>1483.73</ele>
        <time>2018-01-24T14:26:01Z</time>
      </trkpt>
      <trkpt lat="42.90368" lon="0.10341">
        <ele>1483.52</ele>
        <time>2018-01-24T14:26:15Z</time>
      </trkpt>
      <trkpt lat="42.9037" lon="0.10344">
        <ele>1483.01</ele>
        <time>2018-01-24T14:26:35Z</time>
      </trkpt>
      <trkpt lat="42.9037" lon="0.10345">
        <ele>1483.37</ele>
        <time>2018-01-24T14:26:49Z</time>
      </trkpt>
    </trkseg>
  </trk>
</gpx>